Peotone Weather
Station Historical Data
Daily Summary for February 7, 2012 Units:  Both    English   Metric
« Previous Day
Next Day »
Daily Weekly Monthly Yearly Custom
  High: Low: Average:
Temperature: 34.1 °F /  1.2 °C 28.7 °F /  -1.8 °C 31 °F /  -0.6 °C
Dew Point: 32.5 °F /  0.3 °C 26.1 °F /  -3.3 °C 27.8 °F /  -2.3 °C
Humidity: 94% 80% 88%
Wind Speed: 16.0mph /  25.7km/h - 4mph /  6.4km/h
Wind Gust: 17.0mph /  27.4km/h - -
Wind- - SE
Pressure: 30.39 in /  1029 hPa 30.22 in /  1023.2 hPa -
Precipitation: 0.00 in /  0 mm    
Historical Graphs
 
 
Tabular Data for February 7, 2012
Time Temperature Dew Point Pressure Wind Wind Speed Wind Gust Humidity Rainfall Rate (Hourly) solar Conditions
00:00 29.4 °F /  -1.4 °C 27.1 °F /  -2.7 °C 30.23in /  1023.6hPa NW 7.0mph /  11.3km/h 11.0mph /  17.7km/h 91% 0.00in /  0mm 0.00 W/m2
00:02 29.3 °F /  -1.5 °C 27.0 °F /  -2.8 °C 30.23in /  1023.6hPa NW 6.0mph /  9.7km/h 7.0mph /  11.3km/h 91% 0.00in /  0mm 0.00 W/m2
00:03 29.3 °F /  -1.5 °C 27.0 °F /  -2.8 °C 30.23in /  1023.6hPa WNW 3.0mph /  4.8km/h 7.0mph /  11.3km/h 91% 0.00in /  0mm 0.00 W/m2
00:06 29.2 °F /  -1.6 °C 26.9 °F /  -2.8 °C 30.23in /  1023.6hPa WNW 4.0mph /  6.4km/h 6.0mph /  9.7km/h 91% 0.00in /  0mm 0.00 W/m2
00:07 29.3 °F /  -1.5 °C 27.0 °F /  -2.8 °C 30.23in /  1023.6hPa WNW 6.0mph /  9.7km/h 9.0mph /  14.5km/h 91% 0.00in /  0mm 0.00 W/m2
00:08 29.2 °F /  -1.6 °C 26.9 °F /  -2.8 °C 30.23in /  1023.6hPa WNW 9.0mph /  14.5km/h 11.0mph /  17.7km/h 91% 0.00in /  0mm 0.00 W/m2
00:11 29.2 °F /  -1.6 °C 26.9 °F /  -2.8 °C 30.23in /  1023.6hPa WNW 4.0mph /  6.4km/h 6.0mph /  9.7km/h 91% 0.00in /  0mm 0.00 W/m2
00:13 29.3 °F /  -1.5 °C 27.0 °F /  -2.8 °C 30.23in /  1023.6hPa WNW 3.0mph /  4.8km/h 5.0mph /  8km/h 91% 0.00in /  0mm 0.00 W/m2
00:17 29.3 °F /  -1.5 °C 27.0 °F /  -2.8 °C 30.23in /  1023.6hPa WNW 9.0mph /  14.5km/h 14.0mph /  22.5km/h 91% 0.00in /  0mm 0.00 W/m2
00:18 29.3 °F /  -1.5 °C 27.0 °F /  -2.8 °C 30.23in /  1023.6hPa WNW 12.0mph /  19.3km/h 13.0mph /  20.9km/h 91% 0.00in /  0mm 0.00 W/m2
00:19 29.2 °F /  -1.6 °C 26.9 °F /  -2.8 °C 30.23in /  1023.6hPa NW 8.0mph /  12.9km/h 12.0mph /  19.3km/h 91% 0.00in /  0mm 0.00 W/m2
00:22 29.2 °F /  -1.6 °C 26.9 °F /  -2.8 °C 30.23in /  1023.6hPa NW 5.0mph /  8km/h 9.0mph /  14.5km/h 91% 0.00in /  0mm 0.00 W/m2
00:23 29.2 °F /  -1.6 °C 26.9 °F /  -2.8 °C 30.23in /  1023.6hPa NW 9.0mph /  14.5km/h 10.0mph /  16.1km/h 91% 0.00in /  0mm 0.00 W/m2
00:24 29.2 °F /  -1.6 °C 26.9 °F /  -2.8 °C 30.23in /  1023.6hPa NW 7.0mph /  11.3km/h 10.0mph /  16.1km/h 91% 0.00in /  0mm 0.00 W/m2
00:25 29.1 °F /  -1.6 °C 26.8 °F /  -2.9 °C 30.23in /  1023.6hPa NW 7.0mph /  11.3km/h 10.0mph /  16.1km/h 91% 0.00in /  0mm 0.00 W/m2
00:29 29.0 °F /  -1.7 °C 26.7 °F /  -2.9 °C 30.23in /  1023.6hPa NW 6.0mph /  9.7km/h 9.0mph /  14.5km/h 91% 0.00in /  0mm 0.00 W/m2
00:31 29.0 °F /  -1.7 °C 26.7 °F /  -2.9 °C 30.23in /  1023.6hPa NW 3.0mph /  4.8km/h 5.0mph /  8km/h 91% 0.00in /  0mm 0.00 W/m2
00:34 28.9 °F /  -1.7 °C 26.6 °F /  -3 °C 30.23in /  1023.6hPa NW 10.0mph /  16.1km/h 11.0mph /  17.7km/h 91% 0.00in /  0mm 0.00 W/m2
00:35 28.9 °F /  -1.7 °C 26.6 °F /  -3 °C 30.23in /  1023.6hPa NW 7.0mph /  11.3km/h 11.0mph /  17.7km/h 91% 0.00in /  0mm 0.00 W/m2
00:39 28.9 °F /  -1.7 °C 26.6 °F /  -3 °C 30.23in /  1023.6hPa WNW 7.0mph /  11.3km/h 10.0mph /  16.1km/h 91% 0.00in /  0mm 0.00 W/m2
00:40 28.8 °F /  -1.8 °C 26.5 °F /  -3.1 °C 30.23in /  1023.6hPa NW 5.0mph /  8km/h 9.0mph /  14.5km/h 91% 0.00in /  0mm 0.00 W/m2
00:42 28.8 °F /  -1.8 °C 26.2 °F /  -3.2 °C 30.23in /  1023.6hPa WNW 8.0mph /  12.9km/h 14.0mph /  22.5km/h 90% 0.00in /  0mm 0.00 W/m2
00:44 28.8 °F /  -1.8 °C 26.2 °F /  -3.2 °C 30.23in /  1023.6hPa WNW 5.0mph /  8km/h 10.0mph /  16.1km/h 90% 0.00in /  0mm 0.00 W/m2
00:46 28.7 °F /  -1.8 °C 26.1 °F /  -3.3 °C 30.23in /  1023.6hPa NW 5.0mph /  8km/h 7.0mph /  11.3km/h 90% 0.00in /  0mm 0.00 W/m2
00:47 28.7 °F /  -1.8 °C 26.1 °F /  -3.3 °C 30.22in /  1023.2hPa NW 8.0mph /  12.9km/h 10.0mph /  16.1km/h 90% 0.00in /  0mm 0.00 W/m2
00:49 28.7 °F /  -1.8 °C 26.1 °F /  -3.3 °C 30.22in /  1023.2hPa NW 5.0mph /  8km/h 10.0mph /  16.1km/h 90% 0.00in /  0mm 0.00 W/m2
00:51 28.7 °F /  -1.8 °C 26.1 °F /  -3.3 °C 30.22in /  1023.2hPa NW 3.0mph /  4.8km/h 5.0mph /  8km/h 90% 0.00in /  0mm 0.00 W/m2
00:52 28.7 °F /  -1.8 °C 26.4 °F /  -3.1 °C 30.22in /  1023.2hPa WNW 4.0mph /  6.4km/h 6.0mph /  9.7km/h 91% 0.00in /  0mm 0.00 W/m2
00:54 28.7 °F /  -1.8 °C 26.4 °F /  -3.1 °C 30.22in /  1023.2hPa NW 5.0mph /  8km/h 7.0mph /  11.3km/h 91% 0.00in /  0mm 0.00 W/m2
00:56 28.7 °F /  -1.8 °C 26.4 °F /  -3.1 °C 30.22in /  1023.2hPa WNW 7.0mph /  11.3km/h 7.0mph /  11.3km/h 91% 0.00in /  0mm 0.00 W/m2
00:58 28.7 °F /  -1.8 °C 26.4 °F /  -3.1 °C 30.23in /  1023.6hPa WNW 6.0mph /  9.7km/h 10.0mph /  16.1km/h 91% 0.00in /  0mm 0.00 W/m2
00:59 28.8 °F /  -1.8 °C 26.5 °F /  -3.1 °C 30.22in /  1023.2hPa WNW 4.0mph /  6.4km/h 7.0mph /  11.3km/h 91% 0.00in /  0mm 0.00 W/m2
01:00 28.8 °F /  -1.8 °C 26.5 °F /  -3.1 °C 30.22in /  1023.2hPa WNW 6.0mph /  9.7km/h 7.0mph /  11.3km/h 91% 0.00in /  0mm 0.00 W/m2
01:01 28.8 °F /  -1.8 °C 26.5 °F /  -3.1 °C 30.22in /  1023.2hPa WNW 5.0mph /  8km/h 7.0mph /  11.3km/h 91% 0.00in /  0mm 0.00 W/m2
01:03 28.8 °F /  -1.8 °C 26.5 °F /  -3.1 °C 30.22in /  1023.2hPa NNW 7.0mph /  11.3km/h 7.0mph /  11.3km/h 91% 0.00in /  0mm 0.00 W/m2
01:05 28.8 °F /  -1.8 °C 26.5 °F /  -3.1 °C 30.22in /  1023.2hPa NW 3.0mph /  4.8km/h 8.0mph /  12.9km/h 91% 0.00in /  0mm 0.00 W/m2
01:06 28.8 °F /  -1.8 °C 26.5 °F /  -3.1 °C 30.22in /  1023.2hPa North 7.0mph /  11.3km/h 10.0mph /  16.1km/h 91% 0.00in /  0mm 0.00 W/m2
01:07 28.8 °F /  -1.8 °C 26.5 °F /  -3.1 °C 30.22in /  1023.2hPa NNW 6.0mph /  9.7km/h 10.0mph /  16.1km/h 91% 0.00in /  0mm 0.00 W/m2
01:09 28.9 °F /  -1.7 °C 26.6 °F /  -3 °C 30.22in /  1023.2hPa NW 3.0mph /  4.8km/h 7.0mph /  11.3km/h 91% 0.00in /  0mm 0.00 W/m2
01:10 28.9 °F /  -1.7 °C 26.6 °F /  -3 °C 30.23in /  1023.6hPa NW 1.0mph /  1.6km/h 4.0mph /  6.4km/h 91% 0.00in /  0mm 0.00 W/m2
01:11 28.9 °F /  -1.7 °C 26.6 °F /  -3 °C 30.23in /  1023.6hPa NW 3.0mph /  4.8km/h 5.0mph /  8km/h 91% 0.00in /  0mm 0.00 W/m2
01:12 28.9 °F /  -1.7 °C 26.6 °F /  -3 °C 30.23in /  1023.6hPa NNW 6.0mph /  9.7km/h 7.0mph /  11.3km/h 91% 0.00in /  0mm 0.00 W/m2
01:14 28.9 °F /  -1.7 °C 26.6 °F /  -3 °C 30.22in /  1023.2hPa NNW 7.0mph /  11.3km/h 8.0mph /  12.9km/h 91% 0.00in /  0mm 0.00 W/m2
01:15 28.9 °F /  -1.7 °C 26.6 °F /  -3 °C 30.22in /  1023.2hPa NW 6.0mph /  9.7km/h 8.0mph /  12.9km/h 91% 0.00in /  0mm 0.00 W/m2
01:16 28.9 °F /  -1.7 °C 26.6 °F /  -3 °C 30.23in /  1023.6hPa NNW 6.0mph /  9.7km/h 8.0mph /  12.9km/h 91% 0.00in /  0mm 0.00 W/m2
01:17 28.9 °F /  -1.7 °C 26.6 °F /  -3 °C 30.23in /  1023.6hPa NW 5.0mph /  8km/h 7.0mph /  11.3km/h 91% 0.00in /  0mm 0.00 W/m2
01:19 29.0 °F /  -1.7 °C 26.7 °F /  -2.9 °C 30.23in /  1023.6hPa NNW 6.0mph /  9.7km/h 8.0mph /  12.9km/h 91% 0.00in /  0mm 0.00 W/m2
01:20 28.9 °F /  -1.7 °C 26.6 °F /  -3 °C 30.23in /  1023.6hPa NNW 4.0mph /  6.4km/h 7.0mph /  11.3km/h 91% 0.00in /  0mm 0.00 W/m2
01:22 28.9 °F /  -1.7 °C 26.6 °F /  -3 °C 30.23in /  1023.6hPa NNW 3.0mph /  4.8km/h 5.0mph /  8km/h 91% 0.00in /  0mm 0.00 W/m2
01:24 28.9 °F /  -1.7 °C 26.6 °F /  -3 °C 30.23in /  1023.6hPa NW 6.0mph /  9.7km/h 7.0mph /  11.3km/h 91% 0.00in /  0mm 0.00 W/m2
01:25 28.9 °F /  -1.7 °C 26.6 °F /  -3 °C 30.23in /  1023.6hPa NW 5.0mph /  8km/h 7.0mph /  11.3km/h 91% 0.00in /  0mm 0.00 W/m2
01:27 29.0 °F /  -1.7 °C 26.7 °F /  -2.9 °C 30.23in /  1023.6hPa NW 3.0mph /  4.8km/h 6.0mph /  9.7km/h 91% 0.00in /  0mm 0.00 W/m2
01:29 29.0 °F /  -1.7 °C 26.7 °F /  -2.9 °C 30.23in /  1023.6hPa NNW 8.0mph /  12.9km/h 8.0mph /  12.9km/h 91% 0.00in /  0mm 0.00 W/m2
01:30 28.9 °F /  -1.7 °C 26.6 °F /  -3 °C 30.23in /  1023.6hPa NNW 3.0mph /  4.8km/h 10.0mph /  16.1km/h 91% 0.00in /  0mm 0.00 W/m2
01:31 28.9 °F /  -1.7 °C 26.6 °F /  -3 °C 30.23in /  1023.6hPa NNW 4.0mph /  6.4km/h 7.0mph /  11.3km/h 91% 0.00in /  0mm 0.00 W/m2
01:33 28.9 °F /  -1.7 °C 26.6 °F /  -3 °C 30.23in /  1023.6hPa NNW 3.0mph /  4.8km/h 7.0mph /  11.3km/h 91% 0.00in /  0mm 0.00 W/m2
01:34 28.9 °F /  -1.7 °C 26.6 °F /  -3 °C 30.23in /  1023.6hPa NNW 5.0mph /  8km/h 7.0mph /  11.3km/h 91% 0.00in /  0mm 0.00 W/m2
01:36 28.9 °F /  -1.7 °C 26.6 °F /  -3 °C 30.24in /  1023.9hPa NW 5.0mph /  8km/h 7.0mph /  11.3km/h 91% 0.00in /  0mm 0.00 W/m2
01:37 28.9 °F /  -1.7 °C 26.6 °F /  -3 °C 30.24in /  1023.9hPa WNW 4.0mph /  6.4km/h 7.0mph /  11.3km/h 91% 0.00in /  0mm 0.00 W/m2
01:38 28.9 °F /  -1.7 °C 26.6 °F /  -3 °C 30.24in /  1023.9hPa WNW 3.0mph /  4.8km/h 7.0mph /  11.3km/h 91% 0.00in /  0mm 0.00 W/m2
01:39 28.9 °F /  -1.7 °C 26.3 °F /  -3.2 °C 30.24in /  1023.9hPa NNW 7.0mph /  11.3km/h 9.0mph /  14.5km/h 90% 0.00in /  0mm 0.00 W/m2
01:41 28.8 °F /  -1.8 °C 26.2 °F /  -3.2 °C 30.24in /  1023.9hPa NNW 2.0mph /  3.2km/h 6.0mph /  9.7km/h 90% 0.00in /  0mm 0.00 W/m2
01:42 28.8 °F /  -1.8 °C 26.2 °F /  -3.2 °C 30.24in /  1023.9hPa NNW 2.0mph /  3.2km/h 5.0mph /  8km/h 90% 0.00in /  0mm 0.00 W/m2
01:43 28.8 °F /  -1.8 °C 26.2 °F /  -3.2 °C 30.24in /  1023.9hPa NW 5.0mph /  8km/h 6.0mph /  9.7km/h 90% 0.00in /  0mm 0.00 W/m2
01:44 28.8 °F /  -1.8 °C 26.2 °F /  -3.2 °C 30.24in /  1023.9hPa NW 3.0mph /  4.8km/h 6.0mph /  9.7km/h 90% 0.00in /  0mm 0.00 W/m2
01:47 28.8 °F /  -1.8 °C 26.2 °F /  -3.2 °C 30.24in /  1023.9hPa NNW 3.0mph /  4.8km/h 4.0mph /  6.4km/h 90% 0.00in /  0mm 0.00 W/m2
01:48 28.8 °F /  -1.8 °C 26.2 °F /  -3.2 °C 30.24in /  1023.9hPa NW 3.0mph /  4.8km/h 5.0mph /  8km/h 90% 0.00in /  0mm 0.00 W/m2
01:49 28.7 °F /  -1.8 °C 26.1 °F /  -3.3 °C 30.24in /  1023.9hPa NW 3.0mph /  4.8km/h 6.0mph /  9.7km/h 90% 0.00in /  0mm 0.00 W/m2
01:51 28.7 °F /  -1.8 °C 26.1 °F /  -3.3 °C 30.24in /  1023.9hPa NW 5.0mph /  8km/h 6.0mph /  9.7km/h 90% 0.00in /  0mm 0.00 W/m2
01:52 28.7 °F /  -1.8 °C 26.1 °F /  -3.3 °C 30.24in /  1023.9hPa NW 3.0mph /  4.8km/h 5.0mph /  8km/h 90% 0.00in /  0mm 0.00 W/m2
01:53 28.7 °F /  -1.8 °C 26.1 °F /  -3.3 °C 30.24in /  1023.9hPa NW 3.0mph /  4.8km/h 4.0mph /  6.4km/h 90% 0.00in /  0mm 0.00 W/m2
01:54 28.7 °F /  -1.8 °C 26.1 °F /  -3.3 °C 30.24in /  1023.9hPa NW 3.0mph /  4.8km/h 4.0mph /  6.4km/h 90% 0.00in /  0mm 0.00 W/m2
01:55 28.7 °F /  -1.8 °C 26.1 °F /  -3.3 °C 30.24in /  1023.9hPa NW 3.0mph /  4.8km/h 3.0mph /  4.8km/h 90% 0.00in /  0mm 0.00 W/m2
01:56 28.7 °F /  -1.8 °C 26.1 °F /  -3.3 °C 30.24in /  1023.9hPa NW 2.0mph /  3.2km/h 2.0mph /  3.2km/h 90% 0.00in /  0mm 0.00 W/m2
01:57 28.7 °F /  -1.8 °C 26.1 °F /  -3.3 °C 30.24in /  1023.9hPa NW 3.0mph /  4.8km/h 4.0mph /  6.4km/h 90% 0.00in /  0mm 0.00 W/m2
01:59 28.8 °F /  -1.8 °C 26.2 °F /  -3.2 °C 30.24in /  1023.9hPa NW 2.0mph /  3.2km/h 5.0mph /  8km/h 90% 0.00in /  0mm 0.00 W/m2
02:00 28.8 °F /  -1.8 °C 26.2 °F /  -3.2 °C 30.24in /  1023.9hPa NW 3.0mph /  4.8km/h 4.0mph /  6.4km/h 90% 0.00in /  0mm 0.00 W/m2
02:01 28.8 °F /  -1.8 °C 26.2 °F /  -3.2 °C 30.23in /  1023.6hPa NW 1.0mph /  1.6km/h 3.0mph /  4.8km/h 90% 0.00in /  0mm 0.00 W/m2
02:02 28.8 °F /  -1.8 °C 26.2 °F /  -3.2 °C 30.24in /  1023.9hPa Calm   2.0mph /  3.2km/h 90% 0.00in /  0mm 0.00 W/m2
02:04 28.8 °F /  -1.8 °C 26.2 °F /  -3.2 °C 30.24in /  1023.9hPa NW 3.0mph /  4.8km/h 3.0mph /  4.8km/h 90% 0.00in /  0mm 0.00 W/m2
02:05 28.8 °F /  -1.8 °C 26.2 °F /  -3.2 °C 30.24in /  1023.9hPa NW 3.0mph /  4.8km/h 6.0mph /  9.7km/h 90% 0.00in /  0mm 0.00 W/m2
02:06 28.8 °F /  -1.8 °C 26.5 °F /  -3.1 °C 30.24in /  1023.9hPa NNW 9.0mph /  14.5km/h 9.0mph /  14.5km/h 91% 0.00in /  0mm 0.00 W/m2
02:07 28.8 °F /  -1.8 °C 26.5 °F /  -3.1 °C 30.24in /  1023.9hPa NNW 4.0mph /  6.4km/h 9.0mph /  14.5km/h 91% 0.00in /  0mm 0.00 W/m2
02:09 28.8 °F /  -1.8 °C 26.5 °F /  -3.1 °C 30.24in /  1023.9hPa NNW 3.0mph /  4.8km/h 5.0mph /  8km/h 91% 0.00in /  0mm 0.00 W/m2
02:10 28.9 °F /  -1.7 °C 26.3 °F /  -3.2 °C 30.24in /  1023.9hPa NNW 2.0mph /  3.2km/h 5.0mph /  8km/h 90% 0.00in /  0mm 0.00 W/m2
02:12 28.8 °F /  -1.8 °C 26.2 °F /  -3.2 °C 30.23in /  1023.6hPa NNW 6.0mph /  9.7km/h 6.0mph /  9.7km/h 90% 0.00in /  0mm 0.00 W/m2
02:15 28.9 °F /  -1.7 °C 26.3 °F /  -3.2 °C 30.23in /  1023.6hPa NNW 2.0mph /  3.2km/h 4.0mph /  6.4km/h 90% 0.00in /  0mm 0.00 W/m2
02:16 28.9 °F /  -1.7 °C 26.3 °F /  -3.2 °C 30.23in /  1023.6hPa NNW 3.0mph /  4.8km/h 4.0mph /  6.4km/h 90% 0.00in /  0mm 0.00 W/m2
02:18 28.9 °F /  -1.7 °C 26.3 °F /  -3.2 °C 30.23in /  1023.6hPa NNW 3.0mph /  4.8km/h 7.0mph /  11.3km/h 90% 0.00in /  0mm 0.00 W/m2
02:21 28.9 °F /  -1.7 °C 26.3 °F /  -3.2 °C 30.23in /  1023.6hPa NNW 4.0mph /  6.4km/h 4.0mph /  6.4km/h 90% 0.00in /  0mm 0.00 W/m2
02:23 28.9 °F /  -1.7 °C 26.3 °F /  -3.2 °C 30.23in /  1023.6hPa NNW 3.0mph /  4.8km/h 7.0mph /  11.3km/h 90% 0.00in /  0mm 0.00 W/m2
02:26 28.9 °F /  -1.7 °C 26.3 °F /  -3.2 °C 30.23in /  1023.6hPa NNW 4.0mph /  6.4km/h 6.0mph /  9.7km/h 90% 0.00in /  0mm 0.00 W/m2
02:28 28.9 °F /  -1.7 °C 26.3 °F /  -3.2 °C 30.23in /  1023.6hPa NNW 3.0mph /  4.8km/h 6.0mph /  9.7km/h 90% 0.00in /  0mm 0.00 W/m2
02:29 28.9 °F /  -1.7 °C 26.3 °F /  -3.2 °C 30.23in /  1023.6hPa NNW 4.0mph /  6.4km/h 5.0mph /  8km/h 90% 0.00in /  0mm 0.00 W/m2
02:31 28.9 °F /  -1.7 °C 26.3 °F /  -3.2 °C 30.23in /  1023.6hPa NNW 5.0mph /  8km/h 6.0mph /  9.7km/h 90% 0.00in /  0mm 0.00 W/m2
02:33 28.9 °F /  -1.7 °C 26.3 °F /  -3.2 °C 30.23in /  1023.6hPa NNW 2.0mph /  3.2km/h 7.0mph /  11.3km/h 90% 0.00in /  0mm 0.00 W/m2
02:34 28.9 °F /  -1.7 °C 26.3 °F /  -3.2 °C 30.23in /  1023.6hPa NNW 2.0mph /  3.2km/h 5.0mph /  8km/h 90% 0.00in /  0mm 0.00 W/m2
02:36 28.9 °F /  -1.7 °C 26.3 °F /  -3.2 °C 30.23in /  1023.6hPa NNW 2.0mph /  3.2km/h 4.0mph /  6.4km/h 90% 0.00in /  0mm 0.00 W/m2
02:38 29.0 °F /  -1.7 °C 26.4 °F /  -3.1 °C 30.23in /  1023.6hPa NNW 2.0mph /  3.2km/h 4.0mph /  6.4km/h 90% 0.00in /  0mm 0.00 W/m2
02:39 28.9 °F /  -1.7 °C 26.3 °F /  -3.2 °C 30.23in /  1023.6hPa NNW 4.0mph /  6.4km/h 4.0mph /  6.4km/h 90% 0.00in /  0mm 0.00 W/m2
02:42 29.0 °F /  -1.7 °C 26.7 °F /  -2.9 °C 30.23in /  1023.6hPa NNW 1.0mph /  1.6km/h 4.0mph /  6.4km/h 91% 0.00in /  0mm 0.00 W/m2
02:44 29.0 °F /  -1.7 °C 26.7 °F /  -2.9 °C 30.23in /  1023.6hPa NNW 2.0mph /  3.2km/h 4.0mph /  6.4km/h 91% 0.00in /  0mm 0.00 W/m2
02:45 29.0 °F /  -1.7 °C 26.7 °F /  -2.9 °C 30.23in /  1023.6hPa NNW 2.0mph /  3.2km/h 4.0mph /  6.4km/h 91% 0.00in /  0mm 0.00 W/m2
02:47 29.0 °F /  -1.7 °C 26.7 °F /  -2.9 °C 30.23in /  1023.6hPa North 1.0mph /  1.6km/h 5.0mph /  8km/h 91% 0.00in /  0mm 0.00 W/m2
02:49 29.0 °F /  -1.7 °C 26.7 °F /  -2.9 °C 30.23in /  1023.6hPa North 3.0mph /  4.8km/h 5.0mph /  8km/h 91% 0.00in /  0mm 0.00 W/m2
02:50 29.0 °F /  -1.7 °C 26.7 °F /  -2.9 °C 30.23in /  1023.6hPa North 3.0mph /  4.8km/h 5.0mph /  8km/h 91% 0.00in /  0mm 0.00 W/m2
02:52 29.0 °F /  -1.7 °C 26.7 °F /  -2.9 °C 30.23in /  1023.6hPa NNE 2.0mph /  3.2km/h 6.0mph /  9.7km/h 91% 0.00in /  0mm 0.00 W/m2
02:54 29.0 °F /  -1.7 °C 26.7 °F /  -2.9 °C 30.23in /  1023.6hPa Calm   4.0mph /  6.4km/h 91% 0.00in /  0mm 0.00 W/m2
02:55 29.0 °F /  -1.7 °C 26.7 °F /  -2.9 °C 30.23in /  1023.6hPa NNE 4.0mph /  6.4km/h 4.0mph /  6.4km/h 91% 0.00in /  0mm 0.00 W/m2
02:56 29.0 °F /  -1.7 °C 26.7 °F /  -2.9 °C 30.23in /  1023.6hPa Calm   4.0mph /  6.4km/h 91% 0.00in /  0mm 0.00 W/m2
02:57 29.0 °F /  -1.7 °C 26.7 °F /  -2.9 °C 30.23in /  1023.6hPa NNE 5.0mph /  8km/h 6.0mph /  9.7km/h 91% 0.00in /  0mm 0.00 W/m2
03:00 29.0 °F /  -1.7 °C 26.7 °F /  -2.9 °C 30.23in /  1023.6hPa North 3.0mph /  4.8km/h 5.0mph /  8km/h 91% 0.00in /  0mm 0.00 W/m2
03:01 29.0 °F /  -1.7 °C 26.7 °F /  -2.9 °C 30.23in /  1023.6hPa North 5.0mph /  8km/h 5.0mph /  8km/h 91% 0.00in /  0mm 0.00 W/m2
03:02 29.0 °F /  -1.7 °C 26.7 °F /  -2.9 °C 30.23in /  1023.6hPa North 3.0mph /  4.8km/h 8.0mph /  12.9km/h 91% 0.00in /  0mm 0.00 W/m2
03:03 29.0 °F /  -1.7 °C 26.7 °F /  -2.9 °C 30.23in /  1023.6hPa NE 5.0mph /  8km/h 8.0mph /  12.9km/h 91% 0.00in /  0mm 0.00 W/m2
03:05 29.0 °F /  -1.7 °C 26.4 °F /  -3.1 °C 30.24in /  1023.9hPa NE 1.0mph /  1.6km/h 3.0mph /  4.8km/h 90% 0.00in /  0mm 0.00 W/m2
03:06 29.0 °F /  -1.7 °C 26.4 °F /  -3.1 °C 30.24in /  1023.9hPa Calm   3.0mph /  4.8km/h 90% 0.00in /  0mm 0.00 W/m2
03:07 29.0 °F /  -1.7 °C 26.4 °F /  -3.1 °C 30.24in /  1023.9hPa Calm   3.0mph /  4.8km/h 90% 0.00in /  0mm 0.00 W/m2
03:08 29.0 °F /  -1.7 °C 26.4 °F /  -3.1 °C 30.24in /  1023.9hPa NE 3.0mph /  4.8km/h 5.0mph /  8km/h 90% 0.00in /  0mm 0.00 W/m2
03:10 29.0 °F /  -1.7 °C 26.4 °F /  -3.1 °C 30.24in /  1023.9hPa NE 2.0mph /  3.2km/h 3.0mph /  4.8km/h 90% 0.00in /  0mm 0.00 W/m2
03:11 29.0 °F /  -1.7 °C 26.4 °F /  -3.1 °C 30.23in /  1023.6hPa NE 1.0mph /  1.6km/h 3.0mph /  4.8km/h 90% 0.00in /  0mm 0.00 W/m2
03:12 29.0 °F /  -1.7 °C 26.4 °F /  -3.1 °C 30.23in /  1023.6hPa NE 2.0mph /  3.2km/h 5.0mph /  8km/h 90% 0.00in /  0mm 0.00 W/m2
03:13 29.0 °F /  -1.7 °C 26.4 °F /  -3.1 °C 30.23in /  1023.6hPa NE 3.0mph /  4.8km/h 5.0mph /  8km/h 90% 0.00in /  0mm 0.00 W/m2
03:15 29.0 °F /  -1.7 °C 26.4 °F /  -3.1 °C 30.23in /  1023.6hPa Calm   4.0mph /  6.4km/h 90% 0.00in /  0mm 0.00 W/m2
03:16 29.0 °F /  -1.7 °C 26.4 °F /  -3.1 °C 30.23in /  1023.6hPa NE 3.0mph /  4.8km/h 4.0mph /  6.4km/h 90% 0.00in /  0mm 0.00 W/m2
03:17 29.0 °F /  -1.7 °C 26.4 °F /  -3.1 °C 30.23in /  1023.6hPa NE 2.0mph /  3.2km/h 3.0mph /  4.8km/h 90% 0.00in /  0mm 0.00 W/m2
03:18 29.0 °F /  -1.7 °C 26.4 °F /  -3.1 °C 30.23in /  1023.6hPa Calm   4.0mph /  6.4km/h 90% 0.00in /  0mm 0.00 W/m2
03:19 29.0 °F /  -1.7 °C 26.4 °F /  -3.1 °C 30.23in /  1023.6hPa NE 5.0mph /  8km/h 5.0mph /  8km/h 90% 0.00in /  0mm 0.00 W/m2
03:21 29.1 °F /  -1.6 °C 26.5 °F /  -3.1 °C 30.23in /  1023.6hPa NNE 2.0mph /  3.2km/h 5.0mph /  8km/h 90% 0.00in /  0mm 0.00 W/m2
03:22 29.1 °F /  -1.6 °C 26.5 °F /  -3.1 °C 30.23in /  1023.6hPa North 4.0mph /  6.4km/h 8.0mph /  12.9km/h 90% 0.00in /  0mm 0.00 W/m2
03:24 29.1 °F /  -1.6 °C 26.5 °F /  -3.1 °C 30.23in /  1023.6hPa North 2.0mph /  3.2km/h 7.0mph /  11.3km/h 90% 0.00in /  0mm 0.00 W/m2
03:25 29.1 °F /  -1.6 °C 26.5 °F /  -3.1 °C 30.23in /  1023.6hPa North 5.0mph /  8km/h 7.0mph /  11.3km/h 90% 0.00in /  0mm 0.00 W/m2
03:26 29.1 °F /  -1.6 °C 26.5 °F /  -3.1 °C 30.23in /  1023.6hPa NNE 6.0mph /  9.7km/h 6.0mph /  9.7km/h 90% 0.00in /  0mm 0.00 W/m2
03:27 29.1 °F /  -1.6 °C 26.5 °F /  -3.1 °C 30.23in /  1023.6hPa NNE 2.0mph /  3.2km/h 6.0mph /  9.7km/h 90% 0.00in /  0mm 0.00 W/m2
03:29 29.1 °F /  -1.6 °C 26.5 °F /  -3.1 °C 30.24in /  1023.9hPa Calm   3.0mph /  4.8km/h 90% 0.00in /  0mm 0.00 W/m2
03:30 29.1 °F /  -1.6 °C 26.5 °F /  -3.1 °C 30.24in /  1023.9hPa Calm   3.0mph /  4.8km/h 90% 0.00in /  0mm 0.00 W/m2
03:31 29.2 °F /  -1.6 °C 26.6 °F /  -3 °C 30.25in /  1024.3hPa NNE 5.0mph /  8km/h 5.0mph /  8km/h 90% 0.00in /  0mm 0.00 W/m2
03:33 29.2 °F /  -1.6 °C 26.6 °F /  -3 °C 30.24in /  1023.9hPa NNE 1.0mph /  1.6km/h 6.0mph /  9.7km/h 90% 0.00in /  0mm 0.00 W/m2
03:34 29.2 °F /  -1.6 °C 26.6 °F /  -3 °C 30.25in /  1024.3hPa NNE 6.0mph /  9.7km/h 6.0mph /  9.7km/h 90% 0.00in /  0mm 0.00 W/m2
03:35 29.2 °F /  -1.6 °C 26.6 °F /  -3 °C 30.25in /  1024.3hPa NNE 4.0mph /  6.4km/h 6.0mph /  9.7km/h 90% 0.00in /  0mm 0.00 W/m2
03:36 29.2 °F /  -1.6 °C 26.6 °F /  -3 °C 30.25in /  1024.3hPa NNE 4.0mph /  6.4km/h 6.0mph /  9.7km/h 90% 0.00in /  0mm 0.00 W/m2
03:37 29.2 °F /  -1.6 °C 26.6 °F /  -3 °C 30.25in /  1024.3hPa NNE 4.0mph /  6.4km/h 6.0mph /  9.7km/h 90% 0.00in /  0mm 0.00 W/m2
03:38 29.2 °F /  -1.6 °C 26.6 °F /  -3 °C 30.25in /  1024.3hPa NNE 4.0mph /  6.4km/h 5.0mph /  8km/h 90% 0.00in /  0mm 0.00 W/m2
03:40 29.2 °F /  -1.6 °C 26.6 °F /  -3 °C 30.25in /  1024.3hPa North 3.0mph /  4.8km/h 7.0mph /  11.3km/h 90% 0.00in /  0mm 0.00 W/m2
03:42 29.2 °F /  -1.6 °C 26.6 °F /  -3 °C 30.25in /  1024.3hPa North 5.0mph /  8km/h 5.0mph /  8km/h 90% 0.00in /  0mm 0.00 W/m2
03:43 29.2 °F /  -1.6 °C 26.6 °F /  -3 °C 30.25in /  1024.3hPa North 4.0mph /  6.4km/h 6.0mph /  9.7km/h 90% 0.00in /  0mm 0.00 W/m2
03:45 29.2 °F /  -1.6 °C 26.6 °F /  -3 °C 30.25in /  1024.3hPa Calm   3.0mph /  4.8km/h 90% 0.00in /  0mm 0.00 W/m2
03:47 29.3 °F /  -1.5 °C 26.7 °F /  -2.9 °C 30.25in /  1024.3hPa North 3.0mph /  4.8km/h 6.0mph /  9.7km/h 90% 0.00in /  0mm 0.00 W/m2
03:49 29.2 °F /  -1.6 °C 26.6 °F /  -3 °C 30.26in /  1024.6hPa North 4.0mph /  6.4km/h 4.0mph /  6.4km/h 90% 0.00in /  0mm 0.00 W/m2
03:50 29.2 °F /  -1.6 °C 26.6 °F /  -3 °C 30.26in /  1024.6hPa North 4.0mph /  6.4km/h 7.0mph /  11.3km/h 90% 0.00in /  0mm 0.00 W/m2
03:52 29.3 °F /  -1.5 °C 26.7 °F /  -2.9 °C 30.26in /  1024.6hPa NNW 7.0mph /  11.3km/h 10.0mph /  16.1km/h 90% 0.00in /  0mm 0.00 W/m2
03:54 29.3 °F /  -1.5 °C 26.7 °F /  -2.9 °C 30.26in /  1024.6hPa North 5.0mph /  8km/h 6.0mph /  9.7km/h 90% 0.00in /  0mm 0.00 W/m2
03:55 29.2 °F /  -1.6 °C 26.6 °F /  -3 °C 30.26in /  1024.6hPa North 4.0mph /  6.4km/h 6.0mph /  9.7km/h 90% 0.00in /  0mm 0.00 W/m2
03:56 29.3 °F /  -1.5 °C 26.7 °F /  -2.9 °C 30.26in /  1024.6hPa North 4.0mph /  6.4km/h 6.0mph /  9.7km/h 90% 0.00in /  0mm 0.00 W/m2
03:57 29.3 °F /  -1.5 °C 26.7 °F /  -2.9 °C 30.26in /  1024.6hPa North 4.0mph /  6.4km/h 6.0mph /  9.7km/h 90% 0.00in /  0mm 0.00 W/m2
03:59 29.3 °F /  -1.5 °C 26.7 °F /  -2.9 °C 30.26in /  1024.6hPa Calm   3.0mph /  4.8km/h 90% 0.00in /  0mm 0.00 W/m2
04:01 29.3 °F /  -1.5 °C 26.7 °F /  -2.9 °C 30.26in /  1024.6hPa North 2.0mph /  3.2km/h 5.0mph /  8km/h 90% 0.00in /  0mm 0.00 W/m2
04:02 29.3 °F /  -1.5 °C 26.7 °F /  -2.9 °C 30.26in /  1024.6hPa North 2.0mph /  3.2km/h 4.0mph /  6.4km/h 90% 0.00in /  0mm 0.00 W/m2
04:03 29.3 °F /  -1.5 °C 26.7 °F /  -2.9 °C 30.26in /  1024.6hPa NNW 6.0mph /  9.7km/h 6.0mph /  9.7km/h 90% 0.00in /  0mm 0.00 W/m2
04:04 29.3 °F /  -1.5 °C 26.7 °F /  -2.9 °C 30.26in /  1024.6hPa North 4.0mph /  6.4km/h 7.0mph /  11.3km/h 90% 0.00in /  0mm 0.00 W/m2
04:05 29.3 °F /  -1.5 °C 26.7 °F /  -2.9 °C 30.26in /  1024.6hPa North 4.0mph /  6.4km/h 7.0mph /  11.3km/h 90% 0.00in /  0mm 0.00 W/m2
04:07 29.3 °F /  -1.5 °C 26.7 °F /  -2.9 °C 30.27in /  1024.9hPa North 2.0mph /  3.2km/h 6.0mph /  9.7km/h 90% 0.00in /  0mm 0.00 W/m2
04:08 29.3 °F /  -1.5 °C 26.7 °F /  -2.9 °C 30.27in /  1024.9hPa North 5.0mph /  8km/h 6.0mph /  9.7km/h 90% 0.00in /  0mm 0.00 W/m2
04:09 29.3 °F /  -1.5 °C 26.7 °F /  -2.9 °C 30.27in /  1024.9hPa North 5.0mph /  8km/h 5.0mph /  8km/h 90% 0.00in /  0mm 0.00 W/m2
04:10 29.3 °F /  -1.5 °C 26.7 °F /  -2.9 °C 30.27in /  1024.9hPa North 3.0mph /  4.8km/h 5.0mph /  8km/h 90% 0.00in /  0mm 0.00 W/m2
04:12 29.3 °F /  -1.5 °C 26.7 °F /  -2.9 °C 30.26in /  1024.6hPa North 2.0mph /  3.2km/h 4.0mph /  6.4km/h 90% 0.00in /  0mm 0.00 W/m2
04:13 29.3 °F /  -1.5 °C 26.7 °F /  -2.9 °C 30.27in /  1024.9hPa North 1.0mph /  1.6km/h 4.0mph /  6.4km/h 90% 0.00in /  0mm 0.00 W/m2
04:14 29.3 °F /  -1.5 °C 26.7 °F /  -2.9 °C 30.26in /  1024.6hPa Calm   1.0mph /  1.6km/h 90% 0.00in /  0mm 0.00 W/m2
04:15 29.3 °F /  -1.5 °C 26.7 °F /  -2.9 °C 30.26in /  1024.6hPa Calm   2.0mph /  3.2km/h 90% 0.00in /  0mm 0.00 W/m2
04:17 29.3 °F /  -1.5 °C 26.7 °F /  -2.9 °C 30.26in /  1024.6hPa North 3.0mph /  4.8km/h 5.0mph /  8km/h 90% 0.00in /  0mm 0.00 W/m2
04:18 29.3 °F /  -1.5 °C 26.7 °F /  -2.9 °C 30.26in /  1024.6hPa NNE 4.0mph /  6.4km/h 6.0mph /  9.7km/h 90% 0.00in /  0mm 0.00 W/m2
04:19 29.3 °F /  -1.5 °C 26.7 °F /  -2.9 °C 30.26in /  1024.6hPa NNE 3.0mph /  4.8km/h 6.0mph /  9.7km/h 90% 0.00in /  0mm 0.00 W/m2
04:20 29.3 °F /  -1.5 °C 26.7 °F /  -2.9 °C 30.26in /  1024.6hPa NNE 2.0mph /  3.2km/h 5.0mph /  8km/h 90% 0.00in /  0mm 0.00 W/m2
04:22 29.3 °F /  -1.5 °C 26.7 °F /  -2.9 °C 30.26in /  1024.6hPa Calm   3.0mph /  4.8km/h 90% 0.00in /  0mm 0.00 W/m2
04:24 29.3 °F /  -1.5 °C 26.7 °F /  -2.9 °C 30.26in /  1024.6hPa NNE 2.0mph /  3.2km/h 3.0mph /  4.8km/h 90% 0.00in /  0mm 0.00 W/m2
04:25 29.3 °F /  -1.5 °C 26.7 °F /  -2.9 °C 30.26in /  1024.6hPa Calm   2.0mph /  3.2km/h 90% 0.00in /  0mm 0.00 W/m2
04:29 29.3 °F /  -1.5 °C 26.7 °F /  -2.9 °C 30.26in /  1024.6hPa NNE 1.0mph /  1.6km/h 3.0mph /  4.8km/h 90% 0.00in /  0mm 0.00 W/m2
04:30 29.3 °F /  -1.5 °C 26.7 °F /  -2.9 °C 30.26in /  1024.6hPa NNE 2.0mph /  3.2km/h 5.0mph /  8km/h 90% 0.00in /  0mm 0.00 W/m2
04:31 29.4 °F /  -1.4 °C 26.8 °F /  -2.9 °C 30.26in /  1024.6hPa NNE 1.0mph /  1.6km/h 5.0mph /  8km/h 90% 0.00in /  0mm 0.00 W/m2
04:32 29.4 °F /  -1.4 °C 26.8 °F /  -2.9 °C 30.26in /  1024.6hPa NNE 1.0mph /  1.6km/h 5.0mph /  8km/h 90% 0.00in /  0mm 0.00 W/m2
04:34 29.4 °F /  -1.4 °C 26.8 °F /  -2.9 °C 30.26in /  1024.6hPa NNE 3.0mph /  4.8km/h 4.0mph /  6.4km/h 90% 0.00in /  0mm 0.00 W/m2
04:35 29.4 °F /  -1.4 °C 26.8 °F /  -2.9 °C 30.26in /  1024.6hPa NNE 5.0mph /  8km/h 5.0mph /  8km/h 90% 0.00in /  0mm 0.00 W/m2
04:36 29.4 °F /  -1.4 °C 26.8 °F /  -2.9 °C 30.26in /  1024.6hPa Calm   5.0mph /  8km/h 90% 0.00in /  0mm 0.00 W/m2
04:37 29.4 °F /  -1.4 °C 26.8 °F /  -2.9 °C 30.26in /  1024.6hPa Calm   5.0mph /  8km/h 90% 0.00in /  0mm 0.00 W/m2
04:39 29.4 °F /  -1.4 °C 26.8 °F /  -2.9 °C 30.27in /  1024.9hPa NNE 5.0mph /  8km/h 6.0mph /  9.7km/h 90% 0.00in /  0mm 0.00 W/m2
04:40 29.4 °F /  -1.4 °C 26.8 °F /  -2.9 °C 30.26in /  1024.6hPa Calm   6.0mph /  9.7km/h 90% 0.00in /  0mm 0.00 W/m2
04:41 29.4 °F /  -1.4 °C 26.8 °F /  -2.9 °C 30.26in /  1024.6hPa NNE 3.0mph /  4.8km/h 3.0mph /  4.8km/h 90% 0.00in /  0mm 0.00 W/m2
04:44 29.4 °F /  -1.4 °C 26.8 °F /  -2.9 °C 30.26in /  1024.6hPa Calm   6.0mph /  9.7km/h 90% 0.00in /  0mm 0.00 W/m2
04:45 29.4 °F /  -1.4 °C 26.8 °F /  -2.9 °C 30.26in /  1024.6hPa NNE 5.0mph /  8km/h 6.0mph /  9.7km/h 90% 0.00in /  0mm 0.00 W/m2
04:46 29.4 °F /  -1.4 °C 26.8 °F /  -2.9 °C 30.26in /  1024.6hPa NNE 5.0mph /  8km/h 6.0mph /  9.7km/h 90% 0.00in /  0mm 0.00 W/m2
04:49 29.5 °F /  -1.4 °C 26.9 °F /  -2.8 °C 30.26in /  1024.6hPa NNE 2.0mph /  3.2km/h 6.0mph /  9.7km/h 90% 0.00in /  0mm 0.00 W/m2
04:50 29.4 °F /  -1.4 °C 26.8 °F /  -2.9 °C 30.26in /  1024.6hPa NNE 1.0mph /  1.6km/h 3.0mph /  4.8km/h 90% 0.00in /  0mm 0.00 W/m2
04:51 29.5 °F /  -1.4 °C 26.9 °F /  -2.8 °C 30.26in /  1024.6hPa NNE 2.0mph /  3.2km/h 5.0mph /  8km/h 90% 0.00in /  0mm 0.00 W/m2
04:54 29.5 °F /  -1.4 °C 26.9 °F /  -2.8 °C 30.26in /  1024.6hPa NNE 1.0mph /  1.6km/h 4.0mph /  6.4km/h 90% 0.00in /  0mm 0.00 W/m2
04:55 29.5 °F /  -1.4 °C 26.9 °F /  -2.8 °C 30.26in /  1024.6hPa NNE 1.0mph /  1.6km/h 2.0mph /  3.2km/h 90% 0.00in /  0mm 0.00 W/m2
04:56 29.5 °F /  -1.4 °C 26.9 °F /  -2.8 °C 30.26in /  1024.6hPa Calm   3.0mph /  4.8km/h 90% 0.00in /  0mm 0.00 W/m2
04:57 29.5 °F /  -1.4 °C 26.9 °F /  -2.8 °C 30.26in /  1024.6hPa NNE 4.0mph /  6.4km/h 4.0mph /  6.4km/h 90% 0.00in /  0mm 0.00 W/m2
05:00 29.5 °F /  -1.4 °C 26.9 °F /  -2.8 °C 30.26in /  1024.6hPa NNE 2.0mph /  3.2km/h 4.0mph /  6.4km/h 90% 0.00in /  0mm 0.00 W/m2
05:01 29.5 °F /  -1.4 °C 26.9 °F /  -2.8 °C 30.26in /  1024.6hPa NNE 4.0mph /  6.4km/h 4.0mph /  6.4km/h 90% 0.00in /  0mm 0.00 W/m2
05:02 29.5 °F /  -1.4 °C 26.9 °F /  -2.8 °C 30.26in /  1024.6hPa Calm   4.0mph /  6.4km/h 90% 0.00in /  0mm 0.00 W/m2
05:03 29.5 °F /  -1.4 °C 26.9 °F /  -2.8 °C 30.26in /  1024.6hPa NNE 1.0mph /  1.6km/h 3.0mph /  4.8km/h 90% 0.00in /  0mm 0.00 W/m2
05:05 29.5 °F /  -1.4 °C 26.9 °F /  -2.8 °C 30.25in /  1024.3hPa NNE 2.0mph /  3.2km/h 2.0mph /  3.2km/h 90% 0.00in /  0mm 0.00 W/m2
05:06 29.5 °F /  -1.4 °C 26.9 °F /  -2.8 °C 30.25in /  1024.3hPa NNE 4.0mph /  6.4km/h 4.0mph /  6.4km/h 90% 0.00in /  0mm 0.00 W/m2
05:07 29.5 °F /  -1.4 °C 26.9 °F /  -2.8 °C 30.25in /  1024.3hPa NE 2.0mph /  3.2km/h 9.0mph /  14.5km/h 90% 0.00in /  0mm 0.00 W/m2
05:09 29.5 °F /  -1.4 °C 26.9 °F /  -2.8 °C 30.25in /  1024.3hPa NE 1.0mph /  1.6km/h 3.0mph /  4.8km/h 90% 0.00in /  0mm 0.00 W/m2
05:10 29.6 °F /  -1.3 °C 27.0 °F /  -2.8 °C 30.25in /  1024.3hPa Calm   2.0mph /  3.2km/h 90% 0.00in /  0mm 0.00 W/m2
05:11 29.6 °F /  -1.3 °C 27.0 °F /  -2.8 °C 30.25in /  1024.3hPa Calm   2.0mph /  3.2km/h 90% 0.00in /  0mm 0.00 W/m2
05:12 29.5 °F /  -1.4 °C 26.9 °F /  -2.8 °C 30.25in /  1024.3hPa NE 1.0mph /  1.6km/h 3.0mph /  4.8km/h 90% 0.00in /  0mm 0.00 W/m2
05:15 29.6 °F /  -1.3 °C 27.0 °F /  -2.8 °C 30.25in /  1024.3hPa NE 1.0mph /  1.6km/h 5.0mph /  8km/h 90% 0.00in /  0mm 0.00 W/m2
05:16 29.6 °F /  -1.3 °C 27.0 °F /  -2.8 °C 30.25in /  1024.3hPa ENE 6.0mph /  9.7km/h 6.0mph /  9.7km/h 90% 0.00in /  0mm 0.00 W/m2
05:17 29.5 °F /  -1.4 °C 26.9 °F /  -2.8 °C 30.25in /  1024.3hPa NE 2.0mph /  3.2km/h 7.0mph /  11.3km/h 90% 0.00in /  0mm 0.00 W/m2
05:20 29.5 °F /  -1.4 °C 26.9 °F /  -2.8 °C 30.26in /  1024.6hPa NE 5.0mph /  8km/h 5.0mph /  8km/h 90% 0.00in /  0mm 0.00 W/m2
05:21 29.6 °F /  -1.3 °C 27.0 °F /  -2.8 °C 30.26in /  1024.6hPa NE 6.0mph /  9.7km/h 6.0mph /  9.7km/h 90% 0.00in /  0mm 0.00 W/m2
05:22 29.5 °F /  -1.4 °C 26.9 °F /  -2.8 °C 30.26in /  1024.6hPa NE 3.0mph /  4.8km/h 6.0mph /  9.7km/h 90% 0.00in /  0mm 0.00 W/m2
05:23 29.5 °F /  -1.4 °C 26.9 °F /  -2.8 °C 30.26in /  1024.6hPa NE 3.0mph /  4.8km/h 6.0mph /  9.7km/h 90% 0.00in /  0mm 0.00 W/m2
05:25 29.6 °F /  -1.3 °C 27.0 °F /  -2.8 °C 30.25in /  1024.3hPa Calm   2.0mph /  3.2km/h 90% 0.00in /  0mm 0.00 W/m2
05:27 29.6 °F /  -1.3 °C 27.0 °F /  -2.8 °C 30.26in /  1024.6hPa Calm   2.0mph /  3.2km/h 90% 0.00in /  0mm 0.00 W/m2
05:28 29.6 °F /  -1.3 °C 27.0 °F /  -2.8 °C 30.25in /  1024.3hPa Calm     90% 0.00in /  0mm 0.00 W/m2
05:29 29.6 °F /  -1.3 °C 27.0 °F /  -2.8 °C 30.25in /  1024.3hPa NE 2.0mph /  3.2km/h 2.0mph /  3.2km/h 90% 0.00in /  0mm 0.00 W/m2
05:31 29.6 °F /  -1.3 °C 27.0 °F /  -2.8 °C 30.26in /  1024.6hPa NE 1.0mph /  1.6km/h 6.0mph /  9.7km/h 90% 0.00in /  0mm 0.00 W/m2
05:32 29.6 °F /  -1.3 °C 27.0 °F /  -2.8 °C 30.26in /  1024.6hPa NE 1.0mph /  1.6km/h 3.0mph /  4.8km/h 90% 0.00in /  0mm 0.00 W/m2
05:34 29.6 °F /  -1.3 °C 27.0 °F /  -2.8 °C 30.25in /  1024.3hPa Calm   4.0mph /  6.4km/h 90% 0.00in /  0mm 0.00 W/m2
05:35 29.6 °F /  -1.3 °C 27.0 °F /  -2.8 °C 30.25in /  1024.3hPa NE 1.0mph /  1.6km/h 4.0mph /  6.4km/h 90% 0.00in /  0mm 0.00 W/m2
05:36 29.6 °F /  -1.3 °C 27.0 °F /  -2.8 °C 30.25in /  1024.3hPa NE 1.0mph /  1.6km/h 3.0mph /  4.8km/h 90% 0.00in /  0mm 0.00 W/m2
05:37 29.6 °F /  -1.3 °C 27.0 °F /  -2.8 °C 30.26in /  1024.6hPa NE 1.0mph /  1.6km/h 2.0mph /  3.2km/h 90% 0.00in /  0mm 0.00 W/m2
05:38 29.6 °F /  -1.3 °C 27.0 °F /  -2.8 °C 30.26in /  1024.6hPa NE 1.0mph /  1.6km/h 4.0mph /  6.4km/h 90% 0.00in /  0mm 0.00 W/m2
05:39 29.6 °F /  -1.3 °C 27.0 °F /  -2.8 °C 30.26in /  1024.6hPa NE 2.0mph /  3.2km/h 4.0mph /  6.4km/h 90% 0.00in /  0mm 0.00 W/m2
05:40 29.6 °F /  -1.3 °C 27.0 °F /  -2.8 °C 30.26in /  1024.6hPa NE 2.0mph /  3.2km/h 4.0mph /  6.4km/h 90% 0.00in /  0mm 0.00 W/m2
05:41 29.6 °F /  -1.3 °C 27.0 °F /  -2.8 °C 30.26in /  1024.6hPa NE 1.0mph /  1.6km/h 4.0mph /  6.4km/h 90% 0.00in /  0mm 0.00 W/m2
05:42 29.6 °F /  -1.3 °C 27.0 °F /  -2.8 °C 30.26in /  1024.6hPa NE 2.0mph /  3.2km/h 2.0mph /  3.2km/h 90% 0.00in /  0mm 0.00 W/m2
05:43 29.6 °F /  -1.3 °C 27.0 °F /  -2.8 °C 30.26in /  1024.6hPa NE 3.0mph /  4.8km/h 3.0mph /  4.8km/h 90% 0.00in /  0mm 0.00 W/m2
05:45 29.6 °F /  -1.3 °C 27.0 °F /  -2.8 °C 30.26in /  1024.6hPa Calm   3.0mph /  4.8km/h 90% 0.00in /  0mm 0.00 W/m2
05:46 29.6 °F /  -1.3 °C 27.0 °F /  -2.8 °C 30.26in /  1024.6hPa NE 3.0mph /  4.8km/h 4.0mph /  6.4km/h 90% 0.00in /  0mm 0.00 W/m2
05:48 29.6 °F /  -1.3 °C 27.0 °F /  -2.8 °C 30.26in /  1024.6hPa NE 2.0mph /  3.2km/h 5.0mph /  8km/h 90% 0.00in /  0mm 0.00 W/m2
05:50 29.6 °F /  -1.3 °C 27.0 °F /  -2.8 °C 30.26in /  1024.6hPa NE 1.0mph /  1.6km/h 3.0mph /  4.8km/h 90% 0.00in /  0mm 0.00 W/m2
05:52 29.6 °F /  -1.3 °C 27.0 °F /  -2.8 °C 30.26in /  1024.6hPa Calm   3.0mph /  4.8km/h 90% 0.00in /  0mm 0.00 W/m2
05:53 29.6 °F /  -1.3 °C 27.0 °F /  -2.8 °C 30.26in /  1024.6hPa Calm     90% 0.00in /  0mm 0.00 W/m2
05:55 29.6 °F /  -1.3 °C 27.0 °F /  -2.8 °C 30.26in /  1024.6hPa Calm   3.0mph /  4.8km/h 90% 0.00in /  0mm 0.00 W/m2
05:57 29.6 °F /  -1.3 °C 27.0 °F /  -2.8 °C 30.27in /  1024.9hPa NE 1.0mph /  1.6km/h 1.0mph /  1.6km/h 90% 0.00in /  0mm 0.00 W/m2
05:58 29.6 °F /  -1.3 °C 27.0 °F /  -2.8 °C 30.26in /  1024.6hPa Calm   3.0mph /  4.8km/h 90% 0.00in /  0mm 0.00 W/m2
06:01 29.6 °F /  -1.3 °C 27.0 °F /  -2.8 °C 30.26in /  1024.6hPa NE 3.0mph /  4.8km/h 3.0mph /  4.8km/h 90% 0.00in /  0mm 0.00 W/m2
06:02 29.6 °F /  -1.3 °C 27.0 °F /  -2.8 °C 30.26in /  1024.6hPa Calm   3.0mph /  4.8km/h 90% 0.00in /  0mm 0.00 W/m2
06:03 29.6 °F /  -1.3 °C 27.0 °F /  -2.8 °C 30.26in /  1024.6hPa NE 3.0mph /  4.8km/h 3.0mph /  4.8km/h 90% 0.00in /  0mm 0.00 W/m2
06:06 29.6 °F /  -1.3 °C 27.0 °F /  -2.8 °C 30.27in /  1024.9hPa Calm   3.0mph /  4.8km/h 90% 0.00in /  0mm 0.00 W/m2
06:08 29.7 °F /  -1.3 °C 27.1 °F /  -2.7 °C 30.27in /  1024.9hPa NE 3.0mph /  4.8km/h 4.0mph /  6.4km/h 90% 0.00in /  0mm 0.00 W/m2
06:09 29.6 °F /  -1.3 °C 27.0 °F /  -2.8 °C 30.26in /  1024.6hPa NE 2.0mph /  3.2km/h 3.0mph /  4.8km/h 90% 0.00in /  0mm 0.00 W/m2
06:10 29.7 °F /  -1.3 °C 27.1 °F /  -2.7 °C 30.26in /  1024.6hPa NE 3.0mph /  4.8km/h 3.0mph /  4.8km/h 90% 0.00in /  0mm 0.00 W/m2
06:11 29.7 °F /  -1.3 °C 27.1 °F /  -2.7 °C 30.26in /  1024.6hPa NE 3.0mph /  4.8km/h 3.0mph /  4.8km/h 90% 0.00in /  0mm 0.00 W/m2
06:14 29.7 °F /  -1.3 °C 27.1 °F /  -2.7 °C 30.26in /  1024.6hPa Calm   2.0mph /  3.2km/h 90% 0.00in /  0mm 0.00 W/m2
06:15 29.7 °F /  -1.3 °C 27.1 °F /  -2.7 °C 30.26in /  1024.6hPa Calm   2.0mph /  3.2km/h 90% 0.00in /  0mm 0.00 W/m2
06:16 29.7 °F /  -1.3 °C 27.1 °F /  -2.7 °C 30.26in /  1024.6hPa NE 3.0mph /  4.8km/h 3.0mph /  4.8km/h 90% 0.00in /  0mm 0.00 W/m2
06:19 29.8 °F /  -1.2 °C 27.2 °F /  -2.7 °C 30.27in /  1024.9hPa NE 2.0mph /  3.2km/h 4.0mph /  6.4km/h 90% 0.00in /  0mm 0.00 W/m2
06:21 29.8 °F /  -1.2 °C 27.2 °F /  -2.7 °C 30.27in /  1024.9hPa Calm   3.0mph /  4.8km/h 90% 0.00in /  0mm 0.00 W/m2
06:24 29.8 °F /  -1.2 °C 27.2 °F /  -2.7 °C 30.26in /  1024.6hPa Calm   3.0mph /  4.8km/h 90% 0.00in /  0mm 0.00 W/m2
06:25 29.8 °F /  -1.2 °C 27.2 °F /  -2.7 °C 30.26in /  1024.6hPa NE 3.0mph /  4.8km/h 3.0mph /  4.8km/h 90% 0.00in /  0mm 0.00 W/m2
06:26 29.8 °F /  -1.2 °C 27.2 °F /  -2.7 °C 30.26in /  1024.6hPa NE 1.0mph /  1.6km/h 3.0mph /  4.8km/h 90% 0.00in /  0mm 0.00 W/m2
06:30 29.8 °F /  -1.2 °C 27.2 °F /  -2.7 °C 30.26in /  1024.6hPa NE 1.0mph /  1.6km/h 2.0mph /  3.2km/h 90% 0.00in /  0mm 0.00 W/m2
06:33 29.8 °F /  -1.2 °C 27.2 °F /  -2.7 °C 30.26in /  1024.6hPa NE 1.0mph /  1.6km/h 4.0mph /  6.4km/h 90% 0.00in /  0mm 0.00 W/m2
06:35 29.9 °F /  -1.2 °C 27.3 °F /  -2.6 °C 30.26in /  1024.6hPa Calm   2.0mph /  3.2km/h 90% 0.00in /  0mm 0.00 W/m2
06:36 29.9 °F /  -1.2 °C 27.3 °F /  -2.6 °C 30.26in /  1024.6hPa NE 2.0mph /  3.2km/h 2.0mph /  3.2km/h 90% 0.00in /  0mm 0.00 W/m2
06:38 29.9 °F /  -1.2 °C 27.3 °F /  -2.6 °C 30.26in /  1024.6hPa NE 2.0mph /  3.2km/h 3.0mph /  4.8km/h 90% 0.00in /  0mm 0.00 W/m2
06:40 29.9 °F /  -1.2 °C 27.3 °F /  -2.6 °C 30.26in /  1024.6hPa NE 1.0mph /  1.6km/h 2.0mph /  3.2km/h 90% 0.00in /  0mm 0.00 W/m2
06:41 29.9 °F /  -1.2 °C 27.3 °F /  -2.6 °C 30.26in /  1024.6hPa NE 1.0mph /  1.6km/h 2.0mph /  3.2km/h 90% 0.00in /  0mm 0.00 W/m2
06:42 29.9 °F /  -1.2 °C 27.3 °F /  -2.6 °C 30.26in /  1024.6hPa NE 3.0mph /  4.8km/h 4.0mph /  6.4km/h 90% 0.00in /  0mm 0.00 W/m2
06:43 29.9 °F /  -1.2 °C 27.3 °F /  -2.6 °C 30.26in /  1024.6hPa NE 3.0mph /  4.8km/h 5.0mph /  8km/h 90% 0.00in /  0mm 0.00 W/m2
06:44 29.9 °F /  -1.2 °C 27.3 °F /  -2.6 °C 30.26in /  1024.6hPa NE 1.0mph /  1.6km/h 5.0mph /  8km/h 90% 0.00in /  0mm 0.00 W/m2
06:46 29.9 °F /  -1.2 °C 27.6 °F /  -2.4 °C 30.26in /  1024.6hPa NE 2.0mph /  3.2km/h 3.0mph /  4.8km/h 91% 0.00in /  0mm 0.00 W/m2
06:47 29.9 °F /  -1.2 °C 27.6 °F /  -2.4 °C 30.27in /  1024.9hPa Calm   3.0mph /  4.8km/h 91% 0.00in /  0mm 0.00 W/m2
06:49 30.0 °F /  -1.1 °C 27.7 °F /  -2.4 °C 30.26in /  1024.6hPa NE 3.0mph /  4.8km/h 3.0mph /  4.8km/h 91% 0.00in /  0mm 0.00 W/m2
06:50 30.0 °F /  -1.1 °C 27.7 °F /  -2.4 °C 30.26in /  1024.6hPa NE 3.0mph /  4.8km/h 3.0mph /  4.8km/h 91% 0.00in /  0mm 0.00 W/m2
06:51 30.0 °F /  -1.1 °C 27.4 °F /  -2.6 °C 30.27in /  1024.9hPa NE 2.0mph /  3.2km/h 3.0mph /  4.8km/h 90% 0.00in /  0mm 0.00 W/m2
06:53 30.0 °F /  -1.1 °C 27.4 °F /  -2.6 °C 30.26in /  1024.6hPa Calm   4.0mph /  6.4km/h 90% 0.00in /  0mm 0.00 W/m2
06:54 30.0 °F /  -1.1 °C 27.4 °F /  -2.6 °C 30.26in /  1024.6hPa Calm   3.0mph /  4.8km/h 90% 0.00in /  0mm 0.00 W/m2
06:55 30.0 °F /  -1.1 °C 27.4 °F /  -2.6 °C 30.26in /  1024.6hPa NE 1.0mph /  1.6km/h 3.0mph /  4.8km/h 90% 0.00in /  0mm 5.00 W/m2
06:56 30.0 °F /  -1.1 °C 27.4 °F /  -2.6 °C 30.26in /  1024.6hPa NE 2.0mph /  3.2km/h 3.0mph /  4.8km/h 90% 0.00in /  0mm 5.00 W/m2
06:58 30.0 °F /  -1.1 °C 27.4 °F /  -2.6 °C 30.26in /  1024.6hPa Calm   3.0mph /  4.8km/h 90% 0.00in /  0mm 7.00 W/m2
06:59 30.0 °F /  -1.1 °C 27.4 °F /  -2.6 °C 30.27in /  1024.9hPa NE 2.0mph /  3.2km/h 3.0mph /  4.8km/h 90% 0.00in /  0mm 7.00 W/m2
07:00 30.0 °F /  -1.1 °C 27.4 °F /  -2.6 °C 30.27in /  1024.9hPa NE 1.0mph /  1.6km/h 3.0mph /  4.8km/h 90% 0.00in /  0mm 7.00 W/m2
07:02 30.0 °F /  -1.1 °C 27.4 °F /  -2.6 °C 30.27in /  1024.9hPa NE 2.0mph /  3.2km/h 4.0mph /  6.4km/h 90% 0.00in /  0mm 11.00 W/m2
07:04 30.0 °F /  -1.1 °C 27.4 °F /  -2.6 °C 30.27in /  1024.9hPa Calm   1.0mph /  1.6km/h 90% 0.00in /  0mm 14.00 W/m2
07:05 30.0 °F /  -1.1 °C 27.4 °F /  -2.6 °C 30.27in /  1024.9hPa NE 4.0mph /  6.4km/h 4.0mph /  6.4km/h 90% 0.00in /  0mm 14.00 W/m2
07:06 30.0 °F /  -1.1 °C 27.4 °F /  -2.6 °C 30.27in /  1024.9hPa NE 1.0mph /  1.6km/h 4.0mph /  6.4km/h 90% 0.00in /  0mm 14.00 W/m2
07:07 30.0 °F /  -1.1 °C 27.4 °F /  -2.6 °C 30.27in /  1024.9hPa NE 2.0mph /  3.2km/h 3.0mph /  4.8km/h 90% 0.00in /  0mm 16.00 W/m2
07:10 30.0 °F /  -1.1 °C 27.4 °F /  -2.6 °C 30.27in /  1024.9hPa NE 2.0mph /  3.2km/h 2.0mph /  3.2km/h 90% 0.00in /  0mm 18.00 W/m2
07:11 30.0 °F /  -1.1 °C 27.4 °F /  -2.6 °C 30.27in /  1024.9hPa NE 1.0mph /  1.6km/h 2.0mph /  3.2km/h 90% 0.00in /  0mm 21.00 W/m2
07:12 30.0 °F /  -1.1 °C 27.4 °F /  -2.6 °C 30.28in /  1025.3hPa Calm   2.0mph /  3.2km/h 90% 0.00in /  0mm 19.00 W/m2
07:15 30.0 °F /  -1.1 °C 27.4 °F /  -2.6 °C 30.28in /  1025.3hPa Calm     90% 0.00in /  0mm 18.00 W/m2
07:16 30.0 °F /  -1.1 °C 27.4 °F /  -2.6 °C 30.28in /  1025.3hPa Calm     90% 0.00in /  0mm 16.00 W/m2
07:17 30.0 °F /  -1.1 °C 27.4 °F /  -2.6 °C 30.28in /  1025.3hPa Calm     90% 0.00in /  0mm 16.00 W/m2
07:21 30.0 °F /  -1.1 °C 27.4 °F /  -2.6 °C 30.29in /  1025.6hPa Calm     90% 0.00in /  0mm 19.00 W/m2
07:22 30.0 °F /  -1.1 °C 27.4 °F /  -2.6 °C 30.29in /  1025.6hPa Calm     90% 0.00in /  0mm 23.00 W/m2
07:26 30.0 °F /  -1.1 °C 27.4 °F /  -2.6 °C 30.30in /  1026hPa Calm     90% 0.00in /  0mm 21.00 W/m2
07:27 30.0 °F /  -1.1 °C 27.4 °F /  -2.6 °C 30.30in /  1026hPa Calm     90% 0.00in /  0mm 21.00 W/m2
07:29 30.0 °F /  -1.1 °C 27.4 °F /  -2.6 °C 30.30in /  1026hPa Calm     90% 0.00in /  0mm 21.00 W/m2
07:31 30.0 °F /  -1.1 °C 27.4 °F /  -2.6 °C 30.29in /  1025.6hPa Calm     90% 0.00in /  0mm 26.00 W/m2
07:32 30.0 °F /  -1.1 °C 27.4 °F /  -2.6 °C 30.29in /  1025.6hPa Calm     90% 0.00in /  0mm 26.00 W/m2
07:33 30.0 °F /  -1.1 °C 27.4 °F /  -2.6 °C 30.29in /  1025.6hPa Calm     90% 0.00in /  0mm 26.00 W/m2
07:34 30.0 °F /  -1.1 °C 27.4 °F /  -2.6 °C 30.30in /  1026hPa Calm     90% 0.00in /  0mm 30.00 W/m2
07:37 30.1 °F /  -1.1 °C 27.5 °F /  -2.5 °C 30.29in /  1025.6hPa Calm     90% 0.00in /  0mm 28.00 W/m2
07:39 30.1 °F /  -1.1 °C 27.8 °F /  -2.3 °C 30.29in /  1025.6hPa Calm     91% 0.00in /  0mm 30.00 W/m2
07:41 30.1 °F /  -1.1 °C 27.8 °F /  -2.3 °C 30.29in /  1025.6hPa Calm   2.0mph /  3.2km/h 91% 0.00in /  0mm 32.00 W/m2
07:42 30.1 °F /  -1.1 °C 27.8 °F /  -2.3 °C 30.29in /  1025.6hPa Calm   2.0mph /  3.2km/h 91% 0.00in /  0mm 33.00 W/m2
07:43 30.1 °F /  -1.1 °C 27.8 °F /  -2.3 °C 30.29in /  1025.6hPa Calm     91% 0.00in /  0mm 33.00 W/m2
07:44 30.2 °F /  -1 °C 27.9 °F /  -2.3 °C 30.29in /  1025.6hPa Calm   2.0mph /  3.2km/h 91% 0.00in /  0mm 35.00 W/m2
07:45 30.2 °F /  -1 °C 27.9 °F /  -2.3 °C 30.29in /  1025.6hPa Calm   1.0mph /  1.6km/h 91% 0.00in /  0mm 37.00 W/m2
07:46 30.2 °F /  -1 °C 27.9 °F /  -2.3 °C 30.29in /  1025.6hPa Calm   1.0mph /  1.6km/h 91% 0.00in /  0mm 37.00 W/m2
07:48 30.3 °F /  -0.9 °C 28.0 °F /  -2.2 °C 30.30in /  1026hPa Calm     91% 0.00in /  0mm 35.00 W/m2
07:49 30.3 °F /  -0.9 °C 28.0 °F /  -2.2 °C 30.30in /  1026hPa Calm     91% 0.00in /  0mm 37.00 W/m2
07:50 30.3 °F /  -0.9 °C 28.0 °F /  -2.2 °C 30.30in /  1026hPa Calm     91% 0.00in /  0mm 37.00 W/m2
07:52 30.3 °F /  -0.9 °C 28.0 °F /  -2.2 °C 30.30in /  1026hPa Calm     91% 0.00in /  0mm 46.00 W/m2
07:53 30.3 °F /  -0.9 °C 28.0 °F /  -2.2 °C 30.30in /  1026hPa Calm     91% 0.00in /  0mm 49.00 W/m2
07:54 30.3 °F /  -0.9 °C 28.0 °F /  -2.2 °C 30.30in /  1026hPa Calm     91% 0.00in /  0mm 49.00 W/m2
07:56 30.4 °F /  -0.9 °C 28.1 °F /  -2.2 °C 30.30in /  1026hPa NE 3.0mph /  4.8km/h 3.0mph /  4.8km/h 91% 0.00in /  0mm 49.00 W/m2
07:57 30.4 °F /  -0.9 °C 28.1 °F /  -2.2 °C 30.30in /  1026hPa NE 3.0mph /  4.8km/h 4.0mph /  6.4km/h 91% 0.00in /  0mm 51.00 W/m2
07:59 30.4 °F /  -0.9 °C 28.1 °F /  -2.2 °C 30.29in /  1025.6hPa Calm   3.0mph /  4.8km/h 91% 0.00in /  0mm 53.00 W/m2
08:00 30.5 °F /  -0.8 °C 28.2 °F /  -2.1 °C 30.30in /  1026hPa NE 2.0mph /  3.2km/h 2.0mph /  3.2km/h 91% 0.00in /  0mm 54.00 W/m2
08:02 30.5 °F /  -0.8 °C 28.2 °F /  -2.1 °C 30.30in /  1026hPa Calm   2.0mph /  3.2km/h 91% 0.00in /  0mm 49.00 W/m2
08:03 30.5 °F /  -0.8 °C 28.2 °F /  -2.1 °C 30.30in /  1026hPa Calm   2.0mph /  3.2km/h 91% 0.00in /  0mm 49.00 W/m2
08:04 30.5 °F /  -0.8 °C 28.2 °F /  -2.1 °C 30.30in /  1026hPa NE 2.0mph /  3.2km/h 3.0mph /  4.8km/h 91% 0.00in /  0mm 46.00 W/m2
08:06 30.6 °F /  -0.8 °C 28.3 °F /  -2.1 °C 30.30in /  1026hPa Calm   1.0mph /  1.6km/h 91% 0.00in /  0mm 44.00 W/m2
08:08 30.6 °F /  -0.8 °C 28.3 °F /  -2.1 °C 30.30in /  1026hPa Calm     91% 0.00in /  0mm 47.00 W/m2
08:09 30.6 °F /  -0.8 °C 28.3 °F /  -2.1 °C 30.30in /  1026hPa Calm   1.0mph /  1.6km/h 91% 0.00in /  0mm 69.00 W/m2
08:10 30.6 °F /  -0.8 °C 28.3 °F /  -2.1 °C 30.30in /  1026hPa Calm   1.0mph /  1.6km/h 91% 0.00in /  0mm 69.00 W/m2
08:11 30.7 °F /  -0.7 °C 28.4 °F /  -2 °C 30.30in /  1026hPa Calm     91% 0.00in /  0mm 51.00 W/m2
08:13 30.7 °F /  -0.7 °C 28.4 °F /  -2 °C 30.30in /  1026hPa NE 1.0mph /  1.6km/h 4.0mph /  6.4km/h 91% 0.00in /  0mm 44.00 W/m2
08:14 30.7 °F /  -0.7 °C 28.4 °F /  -2 °C 30.30in /  1026hPa NE 2.0mph /  3.2km/h 3.0mph /  4.8km/h 91% 0.00in /  0mm 44.00 W/m2
08:15 30.7 °F /  -0.7 °C 28.4 °F /  -2 °C 30.30in /  1026hPa NE 2.0mph /  3.2km/h 3.0mph /  4.8km/h 91% 0.00in /  0mm 44.00 W/m2
08:16 30.7 °F /  -0.7 °C 28.4 °F /  -2 °C 30.30in /  1026hPa Calm   2.0mph /  3.2km/h 91% 0.00in /  0mm 40.00 W/m2
08:19 30.8 °F /  -0.7 °C 28.5 °F /  -1.9 °C 30.30in /  1026hPa Calm   1.0mph /  1.6km/h 91% 0.00in /  0mm 42.00 W/m2
08:20 30.7 °F /  -0.7 °C 28.4 °F /  -2 °C 30.30in /  1026hPa Calm   2.0mph /  3.2km/h 91% 0.00in /  0mm 46.00 W/m2
08:21 30.8 °F /  -0.7 °C 28.5 °F /  -1.9 °C 30.30in /  1026hPa NE 3.0mph /  4.8km/h 4.0mph /  6.4km/h 91% 0.00in /  0mm 51.00 W/m2
08:22 30.8 °F /  -0.7 °C 28.5 °F /  -1.9 °C 30.30in /  1026hPa NE 2.0mph /  3.2km/h 4.0mph /  6.4km/h 91% 0.00in /  0mm 51.00 W/m2
08:24 30.8 °F /  -0.7 °C 28.5 °F /  -1.9 °C 30.30in /  1026hPa Calm   3.0mph /  4.8km/h 91% 0.00in /  0mm 58.00 W/m2
08:25 30.8 °F /  -0.7 °C 28.5 °F /  -1.9 °C 30.30in /  1026hPa Calm   1.0mph /  1.6km/h 91% 0.00in /  0mm 58.00 W/m2
08:27 30.8 °F /  -0.7 °C 28.5 °F /  -1.9 °C 30.30in /  1026hPa Calm   1.0mph /  1.6km/h 91% 0.00in /  0mm 60.00 W/m2
08:28 30.9 °F /  -0.6 °C 28.6 °F /  -1.9 °C 30.30in /  1026hPa Calm   1.0mph /  1.6km/h 91% 0.00in /  0mm 58.00 W/m2
08:29 30.9 °F /  -0.6 °C 28.6 °F /  -1.9 °C 30.31in /  1026.3hPa Calm   1.0mph /  1.6km/h 91% 0.00in /  0mm 60.00 W/m2
08:30 30.9 °F /  -0.6 °C 28.6 °F /  -1.9 °C 30.31in /  1026.3hPa Calm     91% 0.00in /  0mm 58.00 W/m2
08:32 30.9 °F /  -0.6 °C 28.3 °F /  -2.1 °C 30.31in /  1026.3hPa Calm   2.0mph /  3.2km/h 90% 0.00in /  0mm 44.00 W/m2
08:34 31.0 °F /  -0.6 °C 28.7 °F /  -1.8 °C 30.31in /  1026.3hPa NE 1.0mph /  1.6km/h 3.0mph /  4.8km/h 91% 0.00in /  0mm 46.00 W/m2
08:35 31.0 °F /  -0.6 °C 28.7 °F /  -1.8 °C 30.31in /  1026.3hPa NE 1.0mph /  1.6km/h 3.0mph /  4.8km/h 91% 0.00in /  0mm 44.00 W/m2
08:36 31.0 °F /  -0.6 °C 28.7 °F /  -1.8 °C 30.31in /  1026.3hPa NE 3.0mph /  4.8km/h 3.0mph /  4.8km/h 91% 0.00in /  0mm 46.00 W/m2
08:39 31.0 °F /  -0.6 °C 28.7 °F /  -1.8 °C 30.31in /  1026.3hPa Calm   2.0mph /  3.2km/h 91% 0.00in /  0mm 62.00 W/m2
08:40 31.0 °F /  -0.6 °C 28.7 °F /  -1.8 °C 30.31in /  1026.3hPa Calm     91% 0.00in /  0mm 62.00 W/m2
08:41 31.0 °F /  -0.6 °C 28.7 °F /  -1.8 °C 30.31in /  1026.3hPa Calm     91% 0.00in /  0mm 58.00 W/m2
08:44 31.1 °F /  -0.5 °C 28.5 °F /  -1.9 °C 30.32in /  1026.6hPa Calm     90% 0.00in /  0mm 44.00 W/m2
08:45 31.1 °F /  -0.5 °C 28.5 °F /  -1.9 °C 30.32in /  1026.6hPa Calm   1.0mph /  1.6km/h 90% 0.00in /  0mm 49.00 W/m2
08:47 31.1 °F /  -0.5 °C 28.5 °F /  -1.9 °C 30.32in /  1026.6hPa Calm   2.0mph /  3.2km/h 90% 0.00in /  0mm 62.00 W/m2
08:49 31.2 °F /  -0.4 °C 28.6 °F /  -1.9 °C 30.32in /  1026.6hPa Calm     90% 0.00in /  0mm 67.00 W/m2
08:50 31.2 °F /  -0.4 °C 28.6 °F /  -1.9 °C 30.32in /  1026.6hPa Calm     90% 0.00in /  0mm 69.00 W/m2
08:52 31.2 °F /  -0.4 °C 28.6 °F /  -1.9 °C 30.32in /  1026.6hPa Calm   1.0mph /  1.6km/h 90% 0.00in /  0mm 83.00 W/m2
08:55 31.2 °F /  -0.4 °C 28.6 °F /  -1.9 °C 30.31in /  1026.3hPa NE 2.0mph /  3.2km/h 3.0mph /  4.8km/h 90% 0.00in /  0mm 83.00 W/m2
08:57 31.3 °F /  -0.4 °C 28.7 °F /  -1.8 °C 30.31in /  1026.3hPa NE 1.0mph /  1.6km/h 2.0mph /  3.2km/h 90% 0.00in /  0mm 104.00 W/m2
08:58 31.3 °F /  -0.4 °C 28.7 °F /  -1.8 °C 30.31in /  1026.3hPa NE 2.0mph /  3.2km/h 3.0mph /  4.8km/h 90% 0.00in /  0mm 114.00 W/m2
09:00 31.4 °F /  -0.3 °C 28.8 °F /  -1.8 °C 30.32in /  1026.6hPa Calm   2.0mph /  3.2km/h 90% 0.00in /  0mm 116.00 W/m2
09:01 31.4 °F /  -0.3 °C 28.8 °F /  -1.8 °C 30.32in /  1026.6hPa Calm     90% 0.00in /  0mm 123.00 W/m2
09:02 31.4 °F /  -0.3 °C 28.8 °F /  -1.8 °C 30.32in /  1026.6hPa Calm     90% 0.00in /  0mm 134.00 W/m2
09:03 31.4 °F /  -0.3 °C 28.8 °F /  -1.8 °C 30.32in /  1026.6hPa Calm   1.0mph /  1.6km/h 90% 0.00in /  0mm 134.00 W/m2
09:05 31.5 °F /  -0.3 °C 28.9 °F /  -1.7 °C 30.31in /  1026.3hPa Calm     90% 0.00in /  0mm 146.00 W/m2
09:06 31.5 °F /  -0.3 °C 28.9 °F /  -1.7 °C 30.31in /  1026.3hPa Calm     90% 0.00in /  0mm 151.00 W/m2
09:08 31.5 °F /  -0.3 °C 28.9 °F /  -1.7 °C 30.31in /  1026.3hPa Calm     90% 0.00in /  0mm 141.00 W/m2
09:09 31.6 °F /  -0.2 °C 29.0 °F /  -1.7 °C 30.31in /  1026.3hPa Calm     90% 0.00in /  0mm 141.00 W/m2
09:11 31.6 °F /  -0.2 °C 29.0 °F /  -1.7 °C 30.32in /  1026.6hPa Calm   1.0mph /  1.6km/h 90% 0.00in /  0mm 79.00 W/m2
09:13 31.7 °F /  -0.2 °C 29.1 °F /  -1.6 °C 30.32in /  1026.6hPa NE 2.0mph /  3.2km/h 2.0mph /  3.2km/h 90% 0.00in /  0mm 100.00 W/m2
09:14 31.7 °F /  -0.2 °C 29.1 °F /  -1.6 °C 30.31in /  1026.3hPa NE 2.0mph /  3.2km/h 2.0mph /  3.2km/h 90% 0.00in /  0mm 127.00 W/m2
09:16 31.7 °F /  -0.2 °C 29.1 °F /  -1.6 °C 30.31in /  1026.3hPa NE 3.0mph /  4.8km/h 4.0mph /  6.4km/h 90% 0.00in /  0mm 141.00 W/m2
09:18 31.7 °F /  -0.2 °C 29.1 °F /  -1.6 °C 30.32in /  1026.6hPa NE 1.0mph /  1.6km/h 3.0mph /  4.8km/h 90% 0.00in /  0mm 111.00 W/m2
09:19 31.7 °F /  -0.2 °C 29.1 °F /  -1.6 °C 30.32in /  1026.6hPa Calm   3.0mph /  4.8km/h 90% 0.00in /  0mm 111.00 W/m2
09:20 31.7 °F /  -0.2 °C 29.1 °F /  -1.6 °C 30.32in /  1026.6hPa Calm   2.0mph /  3.2km/h 90% 0.00in /  0mm 98.00 W/m2
09:21 31.7 °F /  -0.2 °C 29.1 °F /  -1.6 °C 30.33in /  1027hPa Calm     90% 0.00in /  0mm 77.00 W/m2
09:22 31.7 °F /  -0.2 °C 29.1 °F /  -1.6 °C 30.33in /  1027hPa Calm     90% 0.00in /  0mm 72.00 W/m2
09:23 31.7 °F /  -0.2 °C 29.1 °F /  -1.6 °C 30.33in /  1027hPa Calm     90% 0.00in /  0mm 49.00 W/m2
09:24 31.7 °F /  -0.2 °C 29.1 °F /  -1.6 °C 30.33in /  1027hPa Calm   1.0mph /  1.6km/h 90% 0.00in /  0mm 49.00 W/m2
09:26 31.7 °F /  -0.2 °C 29.1 °F /  -1.6 °C 30.33in /  1027hPa Calm     90% 0.00in /  0mm 33.00 W/m2
09:27 31.7 °F /  -0.2 °C 29.1 °F /  -1.6 °C 30.33in /  1027hPa Calm     90% 0.00in /  0mm 33.00 W/m2
09:29 31.7 °F /  -0.2 °C 29.1 °F /  -1.6 °C 30.33in /  1027hPa Calm     90% 0.00in /  0mm 42.00 W/m2
09:32 31.7 °F /  -0.2 °C 29.1 °F /  -1.6 °C 30.33in /  1027hPa Calm     90% 0.00in /  0mm 42.00 W/m2
09:34 31.7 °F /  -0.2 °C 29.1 °F /  -1.6 °C 30.33in /  1027hPa Calm     90% 0.00in /  0mm 40.00 W/m2
09:35 31.7 °F /  -0.2 °C 29.1 °F /  -1.6 °C 30.33in /  1027hPa Calm     90% 0.00in /  0mm 42.00 W/m2
09:37 31.8 °F /  -0.1 °C 28.9 °F /  -1.7 °C 30.33in /  1027hPa Calm   1.0mph /  1.6km/h 89% 0.00in /  0mm 67.00 W/m2
09:39 31.8 °F /  -0.1 °C 28.9 °F /  -1.7 °C 30.33in /  1027hPa NE 2.0mph /  3.2km/h 2.0mph /  3.2km/h 89% 0.00in /  0mm 67.00 W/m2
09:40 31.8 °F /  -0.1 °C 28.9 °F /  -1.7 °C 30.33in /  1027hPa NE 2.0mph /  3.2km/h 2.0mph /  3.2km/h 89% 0.00in /  0mm 63.00 W/m2
09:42 31.8 °F /  -0.1 °C 28.9 °F /  -1.7 °C 30.33in /  1027hPa NE 2.0mph /  3.2km/h 3.0mph /  4.8km/h 89% 0.00in /  0mm 67.00 W/m2
09:45 31.9 °F /  -0.1 °C 29.0 °F /  -1.7 °C 30.33in /  1027hPa NE 1.0mph /  1.6km/h 1.0mph /  1.6km/h 89% 0.00in /  0mm 70.00 W/m2
09:46 31.9 °F /  -0.1 °C 29.0 °F /  -1.7 °C 30.33in /  1027hPa NE 1.0mph /  1.6km/h 2.0mph /  3.2km/h 89% 0.00in /  0mm 76.00 W/m2
09:47 31.9 °F /  -0.1 °C 29.0 °F /  -1.7 °C 30.33in /  1027hPa NE 2.0mph /  3.2km/h 3.0mph /  4.8km/h 89% 0.00in /  0mm 77.00 W/m2
09:50 31.9 °F /  -0.1 °C 29.0 °F /  -1.7 °C 30.33in /  1027hPa NE 2.0mph /  3.2km/h 3.0mph /  4.8km/h 89% 0.00in /  0mm 84.00 W/m2
09:51 31.9 °F /  -0.1 °C 29.0 °F /  -1.7 °C 30.34in /  1027.3hPa NE 3.0mph /  4.8km/h 3.0mph /  4.8km/h 89% 0.00in /  0mm 84.00 W/m2
09:52 32.0 °F /  0 °C 29.1 °F /  -1.6 °C 30.34in /  1027.3hPa NE 2.0mph /  3.2km/h 3.0mph /  4.8km/h 89% 0.00in /  0mm 83.00 W/m2
09:53 32.0 °F /  0 °C 29.1 °F /  -1.6 °C 30.34in /  1027.3hPa NE 2.0mph /  3.2km/h 4.0mph /  6.4km/h 89% 0.00in /  0mm 74.00 W/m2
09:56 32.0 °F /  0 °C 29.1 °F /  -1.6 °C 30.34in /  1027.3hPa NE 3.0mph /  4.8km/h 4.0mph /  6.4km/h 89% 0.00in /  0mm 53.00 W/m2
09:57 32.0 °F /  0 °C 29.1 °F /  -1.6 °C 30.34in /  1027.3hPa NE 1.0mph /  1.6km/h 4.0mph /  6.4km/h 89% 0.00in /  0mm 51.00 W/m2
09:58 32.0 °F /  0 °C 29.1 °F /  -1.6 °C 30.34in /  1027.3hPa NE 3.0mph /  4.8km/h 4.0mph /  6.4km/h 89% 0.00in /  0mm 49.00 W/m2
10:00 32.0 °F /  0 °C 29.1 °F /  -1.6 °C 30.34in /  1027.3hPa NE 4.0mph /  6.4km/h 5.0mph /  8km/h 89% 0.00in /  0mm 46.00 W/m2
10:01 32.0 °F /  0 °C 29.1 °F /  -1.6 °C 30.34in /  1027.3hPa NNE 4.0mph /  6.4km/h 4.0mph /  6.4km/h 89% 0.00in /  0mm 44.00 W/m2
10:02 32.0 °F /  0 °C 29.1 °F /  -1.6 °C 30.34in /  1027.3hPa NNE 3.0mph /  4.8km/h 4.0mph /  6.4km/h 89% 0.00in /  0mm 42.00 W/m2
10:03 32.0 °F /  0 °C 29.1 °F /  -1.6 °C 30.34in /  1027.3hPa NNE 3.0mph /  4.8km/h 4.0mph /  6.4km/h 89% 0.00in /  0mm 40.00 W/m2
10:04 32.0 °F /  0 °C 29.1 °F /  -1.6 °C 30.34in /  1027.3hPa North 4.0mph /  6.4km/h 5.0mph /  8km/h 89% 0.00in /  0mm 39.00 W/m2
10:05 32.0 °F /  0 °C 29.1 °F /  -1.6 °C 30.34in /  1027.3hPa NNW 4.0mph /  6.4km/h 6.0mph /  9.7km/h 89% 0.00in /  0mm 37.00 W/m2
10:07 32.0 °F /  0 °C 29.1 °F /  -1.6 °C 30.34in /  1027.3hPa NW 5.0mph /  8km/h 6.0mph /  9.7km/h 89% 0.00in /  0mm 35.00 W/m2
10:08 32.0 °F /  0 °C 29.1 °F /  -1.6 °C 30.34in /  1027.3hPa NW 3.0mph /  4.8km/h 5.0mph /  8km/h 89% 0.00in /  0mm 33.00 W/m2
10:09 32.0 °F /  0 °C 29.1 °F /  -1.6 °C 30.35in /  1027.7hPa NW 3.0mph /  4.8km/h 5.0mph /  8km/h 89% 0.00in /  0mm 32.00 W/m2
10:10 32.0 °F /  0 °C 29.1 °F /  -1.6 °C 30.34in /  1027.3hPa NW 4.0mph /  6.4km/h 4.0mph /  6.4km/h 89% 0.00in /  0mm 28.00 W/m2
10:12 32.0 °F /  0 °C 29.1 °F /  -1.6 °C 30.34in /  1027.3hPa NW 4.0mph /  6.4km/h 4.0mph /  6.4km/h 89% 0.00in /  0mm 26.00 W/m2
10:13 32.0 °F /  0 °C 29.1 °F /  -1.6 °C 30.34in /  1027.3hPa NW 2.0mph /  3.2km/h 4.0mph /  6.4km/h 89% 0.00in /  0mm 26.00 W/m2
10:15 32.0 °F /  0 °C 29.1 °F /  -1.6 °C 30.34in /  1027.3hPa NW 4.0mph /  6.4km/h 5.0mph /  8km/h 89% 0.00in /  0mm 28.00 W/m2
10:18 31.9 °F /  -0.1 °C 29.0 °F /  -1.7 °C 30.34in /  1027.3hPa NW 4.0mph /  6.4km/h 6.0mph /  9.7km/h 89% 0.00in /  0mm 32.00 W/m2
10:19 31.9 °F /  -0.1 °C 29.0 °F /  -1.7 °C 30.34in /  1027.3hPa NW 6.0mph /  9.7km/h 6.0mph /  9.7km/h 89% 0.00in /  0mm 33.00 W/m2
10:20 31.9 °F /  -0.1 °C 29.0 °F /  -1.7 °C 30.35in /  1027.7hPa NW 3.0mph /  4.8km/h 6.0mph /  9.7km/h 89% 0.00in /  0mm 35.00 W/m2
10:23 31.9 °F /  -0.1 °C 29.0 °F /  -1.7 °C 30.35in /  1027.7hPa NW 5.0mph /  8km/h 5.0mph /  8km/h 89% 0.00in /  0mm 33.00 W/m2
10:25 31.9 °F /  -0.1 °C 29.0 °F /  -1.7 °C 30.35in /  1027.7hPa WNW 6.0mph /  9.7km/h 8.0mph /  12.9km/h 89% 0.00in /  0mm 35.00 W/m2
10:26 31.9 °F /  -0.1 °C 29.0 °F /  -1.7 °C 30.35in /  1027.7hPa WNW 5.0mph /  8km/h 7.0mph /  11.3km/h 89% 0.00in /  0mm 35.00 W/m2
10:28 31.9 °F /  -0.1 °C 29.0 °F /  -1.7 °C 30.35in /  1027.7hPa WNW 3.0mph /  4.8km/h 7.0mph /  11.3km/h 89% 0.00in /  0mm 32.00 W/m2
10:31 31.9 °F /  -0.1 °C 29.0 °F /  -1.7 °C 30.35in /  1027.7hPa WNW 4.0mph /  6.4km/h 6.0mph /  9.7km/h 89% 0.00in /  0mm 42.00 W/m2
10:32 31.9 °F /  -0.1 °C 29.0 °F /  -1.7 °C 30.35in /  1027.7hPa WNW 4.0mph /  6.4km/h 6.0mph /  9.7km/h 89% 0.00in /  0mm 42.00 W/m2
10:33 31.9 °F /  -0.1 °C 29.0 °F /  -1.7 °C 30.35in /  1027.7hPa WNW 4.0mph /  6.4km/h 6.0mph /  9.7km/h 89% 0.00in /  0mm 47.00 W/m2
10:36 31.8 °F /  -0.1 °C 28.9 °F /  -1.7 °C 30.35in /  1027.7hPa WNW 5.0mph /  8km/h 7.0mph /  11.3km/h 89% 0.00in /  0mm 42.00 W/m2
10:38 31.9 °F /  -0.1 °C 29.0 °F /  -1.7 °C 30.35in /  1027.7hPa WNW 4.0mph /  6.4km/h 5.0mph /  8km/h 89% 0.00in /  0mm 46.00 W/m2
10:39 31.8 °F /  -0.1 °C 28.9 °F /  -1.7 °C 30.35in /  1027.7hPa NW 4.0mph /  6.4km/h 7.0mph /  11.3km/h 89% 0.00in /  0mm 53.00 W/m2
10:42 31.9 °F /  -0.1 °C 29.0 °F /  -1.7 °C 30.35in /  1027.7hPa WNW 6.0mph /  9.7km/h 7.0mph /  11.3km/h 89% 0.00in /  0mm 72.00 W/m2
10:43 31.9 °F /  -0.1 °C 29.0 °F /  -1.7 °C 30.35in /  1027.7hPa WNW 5.0mph /  8km/h 7.0mph /  11.3km/h 89% 0.00in /  0mm 70.00 W/m2
10:44 31.9 °F /  -0.1 °C 29.0 °F /  -1.7 °C 30.35in /  1027.7hPa WNW 4.0mph /  6.4km/h 7.0mph /  11.3km/h 89% 0.00in /  0mm 69.00 W/m2
10:46 31.9 °F /  -0.1 °C 29.0 °F /  -1.7 °C 30.35in /  1027.7hPa WNW 2.0mph /  3.2km/h 6.0mph /  9.7km/h 89% 0.00in /  0mm 63.00 W/m2
10:47 31.9 °F /  -0.1 °C 29.0 °F /  -1.7 °C 30.34in /  1027.3hPa WNW 3.0mph /  4.8km/h 4.0mph /  6.4km/h 89% 0.00in /  0mm 79.00 W/m2
10:49 31.9 °F /  -0.1 °C 29.0 °F /  -1.7 °C 30.34in /  1027.3hPa WNW 4.0mph /  6.4km/h 5.0mph /  8km/h 89% 0.00in /  0mm 93.00 W/m2
10:50 32.0 °F /  0 °C 29.1 °F /  -1.6 °C 30.34in /  1027.3hPa WNW 4.0mph /  6.4km/h 6.0mph /  9.7km/h 89% 0.00in /  0mm 104.00 W/m2
10:52 32.0 °F /  0 °C 29.1 °F /  -1.6 °C 30.35in /  1027.7hPa WNW 3.0mph /  4.8km/h 7.0mph /  11.3km/h 89% 0.00in /  0mm 83.00 W/m2
10:54 32.1 °F /  0.1 °C 29.2 °F /  -1.6 °C 30.35in /  1027.7hPa WNW 4.0mph /  6.4km/h 7.0mph /  11.3km/h 89% 0.00in /  0mm 69.00 W/m2
10:55 32.1 °F /  0.1 °C 29.2 °F /  -1.6 °C 30.35in /  1027.7hPa WNW 2.0mph /  3.2km/h 7.0mph /  11.3km/h 89% 0.00in /  0mm 69.00 W/m2
10:57 32.2 °F /  0.1 °C 29.3 °F /  -1.5 °C 30.34in /  1027.3hPa WNW 7.0mph /  11.3km/h 9.0mph /  14.5km/h 89% 0.00in /  0mm 79.00 W/m2
10:59 32.2 °F /  0.1 °C 29.3 °F /  -1.5 °C 30.35in /  1027.7hPa WNW 4.0mph /  6.4km/h 7.0mph /  11.3km/h 89% 0.00in /  0mm 76.00 W/m2
11:00 32.2 °F /  0.1 °C 29.3 °F /  -1.5 °C 30.35in /  1027.7hPa WNW 5.0mph /  8km/h 6.0mph /  9.7km/h 89% 0.00in /  0mm 70.00 W/m2
11:01 32.1 °F /  0.1 °C 29.2 °F /  -1.6 °C 30.35in /  1027.7hPa NW 3.0mph /  4.8km/h 6.0mph /  9.7km/h 89% 0.00in /  0mm 67.00 W/m2
11:02 32.2 °F /  0.1 °C 29.3 °F /  -1.5 °C 30.35in /  1027.7hPa NW 3.0mph /  4.8km/h 5.0mph /  8km/h 89% 0.00in /  0mm 60.00 W/m2
11:04 32.2 °F /  0.1 °C 29.3 °F /  -1.5 °C 30.35in /  1027.7hPa WNW 4.0mph /  6.4km/h 5.0mph /  8km/h 89% 0.00in /  0mm 51.00 W/m2
11:05 32.2 °F /  0.1 °C 29.3 °F /  -1.5 °C 30.35in /  1027.7hPa NW 4.0mph /  6.4km/h 6.0mph /  9.7km/h 89% 0.00in /  0mm 47.00 W/m2
11:06 32.2 °F /  0.1 °C 29.3 °F /  -1.5 °C 30.35in /  1027.7hPa NW 6.0mph /  9.7km/h 8.0mph /  12.9km/h 89% 0.00in /  0mm 49.00 W/m2
11:08 32.2 °F /  0.1 °C 29.3 °F /  -1.5 °C 30.35in /  1027.7hPa NW 3.0mph /  4.8km/h 6.0mph /  9.7km/h 89% 0.00in /  0mm 44.00 W/m2
11:09 32.2 °F /  0.1 °C 29.3 °F /  -1.5 °C 30.35in /  1027.7hPa NW 4.0mph /  6.4km/h 5.0mph /  8km/h 89% 0.00in /  0mm 33.00 W/m2
11:10 32.1 °F /  0.1 °C 29.2 °F /  -1.6 °C 30.35in /  1027.7hPa NW 2.0mph /  3.2km/h 5.0mph /  8km/h 89% 0.00in /  0mm 25.00 W/m2
11:11 32.1 °F /  0.1 °C 29.2 °F /  -1.6 °C 30.35in /  1027.7hPa NW 5.0mph /  8km/h 8.0mph /  12.9km/h 89% 0.00in /  0mm 30.00 W/m2
11:13 32.1 °F /  0.1 °C 29.2 °F /  -1.6 °C 30.35in /  1027.7hPa NW 3.0mph /  4.8km/h 5.0mph /  8km/h 89% 0.00in /  0mm 32.00 W/m2
11:14 32.1 °F /  0.1 °C 29.2 °F /  -1.6 °C 30.35in /  1027.7hPa NW 3.0mph /  4.8km/h 6.0mph /  9.7km/h 89% 0.00in /  0mm 32.00 W/m2
11:16 32.0 °F /  0 °C 29.1 °F /  -1.6 °C 30.35in /  1027.7hPa NW 5.0mph /  8km/h 5.0mph /  8km/h 89% 0.00in /  0mm 32.00 W/m2
11:17 32.0 °F /  0 °C 29.1 °F /  -1.6 °C 30.35in /  1027.7hPa NW 3.0mph /  4.8km/h 7.0mph /  11.3km/h 89% 0.00in /  0mm 37.00 W/m2
11:18 32.0 °F /  0 °C 29.1 °F /  -1.6 °C 30.35in /  1027.7hPa NW 3.0mph /  4.8km/h 7.0mph /  11.3km/h 89% 0.00in /  0mm 39.00 W/m2
11:19 32.0 °F /  0 °C 29.1 °F /  -1.6 °C 30.35in /  1027.7hPa NW 4.0mph /  6.4km/h 7.0mph /  11.3km/h 89% 0.00in /  0mm 39.00 W/m2
11:21 32.0 °F /  0 °C 29.1 °F /  -1.6 °C 30.34in /  1027.3hPa NW 4.0mph /  6.4km/h 4.0mph /  6.4km/h 89% 0.00in /  0mm 39.00 W/m2
11:22 32.0 °F /  0 °C 29.1 °F /  -1.6 °C 30.34in /  1027.3hPa NW 3.0mph /  4.8km/h 5.0mph /  8km/h 89% 0.00in /  0mm 44.00 W/m2
11:23 32.0 °F /  0 °C 29.1 °F /  -1.6 °C 30.34in /  1027.3hPa NW 3.0mph /  4.8km/h 5.0mph /  8km/h 89% 0.00in /  0mm 42.00 W/m2
11:25 32.0 °F /  0 °C 29.1 °F /  -1.6 °C 30.34in /  1027.3hPa NW 4.0mph /  6.4km/h 6.0mph /  9.7km/h 89% 0.00in /  0mm 40.00 W/m2
11:26 32.0 °F /  0 °C 29.1 °F /  -1.6 °C 30.34in /  1027.3hPa NW 6.0mph /  9.7km/h 6.0mph /  9.7km/h 89% 0.00in /  0mm 40.00 W/m2
11:27 32.0 °F /  0 °C 29.1 °F /  -1.6 °C 30.34in /  1027.3hPa NW 2.0mph /  3.2km/h 6.0mph /  9.7km/h 89% 0.00in /  0mm 46.00 W/m2
11:28 32.0 °F /  0 °C 29.1 °F /  -1.6 °C 30.34in /  1027.3hPa Calm   3.0mph /  4.8km/h 89% 0.00in /  0mm 46.00 W/m2
11:31 32.0 °F /  0 °C 29.1 °F /  -1.6 °C 30.34in /  1027.3hPa NW 3.0mph /  4.8km/h 4.0mph /  6.4km/h 89% 0.00in /  0mm 37.00 W/m2
11:32 32.0 °F /  0 °C 29.1 °F /  -1.6 °C 30.34in /  1027.3hPa NW 3.0mph /  4.8km/h 4.0mph /  6.4km/h 89% 0.00in /  0mm 35.00 W/m2
11:34 31.9 °F /  -0.1 °C 29.3 °F /  -1.5 °C 30.34in /  1027.3hPa NW 3.0mph /  4.8km/h 5.0mph /  8km/h 90% 0.00in /  0mm 37.00 W/m2
11:36 32.0 °F /  0 °C 29.1 °F /  -1.6 °C 30.34in /  1027.3hPa NW 4.0mph /  6.4km/h 4.0mph /  6.4km/h 89% 0.00in /  0mm 42.00 W/m2
11:37 32.0 °F /  0 °C 29.1 °F /  -1.6 °C 30.34in /  1027.3hPa NW 3.0mph /  4.8km/h 5.0mph /  8km/h 89% 0.00in /  0mm 47.00 W/m2
11:38 32.0 °F /  0 °C 29.1 °F /  -1.6 °C 30.34in /  1027.3hPa NW 3.0mph /  4.8km/h 5.0mph /  8km/h 89% 0.00in /  0mm 47.00 W/m2
11:39 32.0 °F /  0 °C 29.1 °F /  -1.6 °C 30.34in /  1027.3hPa NW 3.0mph /  4.8km/h 3.0mph /  4.8km/h 89% 0.00in /  0mm 47.00 W/m2
11:41 32.0 °F /  0 °C 29.4 °F /  -1.4 °C 30.33in /  1027hPa NNW 3.0mph /  4.8km/h 5.0mph /  8km/h 90% 0.00in /  0mm 49.00 W/m2
11:43 32.0 °F /  0 °C 29.4 °F /  -1.4 °C 30.34in /  1027.3hPa NNW 2.0mph /  3.2km/h 3.0mph /  4.8km/h 90% 0.00in /  0mm 51.00 W/m2
11:45 32.0 °F /  0 °C 29.4 °F /  -1.4 °C 30.33in /  1027hPa NNW 2.0mph /  3.2km/h 6.0mph /  9.7km/h 90% 0.00in /  0mm 51.00 W/m2
11:46 32.0 °F /  0 °C 29.4 °F /  -1.4 °C 30.33in /  1027hPa NNW 1.0mph /  1.6km/h 4.0mph /  6.4km/h 90% 0.00in /  0mm 49.00 W/m2
11:48 32.0 °F /  0 °C 29.4 °F /  -1.4 °C 30.34in /  1027.3hPa North 2.0mph /  3.2km/h 7.0mph /  11.3km/h 90% 0.00in /  0mm 46.00 W/m2
11:49 32.0 °F /  0 °C 29.4 °F /  -1.4 °C 30.34in /  1027.3hPa North 6.0mph /  9.7km/h 7.0mph /  11.3km/h 90% 0.00in /  0mm 49.00 W/m2
11:51 32.0 °F /  0 °C 29.4 °F /  -1.4 °C 30.34in /  1027.3hPa North 2.0mph /  3.2km/h 4.0mph /  6.4km/h 90% 0.00in /  0mm 54.00 W/m2
11:54 32.1 °F /  0.1 °C 29.5 °F /  -1.4 °C 30.33in /  1027hPa NNW 3.0mph /  4.8km/h 6.0mph /  9.7km/h 90% 0.00in /  0mm 58.00 W/m2
11:55 32.1 °F /  0.1 °C 29.5 °F /  -1.4 °C 30.34in /  1027.3hPa NNW 2.0mph /  3.2km/h 4.0mph /  6.4km/h 90% 0.00in /  0mm 62.00 W/m2
11:56 32.1 °F /  0.1 °C 29.5 °F /  -1.4 °C 30.34in /  1027.3hPa NNW 3.0mph /  4.8km/h 4.0mph /  6.4km/h 90% 0.00in /  0mm 62.00 W/m2
11:57 32.1 °F /  0.1 °C 29.5 °F /  -1.4 °C 30.33in /  1027hPa Calm   4.0mph /  6.4km/h 90% 0.00in /  0mm 63.00 W/m2
11:59 32.1 °F /  0.1 °C 29.5 °F /  -1.4 °C 30.33in /  1027hPa North 3.0mph /  4.8km/h 4.0mph /  6.4km/h 90% 0.00in /  0mm 60.00 W/m2
12:00 32.1 °F /  0.1 °C 29.5 °F /  -1.4 °C 30.33in /  1027hPa North 4.0mph /  6.4km/h 5.0mph /  8km/h 90% 0.00in /  0mm 62.00 W/m2
12:02 32.1 °F /  0.1 °C 29.5 °F /  -1.4 °C 30.33in /  1027hPa North 2.0mph /  3.2km/h 5.0mph /  8km/h 90% 0.00in /  0mm 70.00 W/m2
12:04 32.2 °F /  0.1 °C 29.6 °F /  -1.3 °C 30.33in /  1027hPa North 3.0mph /  4.8km/h 4.0mph /  6.4km/h 90% 0.00in /  0mm 65.00 W/m2
12:05 32.2 °F /  0.1 °C 29.6 °F /  -1.3 °C 30.33in /  1027hPa North 4.0mph /  6.4km/h 5.0mph /  8km/h 90% 0.00in /  0mm 63.00 W/m2
12:07 32.2 °F /  0.1 °C 29.6 °F /  -1.3 °C 30.33in /  1027hPa North 3.0mph /  4.8km/h 5.0mph /  8km/h 90% 0.00in /  0mm 72.00 W/m2
12:10 32.3 °F /  0.2 °C 30.0 °F /  -1.1 °C 30.33in /  1027hPa North 4.0mph /  6.4km/h 5.0mph /  8km/h 91% 0.00in /  0mm 79.00 W/m2
12:11 32.3 °F /  0.2 °C 30.0 °F /  -1.1 °C 30.33in /  1027hPa North 4.0mph /  6.4km/h 5.0mph /  8km/h 91% 0.00in /  0mm 84.00 W/m2
12:12 32.4 °F /  0.2 °C 30.1 °F /  -1.1 °C 30.33in /  1027hPa North 2.0mph /  3.2km/h 5.0mph /  8km/h 91% 0.00in /  0mm 84.00 W/m2
12:15 32.5 °F /  0.3 °C 30.2 °F /  -1 °C 30.33in /  1027hPa North 2.0mph /  3.2km/h 4.0mph /  6.4km/h 91% 0.00in /  0mm 77.00 W/m2
12:16 32.5 °F /  0.3 °C 30.2 °F /  -1 °C 30.33in /  1027hPa North 3.0mph /  4.8km/h 5.0mph /  8km/h 91% 0.00in /  0mm 81.00 W/m2
12:17 32.6 °F /  0.3 °C 30.3 °F /  -0.9 °C 30.33in /  1027hPa North 2.0mph /  3.2km/h 4.0mph /  6.4km/h 91% 0.00in /  0mm 77.00 W/m2
12:21 32.7 °F /  0.4 °C 30.4 °F /  -0.9 °C 30.33in /  1027hPa Calm   2.0mph /  3.2km/h 91% 0.00in /  0mm 70.00 W/m2
12:22 32.7 °F /  0.4 °C 30.4 °F /  -0.9 °C 30.33in /  1027hPa North 1.0mph /  1.6km/h 2.0mph /  3.2km/h 91% 0.00in /  0mm 69.00 W/m2
12:27 32.9 °F /  0.5 °C 30.6 °F /  -0.8 °C 30.33in /  1027hPa NNE 2.0mph /  3.2km/h 7.0mph /  11.3km/h 91% 0.00in /  0mm 69.00 W/m2
12:28 32.9 °F /  0.5 °C 30.6 °F /  -0.8 °C 30.33in /  1027hPa NNE 2.0mph /  3.2km/h 7.0mph /  11.3km/h 91% 0.00in /  0mm 69.00 W/m2
12:32 33.0 °F /  0.6 °C 30.7 °F /  -0.7 °C 30.33in /  1027hPa NNE 1.0mph /  1.6km/h 6.0mph /  9.7km/h 91% 0.00in /  0mm 67.00 W/m2
12:33 33.0 °F /  0.6 °C 30.7 °F /  -0.7 °C 30.33in /  1027hPa Calm   3.0mph /  4.8km/h 91% 0.00in /  0mm 62.00 W/m2
12:35 33.1 °F /  0.6 °C 30.8 °F /  -0.7 °C 30.33in /  1027hPa NNE 3.0mph /  4.8km/h 4.0mph /  6.4km/h 91% 0.00in /  0mm 62.00 W/m2
12:38 33.2 °F /  0.7 °C 30.9 °F /  -0.6 °C 30.32in /  1026.6hPa NNE 3.0mph /  4.8km/h 7.0mph /  11.3km/h 91% 0.00in /  0mm 62.00 W/m2
12:39 33.2 °F /  0.7 °C 30.9 °F /  -0.6 °C 30.33in /  1027hPa NNE 2.0mph /  3.2km/h 7.0mph /  11.3km/h 91% 0.00in /  0mm 67.00 W/m2
12:40 33.3 °F /  0.7 °C 31.0 °F /  -0.6 °C 30.33in /  1027hPa NNE 3.0mph /  4.8km/h 7.0mph /  11.3km/h 91% 0.00in /  0mm 69.00 W/m2
12:41 33.3 °F /  0.7 °C 31.0 °F /  -0.6 °C 30.33in /  1027hPa NNE 3.0mph /  4.8km/h 4.0mph /  6.4km/h 91% 0.00in /  0mm 69.00 W/m2
12:43 33.4 °F /  0.8 °C 31.1 °F /  -0.5 °C 30.33in /  1027hPa NNE 3.0mph /  4.8km/h 9.0mph /  14.5km/h 91% 0.00in /  0mm 69.00 W/m2
12:44 33.4 °F /  0.8 °C 31.1 °F /  -0.5 °C 30.33in /  1027hPa NNE 4.0mph /  6.4km/h 11.0mph /  17.7km/h 91% 0.00in /  0mm 65.00 W/m2
12:46 33.4 °F /  0.8 °C 31.1 °F /  -0.5 °C 30.33in /  1027hPa NE 6.0mph /  9.7km/h 10.0mph /  16.1km/h 91% 0.00in /  0mm 65.00 W/m2
12:49 33.5 °F /  0.8 °C 31.2 °F /  -0.4 °C 30.33in /  1027hPa NE 6.0mph /  9.7km/h 14.0mph /  22.5km/h 91% 0.00in /  0mm 74.00 W/m2
12:51 33.6 °F /  0.9 °C 31.3 °F /  -0.4 °C 30.33in /  1027hPa NE 9.0mph /  14.5km/h 9.0mph /  14.5km/h 91% 0.00in /  0mm 77.00 W/m2
12:54 33.6 °F /  0.9 °C 31.0 °F /  -0.6 °C 30.33in /  1027hPa North 2.0mph /  3.2km/h 9.0mph /  14.5km/h 90% 0.00in /  0mm 76.00 W/m2
12:55 33.6 °F /  0.9 °C 31.0 °F /  -0.6 °C 30.33in /  1027hPa NNE 3.0mph /  4.8km/h 9.0mph /  14.5km/h 90% 0.00in /  0mm 76.00 W/m2
12:56 33.7 °F /  0.9 °C 31.1 °F /  -0.5 °C 30.33in /  1027hPa NE 8.0mph /  12.9km/h 12.0mph /  19.3km/h 90% 0.00in /  0mm 72.00 W/m2
12:59 33.7 °F /  0.9 °C 31.1 °F /  -0.5 °C 30.33in /  1027hPa ENE 2.0mph /  3.2km/h 11.0mph /  17.7km/h 90% 0.00in /  0mm 76.00 W/m2
13:00 33.8 °F /  1 °C 30.9 °F /  -0.6 °C 30.33in /  1027hPa NE 11.0mph /  17.7km/h 11.0mph /  17.7km/h 89% 0.00in /  0mm 67.00 W/m2
13:01 33.8 °F /  1 °C 30.9 °F /  -0.6 °C 30.33in /  1027hPa NE 5.0mph /  8km/h 11.0mph /  17.7km/h 89% 0.00in /  0mm 67.00 W/m2
13:02 33.8 °F /  1 °C 30.9 °F /  -0.6 °C 30.33in /  1027hPa Calm   11.0mph /  17.7km/h 89% 0.00in /  0mm 72.00 W/m2
13:05 33.9 °F /  1.1 °C 31.0 °F /  -0.6 °C 30.33in /  1027hPa NE 7.0mph /  11.3km/h 10.0mph /  16.1km/h 89% 0.00in /  0mm 63.00 W/m2
13:06 33.9 °F /  1.1 °C 31.0 °F /  -0.6 °C 30.33in /  1027hPa NNE 5.0mph /  8km/h 9.0mph /  14.5km/h 89% 0.00in /  0mm 56.00 W/m2
13:07 33.9 °F /  1.1 °C 30.7 °F /  -0.7 °C 30.33in /  1027hPa North 1.0mph /  1.6km/h 9.0mph /  14.5km/h 88% 0.00in /  0mm 53.00 W/m2
13:10 34.0 °F /  1.1 °C 30.8 °F /  -0.7 °C 30.33in /  1027hPa NNE 6.0mph /  9.7km/h 15.0mph /  24.1km/h 88% 0.00in /  0mm 40.00 W/m2
13:11 34.0 °F /  1.1 °C 32.5 °F /  0.3 °C 30.33in /  1027hPa NE 7.0mph /  11.3km/h 17.0mph /  27.4km/h 94% 0.00in /  0mm 40.00 W/m2
13:12 34.0 °F /  1.1 °C 32.5 °F /  0.3 °C 30.33in /  1027hPa NNE 4.0mph /  6.4km/h 12.0mph /  19.3km/h 94% 0.00in /  0mm 40.00 W/m2
13:15 34.0 °F /  1.1 °C 30.5 °F /  -0.8 °C 30.33in /  1027hPa ENE 9.0mph /  14.5km/h 9.0mph /  14.5km/h 87% 0.00in /  0mm 51.00 W/m2
13:16 34.0 °F /  1.1 °C 30.5 °F /  -0.8 °C 30.33in /  1027hPa NE 2.0mph /  3.2km/h 10.0mph /  16.1km/h 87% 0.00in /  0mm 58.00 W/m2
13:17 33.9 °F /  1.1 °C 30.5 °F /  -0.8 °C 30.33in /  1027hPa NE 5.0mph /  8km/h 6.0mph /  9.7km/h 87% 0.00in /  0mm 67.00 W/m2
13:18 33.9 °F /  1.1 °C 30.5 °F /  -0.8 °C 30.33in /  1027hPa NE 4.0mph /  6.4km/h 6.0mph /  9.7km/h 87% 0.00in /  0mm 67.00 W/m2
13:20 33.9 °F /  1.1 °C 30.5 °F /  -0.8 °C 30.32in /  1026.6hPa NE 9.0mph /  14.5km/h 14.0mph /  22.5km/h 87% 0.00in /  0mm 70.00 W/m2
13:22 33.9 °F /  1.1 °C 30.5 °F /  -0.8 °C 30.33in /  1027hPa ENE 5.0mph /  8km/h 12.0mph /  19.3km/h 87% 0.00in /  0mm 72.00 W/m2
13:24 33.9 °F /  1.1 °C 30.2 °F /  -1 °C 30.33in /  1027hPa ENE 7.0mph /  11.3km/h 14.0mph /  22.5km/h 86% 0.00in /  0mm 79.00 W/m2
13:25 33.9 °F /  1.1 °C 30.2 °F /  -1 °C 30.33in /  1027hPa NE 13.0mph /  20.9km/h 13.0mph /  20.9km/h 86% 0.00in /  0mm 81.00 W/m2
13:27 33.9 °F /  1.1 °C 30.2 °F /  -1 °C 30.33in /  1027hPa NNE 5.0mph /  8km/h 13.0mph /  20.9km/h 86% 0.00in /  0mm 81.00 W/m2
13:29 34.0 °F /  1.1 °C 30.0 °F /  -1.1 °C 30.33in /  1027hPa North 7.0mph /  11.3km/h 7.0mph /  11.3km/h 85% 0.00in /  0mm 69.00 W/m2
13:30 34.0 °F /  1.1 °C 30.3 °F /  -0.9 °C 30.33in /  1027hPa NNE 3.0mph /  4.8km/h 10.0mph /  16.1km/h 86% 0.00in /  0mm 69.00 W/m2
13:31 34.0 °F /  1.1 °C 30.0 °F /  -1.1 °C 30.33in /  1027hPa ENE 4.0mph /  6.4km/h 13.0mph /  20.9km/h 85% 0.00in /  0mm 70.00 W/m2
13:33 34.0 °F /  1.1 °C 30.0 °F /  -1.1 °C 30.33in /  1027hPa NNE 10.0mph /  16.1km/h 10.0mph /  16.1km/h 85% 0.00in /  0mm 69.00 W/m2
13:34 34.0 °F /  1.1 °C 30.0 °F /  -1.1 °C 30.33in /  1027hPa NNE 6.0mph /  9.7km/h 13.0mph /  20.9km/h 85% 0.00in /  0mm 65.00 W/m2
13:35 34.0 °F /  1.1 °C 30.0 °F /  -1.1 °C 30.34in /  1027.3hPa NNE 9.0mph /  14.5km/h 13.0mph /  20.9km/h 85% 0.00in /  0mm 62.00 W/m2
13:37 34.0 °F /  1.1 °C 30.0 °F /  -1.1 °C 30.34in /  1027.3hPa NNE 5.0mph /  8km/h 12.0mph /  19.3km/h 85% 0.00in /  0mm 58.00 W/m2
13:38 34.1 °F /  1.2 °C 30.1 °F /  -1.1 °C 30.34in /  1027.3hPa NNE 6.0mph /  9.7km/h 9.0mph /  14.5km/h 85% 0.00in /  0mm 54.00 W/m2
13:40 34.0 °F /  1.1 °C 30.0 °F /  -1.1 °C 30.34in /  1027.3hPa NE 3.0mph /  4.8km/h 13.0mph /  20.9km/h 85% 0.00in /  0mm 53.00 W/m2
13:41 34.0 °F /  1.1 °C 30.0 °F /  -1.1 °C 30.34in /  1027.3hPa NNE 4.0mph /  6.4km/h 13.0mph /  20.9km/h 85% 0.00in /  0mm 51.00 W/m2
13:42 34.0 °F /  1.1 °C 30.0 °F /  -1.1 °C 30.34in /  1027.3hPa NE 5.0mph /  8km/h 10.0mph /  16.1km/h 85% 0.00in /  0mm 51.00 W/m2
13:43 34.0 °F /  1.1 °C 30.0 °F /  -1.1 °C 30.33in /  1027hPa NNE 4.0mph /  6.4km/h 11.0mph /  17.7km/h 85% 0.00in /  0mm 56.00 W/m2
13:45 34.0 °F /  1.1 °C 29.7 °F /  -1.3 °C 30.34in /  1027.3hPa NE 5.0mph /  8km/h 8.0mph /  12.9km/h 84% 0.00in /  0mm 58.00 W/m2
13:46 34.0 °F /  1.1 °C 31.4 °F /  -0.3 °C 30.34in /  1027.3hPa NNE 9.0mph /  14.5km/h 10.0mph /  16.1km/h 90% 0.00in /  0mm 67.00 W/m2
13:47 34.0 °F /  1.1 °C 31.4 °F /  -0.3 °C 30.34in /  1027.3hPa NE 3.0mph /  4.8km/h 12.0mph /  19.3km/h 90% 0.00in /  0mm 67.00 W/m2
13:48 34.0 °F /  1.1 °C 31.4 °F /  -0.3 °C 30.34in /  1027.3hPa North 15.0mph /  24.1km/h 15.0mph /  24.1km/h 90% 0.00in /  0mm 69.00 W/m2
13:49 33.9 °F /  1.1 °C 29.6 °F /  -1.3 °C 30.34in /  1027.3hPa NNE 9.0mph /  14.5km/h 16.0mph /  25.7km/h 84% 0.00in /  0mm 72.00 W/m2
13:50 33.9 °F /  1.1 °C 29.6 °F /  -1.3 °C 30.34in /  1027.3hPa NNE 10.0mph /  16.1km/h 14.0mph /  22.5km/h 84% 0.00in /  0mm 77.00 W/m2
13:52 33.9 °F /  1.1 °C 29.6 °F /  -1.3 °C 30.34in /  1027.3hPa NNE 11.0mph /  17.7km/h 14.0mph /  22.5km/h 84% 0.00in /  0mm 77.00 W/m2
13:53 33.9 °F /  1.1 °C 29.6 °F /  -1.3 °C 30.34in /  1027.3hPa NNE 8.0mph /  12.9km/h 14.0mph /  22.5km/h 84% 0.00in /  0mm 72.00 W/m2
13:54 33.9 °F /  1.1 °C 29.6 °F /  -1.3 °C 30.34in /  1027.3hPa NE 5.0mph /  8km/h 15.0mph /  24.1km/h 84% 0.00in /  0mm 67.00 W/m2
13:56 33.9 °F /  1.1 °C 29.6 °F /  -1.3 °C 30.34in /  1027.3hPa NE 10.0mph /  16.1km/h 15.0mph /  24.1km/h 84% 0.00in /  0mm 60.00 W/m2
13:58 33.8 °F /  1 °C 29.2 °F /  -1.6 °C 30.34in /  1027.3hPa NE 6.0mph /  9.7km/h 8.0mph /  12.9km/h 83% 0.00in /  0mm 58.00 W/m2
13:59 33.8 °F /  1 °C 29.2 °F /  -1.6 °C 30.34in /  1027.3hPa NE 3.0mph /  4.8km/h 6.0mph /  9.7km/h 83% 0.00in /  0mm 58.00 W/m2
14:01 33.8 °F /  1 °C 29.2 °F /  -1.6 °C 30.35in /  1027.7hPa NNE 1.0mph /  1.6km/h 11.0mph /  17.7km/h 83% 0.00in /  0mm 63.00 W/m2
14:03 33.8 °F /  1 °C 29.2 °F /  -1.6 °C 30.34in /  1027.3hPa NE 10.0mph /  16.1km/h 10.0mph /  16.1km/h 83% 0.00in /  0mm 56.00 W/m2
14:04 33.8 °F /  1 °C 29.2 °F /  -1.6 °C 30.35in /  1027.7hPa NE 3.0mph /  4.8km/h 11.0mph /  17.7km/h 83% 0.00in /  0mm 53.00 W/m2
14:06 33.8 °F /  1 °C 29.2 °F /  -1.6 °C 30.35in /  1027.7hPa NE 2.0mph /  3.2km/h 10.0mph /  16.1km/h 83% 0.00in /  0mm 58.00 W/m2
14:08 33.9 °F /  1.1 °C 29.3 °F /  -1.5 °C 30.35in /  1027.7hPa NNE 5.0mph /  8km/h 13.0mph /  20.9km/h 83% 0.00in /  0mm 76.00 W/m2
14:09 33.9 °F /  1.1 °C 29.3 °F /  -1.5 °C 30.35in /  1027.7hPa North 6.0mph /  9.7km/h 10.0mph /  16.1km/h 83% 0.00in /  0mm 77.00 W/m2
14:10 33.8 °F /  1 °C 29.2 °F /  -1.6 °C 30.35in /  1027.7hPa NNE 3.0mph /  4.8km/h 12.0mph /  19.3km/h 83% 0.00in /  0mm 77.00 W/m2
14:11 33.8 °F /  1 °C 29.2 °F /  -1.6 °C 30.35in /  1027.7hPa North 16.0mph /  25.7km/h 16.0mph /  25.7km/h 83% 0.00in /  0mm 77.00 W/m2
14:13 33.8 °F /  1 °C 28.9 °F /  -1.7 °C 30.35in /  1027.7hPa NE 5.0mph /  8km/h 13.0mph /  20.9km/h 82% 0.00in /  0mm 67.00 W/m2
14:15 33.8 °F /  1 °C 28.9 °F /  -1.7 °C 30.35in /  1027.7hPa NNE 9.0mph /  14.5km/h 9.0mph /  14.5km/h 82% 0.00in /  0mm 63.00 W/m2
14:16 33.8 °F /  1 °C 28.9 °F /  -1.7 °C 30.35in /  1027.7hPa North 9.0mph /  14.5km/h 13.0mph /  20.9km/h 82% 0.00in /  0mm 65.00 W/m2
14:19 33.8 °F /  1 °C 28.9 °F /  -1.7 °C 30.36in /  1028hPa ENE 9.0mph /  14.5km/h 9.0mph /  14.5km/h 82% 0.00in /  0mm 70.00 W/m2
14:20 33.8 °F /  1 °C 28.9 °F /  -1.7 °C 30.35in /  1027.7hPa NNE 7.0mph /  11.3km/h 10.0mph /  16.1km/h 82% 0.00in /  0mm 72.00 W/m2
14:21 33.8 °F /  1 °C 28.9 °F /  -1.7 °C 30.35in /  1027.7hPa NE 4.0mph /  6.4km/h 10.0mph /  16.1km/h 82% 0.00in /  0mm 74.00 W/m2
14:24 33.7 °F /  0.9 °C 28.8 °F /  -1.8 °C 30.35in /  1027.7hPa North 5.0mph /  8km/h 12.0mph /  19.3km/h 82% 0.00in /  0mm 65.00 W/m2
14:25 33.7 °F /  0.9 °C 28.8 °F /  -1.8 °C 30.35in /  1027.7hPa NNE 11.0mph /  17.7km/h 12.0mph /  19.3km/h 82% 0.00in /  0mm 65.00 W/m2
14:26 33.7 °F /  0.9 °C 28.8 °F /  -1.8 °C 30.35in /  1027.7hPa NNW 12.0mph /  19.3km/h 14.0mph /  22.5km/h 82% 0.00in /  0mm 67.00 W/m2
14:28 33.8 °F /  1 °C 28.9 °F /  -1.7 °C 30.35in /  1027.7hPa North 9.0mph /  14.5km/h 15.0mph /  24.1km/h 82% 0.00in /  0mm 72.00 W/m2
14:30 33.8 °F /  1 °C 28.9 °F /  -1.7 °C 30.35in /  1027.7hPa NE 6.0mph /  9.7km/h 12.0mph /  19.3km/h 82% 0.00in /  0mm 76.00 W/m2
14:31 33.7 °F /  0.9 °C 28.5 °F /  -1.9 °C 30.36in /  1028hPa NE 3.0mph /  4.8km/h 15.0mph /  24.1km/h 81% 0.00in /  0mm 76.00 W/m2
14:32 33.7 °F /  0.9 °C 28.5 °F /  -1.9 °C 30.36in /  1028hPa NE 4.0mph /  6.4km/h 15.0mph /  24.1km/h 81% 0.00in /  0mm 76.00 W/m2
14:36 33.7 °F /  0.9 °C 28.5 °F /  -1.9 °C 30.35in /  1027.7hPa North 7.0mph /  11.3km/h 16.0mph /  25.7km/h 81% 0.00in /  0mm 62.00 W/m2
14:37 33.7 °F /  0.9 °C 28.5 °F /  -1.9 °C 30.35in /  1027.7hPa NNW 12.0mph /  19.3km/h 16.0mph /  25.7km/h 81% 0.00in /  0mm 58.00 W/m2
14:41 33.7 °F /  0.9 °C 28.5 °F /  -1.9 °C 30.35in /  1027.7hPa NE 7.0mph /  11.3km/h 11.0mph /  17.7km/h 81% 0.00in /  0mm 62.00 W/m2
14:42 33.7 °F /  0.9 °C 28.5 °F /  -1.9 °C 30.35in /  1027.7hPa North 6.0mph /  9.7km/h 13.0mph /  20.9km/h 81% 0.00in /  0mm 62.00 W/m2
14:43 33.6 °F /  0.9 °C 28.4 °F /  -2 °C 30.35in /  1027.7hPa NNE 10.0mph /  16.1km/h 13.0mph /  20.9km/h 81% 0.00in /  0mm 62.00 W/m2
14:47 33.5 °F /  0.8 °C 28.3 °F /  -2.1 °C 30.35in /  1027.7hPa NNE 9.0mph /  14.5km/h 12.0mph /  19.3km/h 81% 0.00in /  0mm 76.00 W/m2
14:48 33.5 °F /  0.8 °C 28.3 °F /  -2.1 °C 30.35in /  1027.7hPa North 12.0mph /  19.3km/h 12.0mph /  19.3km/h 81% 0.00in /  0mm 76.00 W/m2
14:52 33.4 °F /  0.8 °C 28.2 °F /  -2.1 °C 30.36in /  1028hPa NE 4.0mph /  6.4km/h 12.0mph /  19.3km/h 81% 0.00in /  0mm 90.00 W/m2
14:53 33.4 °F /  0.8 °C 28.2 °F /  -2.1 °C 30.36in /  1028hPa NNE 4.0mph /  6.4km/h 12.0mph /  19.3km/h 81% 0.00in /  0mm 90.00 W/m2
14:54 33.4 °F /  0.8 °C 28.2 °F /  -2.1 °C 30.36in /  1028hPa NNE 7.0mph /  11.3km/h 13.0mph /  20.9km/h 81% 0.00in /  0mm 88.00 W/m2
14:58 33.5 °F /  0.8 °C 28.3 °F /  -2.1 °C 30.36in /  1028hPa North 8.0mph /  12.9km/h 10.0mph /  16.1km/h 81% 0.00in /  0mm 74.00 W/m2
14:59 33.5 °F /  0.8 °C 28.3 °F /  -2.1 °C 30.36in /  1028hPa North 4.0mph /  6.4km/h 11.0mph /  17.7km/h 81% 0.00in /  0mm 74.00 W/m2
15:03 33.5 °F /  0.8 °C 28.3 °F /  -2.1 °C 30.36in /  1028hPa NNE 13.0mph /  20.9km/h 13.0mph /  20.9km/h 81% 0.00in /  0mm 56.00 W/m2
15:04 33.5 °F /  0.8 °C 28.3 °F /  -2.1 °C 30.36in /  1028hPa NNE 11.0mph /  17.7km/h 15.0mph /  24.1km/h 81% 0.00in /  0mm 54.00 W/m2
15:05 33.4 °F /  0.8 °C 28.2 °F /  -2.1 °C 30.35in /  1027.7hPa NE 4.0mph /  6.4km/h 13.0mph /  20.9km/h 81% 0.00in /  0mm 47.00 W/m2
15:08 33.4 °F /  0.8 °C 28.2 °F /  -2.1 °C 30.36in /  1028hPa NNE 10.0mph /  16.1km/h 14.0mph /  22.5km/h 81% 0.00in /  0mm 46.00 W/m2
15:09 33.3 °F /  0.7 °C 28.1 °F /  -2.2 °C 30.35in /  1027.7hPa North 7.0mph /  11.3km/h 13.0mph /  20.9km/h 81% 0.00in /  0mm 47.00 W/m2
15:10 33.3 °F /  0.7 °C 28.1 °F /  -2.2 °C 30.35in /  1027.7hPa North 3.0mph /  4.8km/h 13.0mph /  20.9km/h 81% 0.00in /  0mm 49.00 W/m2
15:13 33.3 °F /  0.7 °C 27.8 °F /  -2.3 °C 30.35in /  1027.7hPa NNE 12.0mph /  19.3km/h 15.0mph /  24.1km/h 80% 0.00in /  0mm 49.00 W/m2
15:14 33.3 °F /  0.7 °C 28.1 °F /  -2.2 °C 30.35in /  1027.7hPa North 3.0mph /  4.8km/h 15.0mph /  24.1km/h 81% 0.00in /  0mm 46.00 W/m2
15:15 33.2 °F /  0.7 °C 28.0 °F /  -2.2 °C 30.35in /  1027.7hPa NNE 7.0mph /  11.3km/h 12.0mph /  19.3km/h 81% 0.00in /  0mm 46.00 W/m2
15:16 33.2 °F /  0.7 °C 27.7 °F /  -2.4 °C 30.36in /  1028hPa NE 2.0mph /  3.2km/h 7.0mph /  11.3km/h 80% 0.00in /  0mm 49.00 W/m2
15:18 33.2 °F /  0.7 °C 27.7 °F /  -2.4 °C 30.36in /  1028hPa NNE 10.0mph /  16.1km/h 10.0mph /  16.1km/h 80% 0.00in /  0mm 53.00 W/m2
15:20 33.2 °F /  0.7 °C 27.7 °F /  -2.4 °C 30.36in /  1028hPa NNE 5.0mph /  8km/h 13.0mph /  20.9km/h 80% 0.00in /  0mm 51.00 W/m2
15:21 33.2 °F /  0.7 °C 27.7 °F /  -2.4 °C 30.36in /  1028hPa North 9.0mph /  14.5km/h 16.0mph /  25.7km/h 80% 0.00in /  0mm 49.00 W/m2
15:22 33.2 °F /  0.7 °C 27.7 °F /  -2.4 °C 30.36in /  1028hPa NNE 5.0mph /  8km/h 16.0mph /  25.7km/h 80% 0.00in /  0mm 47.00 W/m2
15:23 33.2 °F /  0.7 °C 27.7 °F /  -2.4 °C 30.36in /  1028hPa NE 2.0mph /  3.2km/h 15.0mph /  24.1km/h 80% 0.00in /  0mm 44.00 W/m2
15:25 33.2 °F /  0.7 °C 27.7 °F /  -2.4 °C 30.36in /  1028hPa NNE 1.0mph /  1.6km/h 10.0mph /  16.1km/h 80% 0.00in /  0mm 42.00 W/m2
15:26 33.3 °F /  0.7 °C 27.8 °F /  -2.3 °C 30.36in /  1028hPa NNE 5.0mph /  8km/h 11.0mph /  17.7km/h 80% 0.00in /  0mm 42.00 W/m2
15:28 33.2 °F /  0.7 °C 27.7 °F /  -2.4 °C 30.36in /  1028hPa NE 5.0mph /  8km/h 7.0mph /  11.3km/h 80% 0.00in /  0mm 42.00 W/m2
15:31 33.2 °F /  0.7 °C 28.0 °F /  -2.2 °C 30.36in /  1028hPa NNE 3.0mph /  4.8km/h 10.0mph /  16.1km/h 81% 0.00in /  0mm 49.00 W/m2
15:33 33.2 °F /  0.7 °C 28.0 °F /  -2.2 °C 30.36in /  1028hPa North 12.0mph /  19.3km/h 12.0mph /  19.3km/h 81% 0.00in /  0mm 51.00 W/m2
15:35 33.2 °F /  0.7 °C 28.0 °F /  -2.2 °C 30.37in /  1028.3hPa NNE 4.0mph /  6.4km/h 12.0mph /  19.3km/h 81% 0.00in /  0mm 49.00 W/m2
15:36 33.3 °F /  0.7 °C 28.1 °F /  -2.2 °C 30.37in /  1028.3hPa NE 4.0mph /  6.4km/h 9.0mph /  14.5km/h 81% 0.00in /  0mm 44.00 W/m2
15:38 33.3 °F /  0.7 °C 28.1 °F /  -2.2 °C 30.37in /  1028.3hPa NNE 4.0mph /  6.4km/h 6.0mph /  9.7km/h 81% 0.00in /  0mm 37.00 W/m2
15:39 33.3 °F /  0.7 °C 28.1 °F /  -2.2 °C 30.37in /  1028.3hPa NNE 1.0mph /  1.6km/h 6.0mph /  9.7km/h 81% 0.00in /  0mm 30.00 W/m2
15:41 33.3 °F /  0.7 °C 28.1 °F /  -2.2 °C 30.37in /  1028.3hPa NNE 4.0mph /  6.4km/h 4.0mph /  6.4km/h 81% 0.00in /  0mm 26.00 W/m2
15:43 33.3 °F /  0.7 °C 28.1 °F /  -2.2 °C 30.37in /  1028.3hPa NNE 4.0mph /  6.4km/h 11.0mph /  17.7km/h 81% 0.00in /  0mm 25.00 W/m2
15:44 33.3 °F /  0.7 °C 28.1 °F /  -2.2 °C 30.37in /  1028.3hPa NNE 4.0mph /  6.4km/h 11.0mph /  17.7km/h 81% 0.00in /  0mm 25.00 W/m2
15:45 33.3 °F /  0.7 °C 28.1 °F /  -2.2 °C 30.37in /  1028.3hPa NE 4.0mph /  6.4km/h 9.0mph /  14.5km/h 81% 0.00in /  0mm 25.00 W/m2
15:46 33.2 °F /  0.7 °C 28.0 °F /  -2.2 °C 30.37in /  1028.3hPa NNE 1.0mph /  1.6km/h 10.0mph /  16.1km/h 81% 0.00in /  0mm 26.00 W/m2
15:48 33.2 °F /  0.7 °C 28.0 °F /  -2.2 °C 30.37in /  1028.3hPa NE 4.0mph /  6.4km/h 9.0mph /  14.5km/h 81% 0.00in /  0mm 26.00 W/m2
15:49 33.2 °F /  0.7 °C 28.0 °F /  -2.2 °C 30.37in /  1028.3hPa NE 3.0mph /  4.8km/h 6.0mph /  9.7km/h 81% 0.00in /  0mm 26.00 W/m2
15:50 33.2 °F /  0.7 °C 28.0 °F /  -2.2 °C 30.37in /  1028.3hPa NE 6.0mph /  9.7km/h 11.0mph /  17.7km/h 81% 0.00in /  0mm 26.00 W/m2
15:52 33.1 °F /  0.6 °C 27.9 °F /  -2.3 °C 30.37in /  1028.3hPa North 4.0mph /  6.4km/h 11.0mph /  17.7km/h 81% 0.00in /  0mm 28.00 W/m2
15:53 33.1 °F /  0.6 °C 27.9 °F /  -2.3 °C 30.37in /  1028.3hPa North 3.0mph /  4.8km/h 11.0mph /  17.7km/h 81% 0.00in /  0mm 30.00 W/m2
15:55 33.0 °F /  0.6 °C 27.8 °F /  -2.3 °C 30.37in /  1028.3hPa NE 9.0mph /  14.5km/h 12.0mph /  19.3km/h 81% 0.00in /  0mm 32.00 W/m2
15:56 33.0 °F /  0.6 °C 27.8 °F /  -2.3 °C 30.37in /  1028.3hPa NE 3.0mph /  4.8km/h 9.0mph /  14.5km/h 81% 0.00in /  0mm 32.00 W/m2
15:58 33.0 °F /  0.6 °C 27.8 °F /  -2.3 °C 30.37in /  1028.3hPa NNE 4.0mph /  6.4km/h 11.0mph /  17.7km/h 81% 0.00in /  0mm 32.00 W/m2
16:00 32.9 °F /  0.5 °C 27.7 °F /  -2.4 °C 30.37in /  1028.3hPa NE 5.0mph /  8km/h 11.0mph /  17.7km/h 81% 0.00in /  0mm 30.00 W/m2
16:01 32.9 °F /  0.5 °C 27.7 °F /  -2.4 °C 30.37in /  1028.3hPa Calm   11.0mph /  17.7km/h 81% 0.00in /  0mm 32.00 W/m2
16:02 32.9 °F /  0.5 °C 27.7 °F /  -2.4 °C 30.37in /  1028.3hPa NNE 1.0mph /  1.6km/h 8.0mph /  12.9km/h 81% 0.00in /  0mm 32.00 W/m2
16:03 32.9 °F /  0.5 °C 27.7 °F /  -2.4 °C 30.37in /  1028.3hPa NE 1.0mph /  1.6km/h 5.0mph /  8km/h 81% 0.00in /  0mm 32.00 W/m2
16:05 32.8 °F /  0.4 °C 27.6 °F /  -2.4 °C 30.37in /  1028.3hPa ENE 2.0mph /  3.2km/h 11.0mph /  17.7km/h 81% 0.00in /  0mm 35.00 W/m2
16:07 32.8 °F /  0.4 °C 27.6 °F /  -2.4 °C 30.37in /  1028.3hPa NE 6.0mph /  9.7km/h 10.0mph /  16.1km/h 81% 0.00in /  0mm 39.00 W/m2
16:08 32.8 °F /  0.4 °C 27.6 °F /  -2.4 °C 30.37in /  1028.3hPa NE 3.0mph /  4.8km/h 9.0mph /  14.5km/h 81% 0.00in /  0mm 39.00 W/m2
16:09 32.8 °F /  0.4 °C 27.6 °F /  -2.4 °C 30.37in /  1028.3hPa North 5.0mph /  8km/h 9.0mph /  14.5km/h 81% 0.00in /  0mm 39.00 W/m2
16:11 32.8 °F /  0.4 °C 27.6 °F /  -2.4 °C 30.37in /  1028.3hPa NNE 5.0mph /  8km/h 9.0mph /  14.5km/h 81% 0.00in /  0mm 37.00 W/m2
16:12 32.8 °F /  0.4 °C 27.6 °F /  -2.4 °C 30.37in /  1028.3hPa NE 11.0mph /  17.7km/h 14.0mph /  22.5km/h 81% 0.00in /  0mm 35.00 W/m2
16:13 32.8 °F /  0.4 °C 27.6 °F /  -2.4 °C 30.37in /  1028.3hPa NE 4.0mph /  6.4km/h 14.0mph /  22.5km/h 81% 0.00in /  0mm 33.00 W/m2
16:14 32.8 °F /  0.4 °C 27.6 °F /  -2.4 °C 30.37in /  1028.3hPa NNE 8.0mph /  12.9km/h 10.0mph /  16.1km/h 81% 0.00in /  0mm 33.00 W/m2
16:15 32.7 °F /  0.4 °C 27.5 °F /  -2.5 °C 30.37in /  1028.3hPa NNE 6.0mph /  9.7km/h 10.0mph /  16.1km/h 81% 0.00in /  0mm 33.00 W/m2
16:16 32.8 °F /  0.4 °C 27.6 °F /  -2.4 °C 30.37in /  1028.3hPa NNE 13.0mph /  20.9km/h 13.0mph /  20.9km/h 81% 0.00in /  0mm 33.00 W/m2
16:18 32.8 °F /  0.4 °C 27.9 °F /  -2.3 °C 30.37in /  1028.3hPa NE 2.0mph /  3.2km/h 9.0mph /  14.5km/h 82% 0.00in /  0mm 33.00 W/m2
16:19 32.8 °F /  0.4 °C 27.9 °F /  -2.3 °C 30.37in /  1028.3hPa NE 2.0mph /  3.2km/h 9.0mph /  14.5km/h 82% 0.00in /  0mm 32.00 W/m2
16:21 32.8 °F /  0.4 °C 27.9 °F /  -2.3 °C 30.37in /  1028.3hPa NNE 5.0mph /  8km/h 10.0mph /  16.1km/h 82% 0.00in /  0mm 30.00 W/m2
16:22 32.8 °F /  0.4 °C 27.9 °F /  -2.3 °C 30.37in /  1028.3hPa NNE 11.0mph /  17.7km/h 11.0mph /  17.7km/h 82% 0.00in /  0mm 28.00 W/m2
16:24 32.7 °F /  0.4 °C 27.8 °F /  -2.3 °C 30.37in /  1028.3hPa NE 5.0mph /  8km/h 12.0mph /  19.3km/h 82% 0.00in /  0mm 26.00 W/m2
16:25 32.7 °F /  0.4 °C 27.8 °F /  -2.3 °C 30.38in /  1028.7hPa NNE 8.0mph /  12.9km/h 12.0mph /  19.3km/h 82% 0.00in /  0mm 26.00 W/m2
16:26 32.7 °F /  0.4 °C 27.8 °F /  -2.3 °C 30.38in /  1028.7hPa NNE 6.0mph /  9.7km/h 11.0mph /  17.7km/h 82% 0.00in /  0mm 26.00 W/m2
16:27 32.7 °F /  0.4 °C 27.8 °F /  -2.3 °C 30.38in /  1028.7hPa NE 5.0mph /  8km/h 11.0mph /  17.7km/h 82% 0.00in /  0mm 26.00 W/m2
16:29 32.7 °F /  0.4 °C 27.8 °F /  -2.3 °C 30.38in /  1028.7hPa NNE 3.0mph /  4.8km/h 9.0mph /  14.5km/h 82% 0.00in /  0mm 25.00 W/m2
16:30 32.7 °F /  0.4 °C 27.8 °F /  -2.3 °C 30.38in /  1028.7hPa NNE 5.0mph /  8km/h 10.0mph /  16.1km/h 82% 0.00in /  0mm 25.00 W/m2
16:32 32.7 °F /  0.4 °C 27.8 °F /  -2.3 °C 30.38in /  1028.7hPa NNE 9.0mph /  14.5km/h 12.0mph /  19.3km/h 82% 0.00in /  0mm 23.00 W/m2
16:33 32.7 °F /  0.4 °C 27.8 °F /  -2.3 °C 30.38in /  1028.7hPa NNE 10.0mph /  16.1km/h 12.0mph /  19.3km/h 82% 0.00in /  0mm 23.00 W/m2
16:34 32.7 °F /  0.4 °C 27.8 °F /  -2.3 °C 30.38in /  1028.7hPa North 9.0mph /  14.5km/h 10.0mph /  16.1km/h 82% 0.00in /  0mm 23.00 W/m2
16:36 32.7 °F /  0.4 °C 27.8 °F /  -2.3 °C 30.38in /  1028.7hPa NNE 3.0mph /  4.8km/h 9.0mph /  14.5km/h 82% 0.00in /  0mm 28.00 W/m2
16:37 32.6 °F /  0.3 °C 27.7 °F /  -2.4 °C 30.37in /  1028.3hPa NNE 3.0mph /  4.8km/h 10.0mph /  16.1km/h 82% 0.00in /  0mm 35.00 W/m2
16:38 32.6 °F /  0.3 °C 27.7 °F /  -2.4 °C 30.37in /  1028.3hPa NNE 3.0mph /  4.8km/h 10.0mph /  16.1km/h 82% 0.00in /  0mm 35.00 W/m2
16:39 32.6 °F /  0.3 °C 27.7 °F /  -2.4 °C 30.37in /  1028.3hPa NE 4.0mph /  6.4km/h 14.0mph /  22.5km/h 82% 0.00in /  0mm 40.00 W/m2
16:43 32.5 °F /  0.3 °C 27.9 °F /  -2.3 °C 30.37in /  1028.3hPa NNE 3.0mph /  4.8km/h 7.0mph /  11.3km/h 83% 0.00in /  0mm 40.00 W/m2
16:44 32.5 °F /  0.3 °C 27.9 °F /  -2.3 °C 30.37in /  1028.3hPa North 6.0mph /  9.7km/h 7.0mph /  11.3km/h 83% 0.00in /  0mm 39.00 W/m2
16:48 32.5 °F /  0.3 °C 27.9 °F /  -2.3 °C 30.37in /  1028.3hPa NE 7.0mph /  11.3km/h 15.0mph /  24.1km/h 83% 0.00in /  0mm 44.00 W/m2
16:49 32.5 °F /  0.3 °C 27.9 °F /  -2.3 °C 30.37in /  1028.3hPa NE 9.0mph /  14.5km/h 13.0mph /  20.9km/h 83% 0.00in /  0mm 44.00 W/m2
16:50 32.4 °F /  0.2 °C 27.8 °F /  -2.3 °C 30.37in /  1028.3hPa North 4.0mph /  6.4km/h 14.0mph /  22.5km/h 83% 0.00in /  0mm 47.00 W/m2
16:54 32.4 °F /  0.2 °C 27.8 °F /  -2.3 °C 30.36in /  1028hPa NE 5.0mph /  8km/h 10.0mph /  16.1km/h 83% 0.00in /  0mm 51.00 W/m2
16:55 32.4 °F /  0.2 °C 27.8 °F /  -2.3 °C 30.36in /  1028hPa NNE 3.0mph /  4.8km/h 6.0mph /  9.7km/h 83% 0.00in /  0mm 47.00 W/m2
16:59 32.3 °F /  0.2 °C 27.7 °F /  -2.4 °C 30.36in /  1028hPa NE 2.0mph /  3.2km/h 11.0mph /  17.7km/h 83% 0.00in /  0mm 33.00 W/m2
17:00 32.3 °F /  0.2 °C 27.7 °F /  -2.4 °C 30.36in /  1028hPa North 4.0mph /  6.4km/h 14.0mph /  22.5km/h 83% 0.00in /  0mm 30.00 W/m2
17:01 32.3 °F /  0.2 °C 27.7 °F /  -2.4 °C 30.36in /  1028hPa NNE 8.0mph /  12.9km/h 14.0mph /  22.5km/h 83% 0.00in /  0mm 26.00 W/m2
17:04 32.2 °F /  0.1 °C 27.6 °F /  -2.4 °C 30.37in /  1028.3hPa NNE 4.0mph /  6.4km/h 10.0mph /  16.1km/h 83% 0.00in /  0mm 14.00 W/m2
17:05 32.2 °F /  0.1 °C 27.6 °F /  -2.4 °C 30.37in /  1028.3hPa North 4.0mph /  6.4km/h 10.0mph /  16.1km/h 83% 0.00in /  0mm 14.00 W/m2
17:06 32.2 °F /  0.1 °C 27.6 °F /  -2.4 °C 30.37in /  1028.3hPa NE 9.0mph /  14.5km/h 10.0mph /  16.1km/h 83% 0.00in /  0mm 12.00 W/m2
17:07 32.1 °F /  0.1 °C 27.5 °F /  -2.5 °C 30.36in /  1028hPa NNE 6.0mph /  9.7km/h 12.0mph /  19.3km/h 83% 0.00in /  0mm 11.00 W/m2
17:10 32.1 °F /  0.1 °C 27.5 °F /  -2.5 °C 30.36in /  1028hPa NE 4.0mph /  6.4km/h 13.0mph /  20.9km/h 83% 0.00in /  0mm 5.00 W/m2
17:11 32.1 °F /  0.1 °C 27.5 °F /  -2.5 °C 30.36in /  1028hPa NE 6.0mph /  9.7km/h 12.0mph /  19.3km/h 83% 0.00in /  0mm 5.00 W/m2
17:12 32.1 °F /  0.1 °C 27.5 °F /  -2.5 °C 30.36in /  1028hPa NNE 12.0mph /  19.3km/h 12.0mph /  19.3km/h 83% 0.00in /  0mm 0.00 W/m2
17:15 32.0 °F /  0 °C 27.4 °F /  -2.6 °C 30.36in /  1028hPa NE 3.0mph /  4.8km/h 7.0mph /  11.3km/h 83% 0.00in /  0mm 0.00 W/m2
17:16 31.9 °F /  -0.1 °C 27.3 °F /  -2.6 °C 30.36in /  1028hPa NE 7.0mph /  11.3km/h 7.0mph /  11.3km/h 83% 0.00in /  0mm 0.00 W/m2
17:18 31.9 °F /  -0.1 °C 27.3 °F /  -2.6 °C 30.36in /  1028hPa NNE 5.0mph /  8km/h 7.0mph /  11.3km/h 83% 0.00in /  0mm 0.00 W/m2
17:20 31.9 °F /  -0.1 °C 27.3 °F /  -2.6 °C 30.36in /  1028hPa NE 6.0mph /  9.7km/h 6.0mph /  9.7km/h 83% 0.00in /  0mm 0.00 W/m2
17:21 31.9 °F /  -0.1 °C 27.3 °F /  -2.6 °C 30.36in /  1028hPa NE 6.0mph /  9.7km/h 10.0mph /  16.1km/h 83% 0.00in /  0mm 0.00 W/m2
17:23 31.8 °F /  -0.1 °C 27.2 °F /  -2.7 °C 30.36in /  1028hPa ENE 7.0mph /  11.3km/h 11.0mph /  17.7km/h 83% 0.00in /  0mm 0.00 W/m2
17:25 31.8 °F /  -0.1 °C 27.2 °F /  -2.7 °C 30.36in /  1028hPa NNE 7.0mph /  11.3km/h 14.0mph /  22.5km/h 83% 0.00in /  0mm 0.00 W/m2
17:26 31.8 °F /  -0.1 °C 27.2 °F /  -2.7 °C 30.36in /  1028hPa NNE 11.0mph /  17.7km/h 14.0mph /  22.5km/h 83% 0.00in /  0mm 0.00 W/m2
17:27 31.8 °F /  -0.1 °C 27.2 °F /  -2.7 °C 30.36in /  1028hPa NNE 3.0mph /  4.8km/h 11.0mph /  17.7km/h 83% 0.00in /  0mm 0.00 W/m2
17:30 31.8 °F /  -0.1 °C 27.5 °F /  -2.5 °C 30.36in /  1028hPa NNE 3.0mph /  4.8km/h 17.0mph /  27.4km/h 84% 0.00in /  0mm 0.00 W/m2
17:31 31.8 °F /  -0.1 °C 27.5 °F /  -2.5 °C 30.36in /  1028hPa NNE 7.0mph /  11.3km/h 17.0mph /  27.4km/h 84% 0.00in /  0mm 0.00 W/m2
17:32 31.8 °F /  -0.1 °C 27.5 °F /  -2.5 °C 30.36in /  1028hPa NNE 4.0mph /  6.4km/h 16.0mph /  25.7km/h 84% 0.00in /  0mm 0.00 W/m2
17:36 31.8 °F /  -0.1 °C 29.2 °F /  -1.6 °C 30.37in /  1028.3hPa NE 2.0mph /  3.2km/h 12.0mph /  19.3km/h 90% 0.00in /  0mm 0.00 W/m2
17:37 31.8 °F /  -0.1 °C 29.2 °F /  -1.6 °C 30.37in /  1028.3hPa NE 5.0mph /  8km/h 6.0mph /  9.7km/h 90% 0.00in /  0mm 0.00 W/m2
17:38 31.8 °F /  -0.1 °C 27.5 °F /  -2.5 °C 30.37in /  1028.3hPa NE 10.0mph /  16.1km/h 12.0mph /  19.3km/h 84% 0.00in /  0mm 0.00 W/m2
17:41 31.8 °F /  -0.1 °C 27.5 °F /  -2.5 °C 30.37in /  1028.3hPa NNE 7.0mph /  11.3km/h 10.0mph /  16.1km/h 84% 0.00in /  0mm 0.00 W/m2
17:42 31.8 °F /  -0.1 °C 27.5 °F /  -2.5 °C 30.37in /  1028.3hPa NNE 5.0mph /  8km/h 10.0mph /  16.1km/h 84% 0.00in /  0mm 0.00 W/m2
17:43 31.8 °F /  -0.1 °C 27.5 °F /  -2.5 °C 30.37in /  1028.3hPa NNE 3.0mph /  4.8km/h 7.0mph /  11.3km/h 84% 0.00in /  0mm 0.00 W/m2
17:47 31.7 °F /  -0.2 °C 27.7 °F /  -2.4 °C 30.37in /  1028.3hPa North 5.0mph /  8km/h 12.0mph /  19.3km/h 85% 0.00in /  0mm 0.00 W/m2
17:48 31.7 °F /  -0.2 °C 27.7 °F /  -2.4 °C 30.37in /  1028.3hPa NNE 10.0mph /  16.1km/h 10.0mph /  16.1km/h 85% 0.00in /  0mm 0.00 W/m2
17:49 31.7 °F /  -0.2 °C 27.7 °F /  -2.4 °C 30.37in /  1028.3hPa NE 14.0mph /  22.5km/h 16.0mph /  25.7km/h 85% 0.00in /  0mm 0.00 W/m2
17:52 31.6 °F /  -0.2 °C 27.6 °F /  -2.4 °C 30.37in /  1028.3hPa NNE 14.0mph /  22.5km/h 14.0mph /  22.5km/h 85% 0.00in /  0mm 0.00 W/m2
17:53 31.6 °F /  -0.2 °C 27.6 °F /  -2.4 °C 30.37in /  1028.3hPa NNE 5.0mph /  8km/h 15.0mph /  24.1km/h 85% 0.00in /  0mm 0.00 W/m2
17:54 31.6 °F /  -0.2 °C 27.6 °F /  -2.4 °C 30.37in /  1028.3hPa NE 2.0mph /  3.2km/h 15.0mph /  24.1km/h 85% 0.00in /  0mm 0.00 W/m2
17:55 31.6 °F /  -0.2 °C 27.6 °F /  -2.4 °C 30.37in /  1028.3hPa NE 3.0mph /  4.8km/h 10.0mph /  16.1km/h 85% 0.00in /  0mm 0.00 W/m2
17:57 31.5 °F /  -0.3 °C 27.2 °F /  -2.7 °C 30.37in /  1028.3hPa ENE 10.0mph /  16.1km/h 10.0mph /  16.1km/h 84% 0.00in /  0mm 0.00 W/m2
17:59 31.5 °F /  -0.3 °C 27.5 °F /  -2.5 °C 30.37in /  1028.3hPa North 8.0mph /  12.9km/h 14.0mph /  22.5km/h 85% 0.00in /  0mm 0.00 W/m2
18:01 31.5 °F /  -0.3 °C 27.5 °F /  -2.5 °C 30.37in /  1028.3hPa NE 6.0mph /  9.7km/h 14.0mph /  22.5km/h 85% 0.00in /  0mm 0.00 W/m2
18:02 31.4 °F /  -0.3 °C 27.1 °F /  -2.7 °C 30.37in /  1028.3hPa NNE 6.0mph /  9.7km/h 15.0mph /  24.1km/h 84% 0.00in /  0mm 0.00 W/m2
18:04 31.4 °F /  -0.3 °C 27.4 °F /  -2.6 °C 30.37in /  1028.3hPa NE 4.0mph /  6.4km/h 12.0mph /  19.3km/h 85% 0.00in /  0mm 0.00 W/m2
18:06 31.4 °F /  -0.3 °C 27.4 °F /  -2.6 °C 30.37in /  1028.3hPa NE 5.0mph /  8km/h 11.0mph /  17.7km/h 85% 0.00in /  0mm 0.00 W/m2
18:07 31.4 °F /  -0.3 °C 27.4 °F /  -2.6 °C 30.37in /  1028.3hPa North 7.0mph /  11.3km/h 10.0mph /  16.1km/h 85% 0.00in /  0mm 0.00 W/m2
18:09 31.4 °F /  -0.3 °C 27.1 °F /  -2.7 °C 30.38in /  1028.7hPa North 12.0mph /  19.3km/h 12.0mph /  19.3km/h 84% 0.00in /  0mm 0.00 W/m2
18:11 31.4 °F /  -0.3 °C 27.1 °F /  -2.7 °C 30.38in /  1028.7hPa NNE 9.0mph /  14.5km/h 12.0mph /  19.3km/h 84% 0.00in /  0mm 0.00 W/m2
18:12 31.3 °F /  -0.4 °C 27.0 °F /  -2.8 °C 30.38in /  1028.7hPa NNE 5.0mph /  8km/h 13.0mph /  20.9km/h 84% 0.00in /  0mm 0.00 W/m2
18:14 31.4 °F /  -0.3 °C 27.1 °F /  -2.7 °C 30.38in /  1028.7hPa NNE 6.0mph /  9.7km/h 12.0mph /  19.3km/h 84% 0.00in /  0mm 0.00 W/m2
18:15 31.3 °F /  -0.4 °C 27.0 °F /  -2.8 °C 30.38in /  1028.7hPa NE 4.0mph /  6.4km/h 12.0mph /  19.3km/h 84% 0.00in /  0mm 0.00 W/m2
18:16 31.3 °F /  -0.4 °C 27.0 °F /  -2.8 °C 30.38in /  1028.7hPa NNE 4.0mph /  6.4km/h 9.0mph /  14.5km/h 84% 0.00in /  0mm 0.00 W/m2
18:18 31.3 °F /  -0.4 °C 27.0 °F /  -2.8 °C 30.38in /  1028.7hPa NNE 4.0mph /  6.4km/h 8.0mph /  12.9km/h 84% 0.00in /  0mm 0.00 W/m2
18:20 31.3 °F /  -0.4 °C 27.0 °F /  -2.8 °C 30.38in /  1028.7hPa NNE 2.0mph /  3.2km/h 6.0mph /  9.7km/h 84% 0.00in /  0mm 0.00 W/m2
18:21 31.3 °F /  -0.4 °C 27.0 °F /  -2.8 °C 30.38in /  1028.7hPa NNE 4.0mph /  6.4km/h 11.0mph /  17.7km/h 84% 0.00in /  0mm 0.00 W/m2
18:23 31.3 °F /  -0.4 °C 27.0 °F /  -2.8 °C 30.38in /  1028.7hPa NNE 2.0mph /  3.2km/h 5.0mph /  8km/h 84% 0.00in /  0mm 0.00 W/m2
18:26 31.3 °F /  -0.4 °C 27.0 °F /  -2.8 °C 30.38in /  1028.7hPa NNE 2.0mph /  3.2km/h 10.0mph /  16.1km/h 84% 0.00in /  0mm 0.00 W/m2
18:28 31.3 °F /  -0.4 °C 27.0 °F /  -2.8 °C 30.38in /  1028.7hPa NNE 4.0mph /  6.4km/h 7.0mph /  11.3km/h 84% 0.00in /  0mm 0.00 W/m2
18:30 31.3 °F /  -0.4 °C 27.0 °F /  -2.8 °C 30.38in /  1028.7hPa NNE 4.0mph /  6.4km/h 10.0mph /  16.1km/h 84% 0.00in /  0mm 0.00 W/m2
18:32 31.3 °F /  -0.4 °C 27.0 °F /  -2.8 °C 30.38in /  1028.7hPa North 7.0mph /  11.3km/h 9.0mph /  14.5km/h 84% 0.00in /  0mm 0.00 W/m2
18:33 31.2 °F /  -0.4 °C 26.9 °F /  -2.8 °C 30.38in /  1028.7hPa NNE 7.0mph /  11.3km/h 9.0mph /  14.5km/h 84% 0.00in /  0mm 0.00 W/m2
18:35 31.2 °F /  -0.4 °C 26.9 °F /  -2.8 °C 30.38in /  1028.7hPa NNE 2.0mph /  3.2km/h 11.0mph /  17.7km/h 84% 0.00in /  0mm 0.00 W/m2
18:36 31.2 °F /  -0.4 °C 26.9 °F /  -2.8 °C 30.38in /  1028.7hPa NNE 12.0mph /  19.3km/h 13.0mph /  20.9km/h 84% 0.00in /  0mm 0.00 W/m2
18:38 31.2 °F /  -0.4 °C 26.9 °F /  -2.8 °C 30.38in /  1028.7hPa NE 4.0mph /  6.4km/h 13.0mph /  20.9km/h 84% 0.00in /  0mm 0.00 W/m2
18:39 31.2 °F /  -0.4 °C 26.9 °F /  -2.8 °C 30.38in /  1028.7hPa NE 4.0mph /  6.4km/h 4.0mph /  6.4km/h 84% 0.00in /  0mm 0.00 W/m2
18:40 31.2 °F /  -0.4 °C 26.9 °F /  -2.8 °C 30.38in /  1028.7hPa North 6.0mph /  9.7km/h 13.0mph /  20.9km/h 84% 0.00in /  0mm 0.00 W/m2
18:41 31.2 °F /  -0.4 °C 26.9 °F /  -2.8 °C 30.38in /  1028.7hPa NNE 4.0mph /  6.4km/h 13.0mph /  20.9km/h 84% 0.00in /  0mm 0.00 W/m2
18:43 31.3 °F /  -0.4 °C 27.0 °F /  -2.8 °C 30.38in /  1028.7hPa NNE 3.0mph /  4.8km/h 7.0mph /  11.3km/h 84% 0.00in /  0mm 0.00 W/m2
18:44 31.2 °F /  -0.4 °C 26.9 °F /  -2.8 °C 30.38in /  1028.7hPa NNE 5.0mph /  8km/h 9.0mph /  14.5km/h 84% 0.00in /  0mm 0.00 W/m2
18:46 31.3 °F /  -0.4 °C 26.8 °F /  -2.9 °C 30.38in /  1028.7hPa NNE 15.0mph /  24.1km/h 15.0mph /  24.1km/h 83% 0.00in /  0mm 0.00 W/m2
18:48 31.3 °F /  -0.4 °C 27.0 °F /  -2.8 °C 30.38in /  1028.7hPa NE 5.0mph /  8km/h 12.0mph /  19.3km/h 84% 0.00in /  0mm 0.00 W/m2
18:50 31.3 °F /  -0.4 °C 27.0 °F /  -2.8 °C 30.38in /  1028.7hPa North 4.0mph /  6.4km/h 12.0mph /  19.3km/h 84% 0.00in /  0mm 0.00 W/m2
18:51 31.3 °F /  -0.4 °C 27.0 °F /  -2.8 °C 30.38in /  1028.7hPa NE 6.0mph /  9.7km/h 12.0mph /  19.3km/h 84% 0.00in /  0mm 0.00 W/m2
18:53 31.3 °F /  -0.4 °C 27.0 °F /  -2.8 °C 30.38in /  1028.7hPa NNE 3.0mph /  4.8km/h 14.0mph /  22.5km/h 84% 0.00in /  0mm 0.00 W/m2
18:54 31.3 °F /  -0.4 °C 27.0 °F /  -2.8 °C 30.38in /  1028.7hPa NE 10.0mph /  16.1km/h 12.0mph /  19.3km/h 84% 0.00in /  0mm 0.00 W/m2
18:55 31.3 °F /  -0.4 °C 27.0 °F /  -2.8 °C 30.38in /  1028.7hPa NE 5.0mph /  8km/h 10.0mph /  16.1km/h 84% 0.00in /  0mm 0.00 W/m2
18:57 31.3 °F /  -0.4 °C 27.0 °F /  -2.8 °C 30.38in /  1028.7hPa ENE 10.0mph /  16.1km/h 12.0mph /  19.3km/h 84% 0.00in /  0mm 0.00 W/m2
18:58 31.3 °F /  -0.4 °C 27.0 °F /  -2.8 °C 30.38in /  1028.7hPa NNE 5.0mph /  8km/h 11.0mph /  17.7km/h 84% 0.00in /  0mm 0.00 W/m2
18:59 31.3 °F /  -0.4 °C 27.0 °F /  -2.8 °C 30.38in /  1028.7hPa NNE 4.0mph /  6.4km/h 11.0mph /  17.7km/h 84% 0.00in /  0mm 0.00 W/m2
19:00 31.3 °F /  -0.4 °C 27.0 °F /  -2.8 °C 30.38in /  1028.7hPa NE 3.0mph /  4.8km/h 12.0mph /  19.3km/h 84% 0.00in /  0mm 0.00 W/m2
19:03 31.4 °F /  -0.3 °C 27.1 °F /  -2.7 °C 30.37in /  1028.3hPa NE 8.0mph /  12.9km/h 11.0mph /  17.7km/h 84% 0.00in /  0mm 0.00 W/m2
19:04 31.4 °F /  -0.3 °C 27.1 °F /  -2.7 °C 30.37in /  1028.3hPa NNE 4.0mph /  6.4km/h 12.0mph /  19.3km/h 84% 0.00in /  0mm 0.00 W/m2
19:05 31.4 °F /  -0.3 °C 27.1 °F /  -2.7 °C 30.37in /  1028.3hPa NE 6.0mph /  9.7km/h 12.0mph /  19.3km/h 84% 0.00in /  0mm 0.00 W/m2
19:06 31.4 °F /  -0.3 °C 27.1 °F /  -2.7 °C 30.37in /  1028.3hPa NE 7.0mph /  11.3km/h 12.0mph /  19.3km/h 84% 0.00in /  0mm 0.00 W/m2
19:08 31.4 °F /  -0.3 °C 27.1 °F /  -2.7 °C 30.38in /  1028.7hPa NE 6.0mph /  9.7km/h 6.0mph /  9.7km/h 84% 0.00in /  0mm 0.00 W/m2
19:09 31.4 °F /  -0.3 °C 27.1 °F /  -2.7 °C 30.37in /  1028.3hPa North 11.0mph /  17.7km/h 11.0mph /  17.7km/h 84% 0.00in /  0mm 0.00 W/m2
19:11 31.4 °F /  -0.3 °C 27.1 °F /  -2.7 °C 30.38in /  1028.7hPa NE 5.0mph /  8km/h 12.0mph /  19.3km/h 84% 0.00in /  0mm 0.00 W/m2
19:13 31.4 °F /  -0.3 °C 27.1 °F /  -2.7 °C 30.37in /  1028.3hPa NNE 9.0mph /  14.5km/h 11.0mph /  17.7km/h 84% 0.00in /  0mm 0.00 W/m2
19:14 31.4 °F /  -0.3 °C 27.1 °F /  -2.7 °C 30.37in /  1028.3hPa NNE 5.0mph /  8km/h 11.0mph /  17.7km/h 84% 0.00in /  0mm 0.00 W/m2
19:16 31.3 °F /  -0.4 °C 27.0 °F /  -2.8 °C 30.37in /  1028.3hPa NE 3.0mph /  4.8km/h 9.0mph /  14.5km/h 84% 0.00in /  0mm 0.00 W/m2
19:17 31.3 °F /  -0.4 °C 27.0 °F /  -2.8 °C 30.37in /  1028.3hPa NNE 9.0mph /  14.5km/h 13.0mph /  20.9km/h 84% 0.00in /  0mm 0.00 W/m2
19:18 31.3 °F /  -0.4 °C 27.0 °F /  -2.8 °C 30.37in /  1028.3hPa NE 4.0mph /  6.4km/h 10.0mph /  16.1km/h 84% 0.00in /  0mm 0.00 W/m2
19:19 31.3 °F /  -0.4 °C 27.3 °F /  -2.6 °C 30.37in /  1028.3hPa NE 3.0mph /  4.8km/h 10.0mph /  16.1km/h 85% 0.00in /  0mm 0.00 W/m2
19:20 31.4 °F /  -0.3 °C 27.4 °F /  -2.6 °C 30.37in /  1028.3hPa NE 10.0mph /  16.1km/h 10.0mph /  16.1km/h 85% 0.00in /  0mm 0.00 W/m2
19:22 31.3 °F /  -0.4 °C 27.3 °F /  -2.6 °C 30.38in /  1028.7hPa NE 3.0mph /  4.8km/h 7.0mph /  11.3km/h 85% 0.00in /  0mm 0.00 W/m2
19:24 31.3 °F /  -0.4 °C 27.3 °F /  -2.6 °C 30.38in /  1028.7hPa NNE 2.0mph /  3.2km/h 9.0mph /  14.5km/h 85% 0.00in /  0mm 0.00 W/m2
19:25 31.3 °F /  -0.4 °C 27.3 °F /  -2.6 °C 30.38in /  1028.7hPa NNE 3.0mph /  4.8km/h 11.0mph /  17.7km/h 85% 0.00in /  0mm 0.00 W/m2
19:27 31.3 °F /  -0.4 °C 27.3 °F /  -2.6 °C 30.38in /  1028.7hPa NE 9.0mph /  14.5km/h 11.0mph /  17.7km/h 85% 0.00in /  0mm 0.00 W/m2
19:29 31.3 °F /  -0.4 °C 27.3 °F /  -2.6 °C 30.38in /  1028.7hPa NE 3.0mph /  4.8km/h 10.0mph /  16.1km/h 85% 0.00in /  0mm 0.00 W/m2
19:30 31.3 °F /  -0.4 °C 27.3 °F /  -2.6 °C 30.37in /  1028.3hPa NE 4.0mph /  6.4km/h 11.0mph /  17.7km/h 85% 0.00in /  0mm 0.00 W/m2
19:32 31.3 °F /  -0.4 °C 27.3 °F /  -2.6 °C 30.38in /  1028.7hPa NE 5.0mph /  8km/h 12.0mph /  19.3km/h 85% 0.00in /  0mm 0.00 W/m2
19:33 31.2 °F /  -0.4 °C 27.2 °F /  -2.7 °C 30.38in /  1028.7hPa ENE 6.0mph /  9.7km/h 10.0mph /  16.1km/h 85% 0.00in /  0mm 0.00 W/m2
19:35 31.3 °F /  -0.4 °C 27.3 °F /  -2.6 °C 30.37in /  1028.3hPa NE 9.0mph /  14.5km/h 11.0mph /  17.7km/h 85% 0.00in /  0mm 0.00 W/m2
19:36 31.2 °F /  -0.4 °C 27.2 °F /  -2.7 °C 30.38in /  1028.7hPa NE 5.0mph /  8km/h 11.0mph /  17.7km/h 85% 0.00in /  0mm 0.00 W/m2
19:38 31.2 °F /  -0.4 °C 27.2 °F /  -2.7 °C 30.37in /  1028.3hPa NNE 5.0mph /  8km/h 9.0mph /  14.5km/h 85% 0.00in /  0mm 0.00 W/m2
19:39 31.2 °F /  -0.4 °C 27.5 °F /  -2.5 °C 30.37in /  1028.3hPa NE 4.0mph /  6.4km/h 9.0mph /  14.5km/h 86% 0.00in /  0mm 0.00 W/m2
19:40 31.2 °F /  -0.4 °C 27.5 °F /  -2.5 °C 30.38in /  1028.7hPa NNE 7.0mph /  11.3km/h 14.0mph /  22.5km/h 86% 0.00in /  0mm 0.00 W/m2
19:41 31.2 °F /  -0.4 °C 27.5 °F /  -2.5 °C 30.38in /  1028.7hPa North 7.0mph /  11.3km/h 9.0mph /  14.5km/h 86% 0.00in /  0mm 0.00 W/m2
19:43 31.2 °F /  -0.4 °C 27.5 °F /  -2.5 °C 30.38in /  1028.7hPa North 5.0mph /  8km/h 9.0mph /  14.5km/h 86% 0.00in /  0mm 0.00 W/m2
19:44 31.2 °F /  -0.4 °C 27.5 °F /  -2.5 °C 30.38in /  1028.7hPa North 4.0mph /  6.4km/h 9.0mph /  14.5km/h 86% 0.00in /  0mm 0.00 W/m2
19:45 31.2 °F /  -0.4 °C 27.5 °F /  -2.5 °C 30.38in /  1028.7hPa NNE 2.0mph /  3.2km/h 5.0mph /  8km/h 86% 0.00in /  0mm 0.00 W/m2
19:47 31.2 °F /  -0.4 °C 27.5 °F /  -2.5 °C 30.38in /  1028.7hPa NE 3.0mph /  4.8km/h 9.0mph /  14.5km/h 86% 0.00in /  0mm 0.00 W/m2
19:49 31.2 °F /  -0.4 °C 27.5 °F /  -2.5 °C 30.38in /  1028.7hPa NE 2.0mph /  3.2km/h 9.0mph /  14.5km/h 86% 0.00in /  0mm 0.00 W/m2
19:50 31.2 °F /  -0.4 °C 27.5 °F /  -2.5 °C 30.38in /  1028.7hPa NE 1.0mph /  1.6km/h 9.0mph /  14.5km/h 86% 0.00in /  0mm 0.00 W/m2
19:53 31.2 °F /  -0.4 °C 27.5 °F /  -2.5 °C 30.38in /  1028.7hPa NNE 9.0mph /  14.5km/h 13.0mph /  20.9km/h 86% 0.00in /  0mm 0.00 W/m2
19:55 31.2 °F /  -0.4 °C 27.5 °F /  -2.5 °C 30.38in /  1028.7hPa NNE 6.0mph /  9.7km/h 10.0mph /  16.1km/h 86% 0.00in /  0mm 0.00 W/m2
19:56 31.2 °F /  -0.4 °C 27.5 °F /  -2.5 °C 30.38in /  1028.7hPa NNE 4.0mph /  6.4km/h 10.0mph /  16.1km/h 86% 0.00in /  0mm 0.00 W/m2
19:58 31.1 °F /  -0.5 °C 27.4 °F /  -2.6 °C 30.38in /  1028.7hPa NNE 11.0mph /  17.7km/h 11.0mph /  17.7km/h 86% 0.00in /  0mm 0.00 W/m2
20:01 31.2 °F /  -0.4 °C 27.5 °F /  -2.5 °C 30.38in /  1028.7hPa NE 7.0mph /  11.3km/h 14.0mph /  22.5km/h 86% 0.00in /  0mm 0.00 W/m2
20:05 31.1 °F /  -0.5 °C 27.4 °F /  -2.6 °C 30.38in /  1028.7hPa NNE 3.0mph /  4.8km/h 7.0mph /  11.3km/h 86% 0.00in /  0mm 0.00 W/m2
20:06 31.1 °F /  -0.5 °C 27.4 °F /  -2.6 °C 30.38in /  1028.7hPa North 10.0mph /  16.1km/h 10.0mph /  16.1km/h 86% 0.00in /  0mm 0.00 W/m2
20:10 31.1 °F /  -0.5 °C 27.4 °F /  -2.6 °C 30.38in /  1028.7hPa NNE 2.0mph /  3.2km/h 10.0mph /  16.1km/h 86% 0.00in /  0mm 0.00 W/m2
20:11 31.1 °F /  -0.5 °C 27.4 °F /  -2.6 °C 30.38in /  1028.7hPa NNE 2.0mph /  3.2km/h 5.0mph /  8km/h 86% 0.00in /  0mm 0.00 W/m2
20:13 31.1 °F /  -0.5 °C 27.4 °F /  -2.6 °C 30.39in /  1029hPa North 1.0mph /  1.6km/h 8.0mph /  12.9km/h 86% 0.00in /  0mm 0.00 W/m2
20:15 31.0 °F /  -0.6 °C 27.3 °F /  -2.6 °C 30.38in /  1028.7hPa NE 2.0mph /  3.2km/h 11.0mph /  17.7km/h 86% 0.00in /  0mm 0.00 W/m2
20:16 31.1 °F /  -0.5 °C 27.4 °F /  -2.6 °C 30.38in /  1028.7hPa NNE 4.0mph /  6.4km/h 11.0mph /  17.7km/h 86% 0.00in /  0mm 0.00 W/m2
20:17 31.1 °F /  -0.5 °C 27.4 °F /  -2.6 °C 30.39in /  1029hPa NNE 3.0mph /  4.8km/h 10.0mph /  16.1km/h 86% 0.00in /  0mm 0.00 W/m2
20:20 31.1 °F /  -0.5 °C 27.4 °F /  -2.6 °C 30.38in /  1028.7hPa NNE 4.0mph /  6.4km/h 10.0mph /  16.1km/h 86% 0.00in /  0mm 0.00 W/m2
20:21 31.0 °F /  -0.6 °C 27.3 °F /  -2.6 °C 30.38in /  1028.7hPa NNE 5.0mph /  8km/h 10.0mph /  16.1km/h 86% 0.00in /  0mm 0.00 W/m2
20:22 31.0 °F /  -0.6 °C 27.3 °F /  -2.6 °C 30.38in /  1028.7hPa NNE 4.0mph /  6.4km/h 10.0mph /  16.1km/h 86% 0.00in /  0mm 0.00 W/m2
20:23 31.1 °F /  -0.5 °C 27.4 °F /  -2.6 °C 30.38in /  1028.7hPa NNE 5.0mph /  8km/h 10.0mph /  16.1km/h 86% 0.00in /  0mm 0.00 W/m2
20:26 31.1 °F /  -0.5 °C 27.4 °F /  -2.6 °C 30.38in /  1028.7hPa NNE 3.0mph /  4.8km/h 10.0mph /  16.1km/h 86% 0.00in /  0mm 0.00 W/m2
20:27 31.1 °F /  -0.5 °C 27.4 °F /  -2.6 °C 30.38in /  1028.7hPa NNE 4.0mph /  6.4km/h 6.0mph /  9.7km/h 86% 0.00in /  0mm 0.00 W/m2
20:28 31.1 °F /  -0.5 °C 27.4 °F /  -2.6 °C 30.38in /  1028.7hPa NNE 5.0mph /  8km/h 11.0mph /  17.7km/h 86% 0.00in /  0mm 0.00 W/m2
20:30 31.1 °F /  -0.5 °C 27.4 °F /  -2.6 °C 30.38in /  1028.7hPa NNE 9.0mph /  14.5km/h 10.0mph /  16.1km/h 86% 0.00in /  0mm 0.00 W/m2
20:32 31.1 °F /  -0.5 °C 27.4 °F /  -2.6 °C 30.38in /  1028.7hPa NNE 6.0mph /  9.7km/h 10.0mph /  16.1km/h 86% 0.00in /  0mm 0.00 W/m2
20:33 31.1 °F /  -0.5 °C 27.4 °F /  -2.6 °C 30.38in /  1028.7hPa NNE 7.0mph /  11.3km/h 12.0mph /  19.3km/h 86% 0.00in /  0mm 0.00 W/m2
20:34 31.1 °F /  -0.5 °C 27.4 °F /  -2.6 °C 30.38in /  1028.7hPa North 5.0mph /  8km/h 12.0mph /  19.3km/h 86% 0.00in /  0mm 0.00 W/m2
20:37 31.2 °F /  -0.4 °C 27.8 °F /  -2.3 °C 30.38in /  1028.7hPa NNE 4.0mph /  6.4km/h 9.0mph /  14.5km/h 87% 0.00in /  0mm 0.00 W/m2
20:38 31.1 °F /  -0.5 °C 27.7 °F /  -2.4 °C 30.38in /  1028.7hPa NNE 9.0mph /  14.5km/h 9.0mph /  14.5km/h 87% 0.00in /  0mm 0.00 W/m2
20:39 31.2 °F /  -0.4 °C 27.5 °F /  -2.5 °C 30.38in /  1028.7hPa North 3.0mph /  4.8km/h 9.0mph /  14.5km/h 86% 0.00in /  0mm 0.00 W/m2
20:41 31.2 °F /  -0.4 °C 27.5 °F /  -2.5 °C 30.38in /  1028.7hPa North 10.0mph /  16.1km/h 11.0mph /  17.7km/h 86% 0.00in /  0mm 0.00 W/m2
20:42 31.2 °F /  -0.4 °C 27.8 °F /  -2.3 °C 30.38in /  1028.7hPa NNE 5.0mph /  8km/h 11.0mph /  17.7km/h 87% 0.00in /  0mm 0.00 W/m2
20:43 31.2 °F /  -0.4 °C 27.8 °F /  -2.3 °C 30.38in /  1028.7hPa NNE 5.0mph /  8km/h 10.0mph /  16.1km/h 87% 0.00in /  0mm 0.00 W/m2
20:44 31.2 °F /  -0.4 °C 27.8 °F /  -2.3 °C 30.38in /  1028.7hPa NNE 3.0mph /  4.8km/h 10.0mph /  16.1km/h 87% 0.00in /  0mm 0.00 W/m2
20:47 31.2 °F /  -0.4 °C 27.8 °F /  -2.3 °C 30.38in /  1028.7hPa NNE 3.0mph /  4.8km/h 8.0mph /  12.9km/h 87% 0.00in /  0mm 0.00 W/m2
20:48 31.2 °F /  -0.4 °C 27.8 °F /  -2.3 °C 30.38in /  1028.7hPa North 3.0mph /  4.8km/h 6.0mph /  9.7km/h 87% 0.00in /  0mm 0.00 W/m2
20:49 31.2 °F /  -0.4 °C 27.8 °F /  -2.3 °C 30.38in /  1028.7hPa North 7.0mph /  11.3km/h 7.0mph /  11.3km/h 87% 0.00in /  0mm 0.00 W/m2
20:52 31.2 °F /  -0.4 °C 27.8 °F /  -2.3 °C 30.38in /  1028.7hPa North 6.0mph /  9.7km/h 8.0mph /  12.9km/h 87% 0.00in /  0mm 0.00 W/m2
20:53 31.2 °F /  -0.4 °C 27.8 °F /  -2.3 °C 30.38in /  1028.7hPa North 4.0mph /  6.4km/h 8.0mph /  12.9km/h 87% 0.00in /  0mm 0.00 W/m2
20:54 31.2 °F /  -0.4 °C 27.8 °F /  -2.3 °C 30.39in /  1029hPa NNE 5.0mph /  8km/h 10.0mph /  16.1km/h 87% 0.00in /  0mm 0.00 W/m2
20:56 31.2 °F /  -0.4 °C 27.8 °F /  -2.3 °C 30.39in /  1029hPa NNE 4.0mph /  6.4km/h 11.0mph /  17.7km/h 87% 0.00in /  0mm 0.00 W/m2
20:58 31.2 °F /  -0.4 °C 27.8 °F /  -2.3 °C 30.38in /  1028.7hPa NNE 5.0mph /  8km/h 10.0mph /  16.1km/h 87% 0.00in /  0mm 0.00 W/m2
21:01 31.3 °F /  -0.4 °C 27.9 °F /  -2.3 °C 30.38in /  1028.7hPa North 6.0mph /  9.7km/h 12.0mph /  19.3km/h 87% 0.00in /  0mm 0.00 W/m2
21:03 31.2 °F /  -0.4 °C 27.8 °F /  -2.3 °C 30.39in /  1029hPa North 3.0mph /  4.8km/h 9.0mph /  14.5km/h 87% 0.00in /  0mm 0.00 W/m2
21:04 31.2 °F /  -0.4 °C 27.8 °F /  -2.3 °C 30.38in /  1028.7hPa North 6.0mph /  9.7km/h 9.0mph /  14.5km/h 87% 0.00in /  0mm 0.00 W/m2
21:06 31.3 °F /  -0.4 °C 27.9 °F /  -2.3 °C 30.38in /  1028.7hPa NNE 4.0mph /  6.4km/h 8.0mph /  12.9km/h 87% 0.00in /  0mm 0.00 W/m2
21:08 31.2 °F /  -0.4 °C 27.8 °F /  -2.3 °C 30.38in /  1028.7hPa North 5.0mph /  8km/h 9.0mph /  14.5km/h 87% 0.00in /  0mm 0.00 W/m2
21:09 31.3 °F /  -0.4 °C 27.9 °F /  -2.3 °C 30.38in /  1028.7hPa North 5.0mph /  8km/h 9.0mph /  14.5km/h 87% 0.00in /  0mm 0.00 W/m2
21:10 31.3 °F /  -0.4 °C 27.9 °F /  -2.3 °C 30.38in /  1028.7hPa North 3.0mph /  4.8km/h 6.0mph /  9.7km/h 87% 0.00in /  0mm 0.00 W/m2
21:11 31.3 °F /  -0.4 °C 28.2 °F /  -2.1 °C 30.39in /  1029hPa NNW 8.0mph /  12.9km/h 11.0mph /  17.7km/h 88% 0.00in /  0mm 0.00 W/m2
21:13 31.2 °F /  -0.4 °C 27.8 °F /  -2.3 °C 30.39in /  1029hPa North 5.0mph /  8km/h 11.0mph /  17.7km/h 87% 0.00in /  0mm 0.00 W/m2
21:14 31.3 °F /  -0.4 °C 27.9 °F /  -2.3 °C 30.38in /  1028.7hPa North 4.0mph /  6.4km/h 7.0mph /  11.3km/h 87% 0.00in /  0mm 0.00 W/m2
21:15 31.3 °F /  -0.4 °C 27.9 °F /  -2.3 °C 30.38in /  1028.7hPa North 3.0mph /  4.8km/h 7.0mph /  11.3km/h 87% 0.00in /  0mm 0.00 W/m2
21:17 31.3 °F /  -0.4 °C 27.9 °F /  -2.3 °C 30.39in /  1029hPa North 4.0mph /  6.4km/h 7.0mph /  11.3km/h 87% 0.00in /  0mm 0.00 W/m2
21:18 31.3 °F /  -0.4 °C 28.2 °F /  -2.1 °C 30.39in /  1029hPa North 4.0mph /  6.4km/h 6.0mph /  9.7km/h 88% 0.00in /  0mm 0.00 W/m2
21:21 31.3 °F /  -0.4 °C 28.2 °F /  -2.1 °C 30.39in /  1029hPa North 4.0mph /  6.4km/h 7.0mph /  11.3km/h 88% 0.00in /  0mm 0.00 W/m2
21:22 31.2 °F /  -0.4 °C 28.1 °F /  -2.2 °C 30.39in /  1029hPa North 11.0mph /  17.7km/h 12.0mph /  19.3km/h 88% 0.00in /  0mm 0.00 W/m2
21:23 31.2 °F /  -0.4 °C 28.1 °F /  -2.2 °C 30.39in /  1029hPa North 5.0mph /  8km/h 12.0mph /  19.3km/h 88% 0.00in /  0mm 0.00 W/m2
21:24 31.2 °F /  -0.4 °C 28.1 °F /  -2.2 °C 30.39in /  1029hPa NNW 12.0mph /  19.3km/h 12.0mph /  19.3km/h 88% 0.00in /  0mm 0.00 W/m2
21:26 31.2 °F /  -0.4 °C 28.1 °F /  -2.2 °C 30.39in /  1029hPa North 10.0mph /  16.1km/h 12.0mph /  19.3km/h 88% 0.00in /  0mm 0.00 W/m2
21:27 31.2 °F /  -0.4 °C 28.1 °F /  -2.2 °C 30.39in /  1029hPa North 5.0mph /  8km/h 11.0mph /  17.7km/h 88% 0.00in /  0mm 0.00 W/m2
21:28 31.2 °F /  -0.4 °C 28.1 °F /  -2.2 °C 30.39in /  1029hPa North 6.0mph /  9.7km/h 9.0mph /  14.5km/h 88% 0.00in /  0mm 0.00 W/m2
21:29 31.2 °F /  -0.4 °C 28.1 °F /  -2.2 °C 30.39in /  1029hPa North 3.0mph /  4.8km/h 9.0mph /  14.5km/h 88% 0.00in /  0mm 0.00 W/m2
21:31 31.2 °F /  -0.4 °C 28.1 °F /  -2.2 °C 30.39in /  1029hPa NNW 9.0mph /  14.5km/h 13.0mph /  20.9km/h 88% 0.00in /  0mm 0.00 W/m2
21:33 31.1 °F /  -0.5 °C 28.0 °F /  -2.2 °C 30.39in /  1029hPa North 6.0mph /  9.7km/h 15.0mph /  24.1km/h 88% 0.00in /  0mm 0.00 W/m2
21:34 31.1 °F /  -0.5 °C 28.0 °F /  -2.2 °C 30.39in /  1029hPa North 3.0mph /  4.8km/h 11.0mph /  17.7km/h 88% 0.00in /  0mm 0.00 W/m2
21:37 31.1 °F /  -0.5 °C 28.0 °F /  -2.2 °C 30.39in /  1029hPa NNW 6.0mph /  9.7km/h 14.0mph /  22.5km/h 88% 0.00in /  0mm 0.00 W/m2
21:38 31.1 °F /  -0.5 °C 28.0 °F /  -2.2 °C 30.39in /  1029hPa North 4.0mph /  6.4km/h 12.0mph /  19.3km/h 88% 0.00in /  0mm 0.00 W/m2
21:39 31.1 °F /  -0.5 °C 28.0 °F /  -2.2 °C 30.39in /  1029hPa North 8.0mph /  12.9km/h 11.0mph /  17.7km/h 88% 0.00in /  0mm 0.00 W/m2
21:40 31.0 °F /  -0.6 °C 27.9 °F /  -2.3 °C 30.39in /  1029hPa NNW 4.0mph /  6.4km/h 11.0mph /  17.7km/h 88% 0.00in /  0mm 0.00 W/m2
21:42 31.0 °F /  -0.6 °C 27.9 °F /  -2.3 °C 30.39in /  1029hPa North 6.0mph /  9.7km/h 12.0mph /  19.3km/h 88% 0.00in /  0mm 0.00 W/m2
21:43 31.0 °F /  -0.6 °C 27.9 °F /  -2.3 °C 30.39in /  1029hPa NNW 5.0mph /  8km/h 9.0mph /  14.5km/h 88% 0.00in /  0mm 0.00 W/m2
21:44 31.0 °F /  -0.6 °C 27.9 °F /  -2.3 °C 30.39in /  1029hPa NNW 9.0mph /  14.5km/h 9.0mph /  14.5km/h 88% 0.00in /  0mm 0.00 W/m2
21:45 31.0 °F /  -0.6 °C 27.9 °F /  -2.3 °C 30.39in /  1029hPa North 8.0mph /  12.9km/h 11.0mph /  17.7km/h 88% 0.00in /  0mm 0.00 W/m2
21:47 30.9 °F /  -0.6 °C 27.8 °F /  -2.3 °C 30.39in /  1029hPa North 3.0mph /  4.8km/h 11.0mph /  17.7km/h 88% 0.00in /  0mm 0.00 W/m2
21:49 30.9 °F /  -0.6 °C 27.8 °F /  -2.3 °C 30.39in /  1029hPa North 4.0mph /  6.4km/h 11.0mph /  17.7km/h 88% 0.00in /  0mm 0.00 W/m2
21:50 30.9 °F /  -0.6 °C 27.8 °F /  -2.3 °C 30.39in /  1029hPa North 3.0mph /  4.8km/h 11.0mph /  17.7km/h 88% 0.00in /  0mm 0.00 W/m2
21:51 30.9 °F /  -0.6 °C 27.8 °F /  -2.3 °C 30.39in /  1029hPa North 11.0mph /  17.7km/h 11.0mph /  17.7km/h 88% 0.00in /  0mm 0.00 W/m2
21:52 30.9 °F /  -0.6 °C 27.8 °F /  -2.3 °C 30.39in /  1029hPa North 4.0mph /  6.4km/h 12.0mph /  19.3km/h 88% 0.00in /  0mm 0.00 W/m2
21:55 30.9 °F /  -0.6 °C 27.8 °F /  -2.3 °C 30.39in /  1029hPa North 5.0mph /  8km/h 12.0mph /  19.3km/h 88% 0.00in /  0mm 0.00 W/m2
21:56 30.8 °F /  -0.7 °C 27.7 °F /  -2.4 °C 30.39in /  1029hPa NNW 3.0mph /  4.8km/h 11.0mph /  17.7km/h 88% 0.00in /  0mm 0.00 W/m2
21:58 30.8 °F /  -0.7 °C 28.0 °F /  -2.2 °C 30.39in /  1029hPa NNW 6.0mph /  9.7km/h 11.0mph /  17.7km/h 89% 0.00in /  0mm 0.00 W/m2
22:00 30.8 °F /  -0.7 °C 28.0 °F /  -2.2 °C 30.39in /  1029hPa NNW 8.0mph /  12.9km/h 10.0mph /  16.1km/h 89% 0.00in /  0mm 0.00 W/m2
22:01 30.8 °F /  -0.7 °C 28.0 °F /  -2.2 °C 30.39in /  1029hPa NNW 5.0mph /  8km/h 11.0mph /  17.7km/h 89% 0.00in /  0mm 0.00 W/m2
22:03 30.8 °F /  -0.7 °C 28.0 °F /  -2.2 °C 30.39in /  1029hPa North 7.0mph /  11.3km/h 12.0mph /  19.3km/h 89% 0.00in /  0mm 0.00 W/m2
22:05 30.8 °F /  -0.7 °C 27.7 °F /  -2.4 °C 30.39in /  1029hPa North 14.0mph /  22.5km/h 14.0mph /  22.5km/h 88% 0.00in /  0mm 0.00 W/m2
22:06 30.8 °F /  -0.7 °C 27.7 °F /  -2.4 °C 30.39in /  1029hPa North 6.0mph /  9.7km/h 14.0mph /  22.5km/h 88% 0.00in /  0mm 0.00 W/m2
22:08 30.7 °F /  -0.7 °C 27.9 °F /  -2.3 °C 30.39in /  1029hPa North 7.0mph /  11.3km/h 13.0mph /  20.9km/h 89% 0.00in /  0mm 0.00 W/m2
22:10 30.7 °F /  -0.7 °C 27.9 °F /  -2.3 °C 30.39in /  1029hPa NNE 9.0mph /  14.5km/h 16.0mph /  25.7km/h 89% 0.00in /  0mm 0.00 W/m2
22:11 30.7 °F /  -0.7 °C 27.9 °F /  -2.3 °C 30.39in /  1029hPa North 9.0mph /  14.5km/h 16.0mph /  25.7km/h 89% 0.00in /  0mm 0.00 W/m2
22:15 30.6 °F /  -0.8 °C 27.8 °F /  -2.3 °C 30.39in /  1029hPa NNW 7.0mph /  11.3km/h 9.0mph /  14.5km/h 89% 0.00in /  0mm 0.00 W/m2
22:16 30.6 °F /  -0.8 °C 27.8 °F /  -2.3 °C 30.39in /  1029hPa North 4.0mph /  6.4km/h 13.0mph /  20.9km/h 89% 0.00in /  0mm 0.00 W/m2
22:17 30.6 °F /  -0.8 °C 27.8 °F /  -2.3 °C 30.39in /  1029hPa North 8.0mph /  12.9km/h 13.0mph /  20.9km/h 89% 0.00in /  0mm 0.00 W/m2
22:20 30.6 °F /  -0.8 °C 27.8 °F /  -2.3 °C 30.39in /  1029hPa NNW 9.0mph /  14.5km/h 12.0mph /  19.3km/h 89% 0.00in /  0mm 0.00 W/m2
22:21 30.6 °F /  -0.8 °C 27.8 °F /  -2.3 °C 30.39in /  1029hPa North 7.0mph /  11.3km/h 12.0mph /  19.3km/h 89% 0.00in /  0mm 0.00 W/m2
22:22 30.6 °F /  -0.8 °C 27.8 °F /  -2.3 °C 30.39in /  1029hPa North 8.0mph /  12.9km/h 10.0mph /  16.1km/h 89% 0.00in /  0mm 0.00 W/m2
22:23 30.5 °F /  -0.8 °C 27.6 °F /  -2.4 °C 30.39in /  1029hPa North 10.0mph /  16.1km/h 10.0mph /  16.1km/h 89% 0.00in /  0mm 0.00 W/m2
22:25 30.5 °F /  -0.8 °C 27.6 °F /  -2.4 °C 30.39in /  1029hPa NNW 11.0mph /  17.7km/h 11.0mph /  17.7km/h 89% 0.00in /  0mm 0.00 W/m2
22:26 30.5 °F /  -0.8 °C 27.6 °F /  -2.4 °C 30.39in /  1029hPa North 5.0mph /  8km/h 12.0mph /  19.3km/h 89% 0.00in /  0mm 0.00 W/m2
22:28 30.5 °F /  -0.8 °C 27.6 °F /  -2.4 °C 30.39in /  1029hPa North 6.0mph /  9.7km/h 12.0mph /  19.3km/h 89% 0.00in /  0mm 0.00 W/m2
22:30 30.5 °F /  -0.8 °C 27.6 °F /  -2.4 °C 30.39in /  1029hPa North 3.0mph /  4.8km/h 12.0mph /  19.3km/h 89% 0.00in /  0mm 0.00 W/m2
22:32 30.4 °F /  -0.9 °C 27.5 °F /  -2.5 °C 30.39in /  1029hPa North 5.0mph /  8km/h 5.0mph /  8km/h 89% 0.00in /  0mm 0.00 W/m2
22:33 30.4 °F /  -0.9 °C 27.5 °F /  -2.5 °C 30.39in /  1029hPa North 7.0mph /  11.3km/h 11.0mph /  17.7km/h 89% 0.00in /  0mm 0.00 W/m2
22:36 30.4 °F /  -0.9 °C 27.5 °F /  -2.5 °C 30.39in /  1029hPa NNW 9.0mph /  14.5km/h 10.0mph /  16.1km/h 89% 0.00in /  0mm 0.00 W/m2
22:37 30.4 °F /  -0.9 °C 27.5 °F /  -2.5 °C 30.39in /  1029hPa NNW 9.0mph /  14.5km/h 11.0mph /  17.7km/h 89% 0.00in /  0mm 0.00 W/m2
22:38 30.4 °F /  -0.9 °C 27.5 °F /  -2.5 °C 30.39in /  1029hPa North 11.0mph /  17.7km/h 11.0mph /  17.7km/h 89% 0.00in /  0mm 0.00 W/m2
22:42 30.3 °F /  -0.9 °C 27.5 °F /  -2.5 °C 30.39in /  1029hPa North 3.0mph /  4.8km/h 9.0mph /  14.5km/h 89% 0.00in /  0mm 0.00 W/m2
22:43 30.3 °F /  -0.9 °C 27.5 °F /  -2.5 °C 30.39in /  1029hPa NNW 10.0mph /  16.1km/h 12.0mph /  19.3km/h 89% 0.00in /  0mm 0.00 W/m2
22:44 30.2 °F /  -1 °C 27.4 °F /  -2.6 °C 30.39in /  1029hPa NNW 6.0mph /  9.7km/h 11.0mph /  17.7km/h 89% 0.00in /  0mm 0.00 W/m2
22:47 30.2 °F /  -1 °C 27.4 °F /  -2.6 °C 30.39in /  1029hPa North 4.0mph /  6.4km/h 10.0mph /  16.1km/h 89% 0.00in /  0mm 0.00 W/m2
22:48 30.2 °F /  -1 °C 27.6 °F /  -2.4 °C 30.39in /  1029hPa NNW 9.0mph /  14.5km/h 10.0mph /  16.1km/h 90% 0.00in /  0mm 0.00 W/m2
22:49 30.2 °F /  -1 °C 27.6 °F /  -2.4 °C 30.39in /  1029hPa NNW 3.0mph /  4.8km/h 9.0mph /  14.5km/h 90% 0.00in /  0mm 0.00 W/m2
22:52 30.2 °F /  -1 °C 27.4 °F /  -2.6 °C 30.39in /  1029hPa NNW 5.0mph /  8km/h 10.0mph /  16.1km/h 89% 0.00in /  0mm 0.00 W/m2
22:53 30.1 °F /  -1.1 °C 27.3 °F /  -2.6 °C 30.39in /  1029hPa North 5.0mph /  8km/h 10.0mph /  16.1km/h 89% 0.00in /  0mm 0.00 W/m2
22:54 30.1 °F /  -1.1 °C 27.3 °F /  -2.6 °C 30.39in /  1029hPa North 9.0mph /  14.5km/h 9.0mph /  14.5km/h 89% 0.00in /  0mm 0.00 W/m2
22:55 30.1 °F /  -1.1 °C 27.3 °F /  -2.6 °C 30.39in /  1029hPa North 6.0mph /  9.7km/h 9.0mph /  14.5km/h 89% 0.00in /  0mm 0.00 W/m2
22:57 30.1 °F /  -1.1 °C 27.5 °F /  -2.5 °C 30.39in /  1029hPa North 2.0mph /  3.2km/h 6.0mph /  9.7km/h 90% 0.00in /  0mm 0.00 W/m2
22:58 30.1 °F /  -1.1 °C 27.5 °F /  -2.5 °C 30.39in /  1029hPa NNW 5.0mph /  8km/h 6.0mph /  9.7km/h 90% 0.00in /  0mm 0.00 W/m2
23:00 30.1 °F /  -1.1 °C 27.5 °F /  -2.5 °C 30.39in /  1029hPa North 2.0mph /  3.2km/h 6.0mph /  9.7km/h 90% 0.00in /  0mm 0.00 W/m2
23:01 30.1 °F /  -1.1 °C 27.5 °F /  -2.5 °C 30.39in /  1029hPa North 4.0mph /  6.4km/h 6.0mph /  9.7km/h 90% 0.00in /  0mm 0.00 W/m2
23:05 30.0 °F /  -1.1 °C 27.4 °F /  -2.6 °C 30.39in /  1029hPa NNE 6.0mph /  9.7km/h 9.0mph /  14.5km/h 90% 0.00in /  0mm 0.00 W/m2
23:06 30.1 °F /  -1.1 °C 27.5 °F /  -2.5 °C 30.39in /  1029hPa North 6.0mph /  9.7km/h 9.0mph /  14.5km/h 90% 0.00in /  0mm 0.00 W/m2
23:07 30.0 °F /  -1.1 °C 27.4 °F /  -2.6 °C 30.39in /  1029hPa North 4.0mph /  6.4km/h 8.0mph /  12.9km/h 90% 0.00in /  0mm 0.00 W/m2
23:10 30.0 °F /  -1.1 °C 27.4 °F /  -2.6 °C 30.39in /  1029hPa North 5.0mph /  8km/h 10.0mph /  16.1km/h 90% 0.00in /  0mm 0.00 W/m2
23:11 30.0 °F /  -1.1 °C 27.4 °F /  -2.6 °C 30.39in /  1029hPa North 7.0mph /  11.3km/h 10.0mph /  16.1km/h 90% 0.00in /  0mm 0.00 W/m2
23:12 30.0 °F /  -1.1 °C 27.4 °F /  -2.6 °C 30.39in /  1029hPa North 3.0mph /  4.8km/h 7.0mph /  11.3km/h 90% 0.00in /  0mm 0.00 W/m2
23:13 30.0 °F /  -1.1 °C 27.4 °F /  -2.6 °C 30.39in /  1029hPa North 4.0mph /  6.4km/h 5.0mph /  8km/h 90% 0.00in /  0mm 0.00 W/m2
23:15 30.0 °F /  -1.1 °C 27.4 °F /  -2.6 °C 30.39in /  1029hPa North 4.0mph /  6.4km/h 5.0mph /  8km/h 90% 0.00in /  0mm 0.00 W/m2
23:16 30.0 °F /  -1.1 °C 27.4 °F /  -2.6 °C 30.39in /  1029hPa North 5.0mph /  8km/h 6.0mph /  9.7km/h 90% 0.00in /  0mm 0.00 W/m2
23:17 30.0 °F /  -1.1 °C 27.4 °F /  -2.6 °C 30.39in /  1029hPa North 3.0mph /  4.8km/h 6.0mph /  9.7km/h 90% 0.00in /  0mm 0.00 W/m2
23:18 30.0 °F /  -1.1 °C 27.4 °F /  -2.6 °C 30.39in /  1029hPa North 4.0mph /  6.4km/h 10.0mph /  16.1km/h 90% 0.00in /  0mm 0.00 W/m2
23:21 30.0 °F /  -1.1 °C 27.4 °F /  -2.6 °C 30.39in /  1029hPa North 6.0mph /  9.7km/h 7.0mph /  11.3km/h 90% 0.00in /  0mm 0.00 W/m2
23:22 30.0 °F /  -1.1 °C 27.4 °F /  -2.6 °C 30.39in /  1029hPa NNW 3.0mph /  4.8km/h 7.0mph /  11.3km/h 90% 0.00in /  0mm 0.00 W/m2
23:23 29.9 °F /  -1.2 °C 27.3 °F /  -2.6 °C 30.39in /  1029hPa Calm   4.0mph /  6.4km/h 90% 0.00in /  0mm 0.00 W/m2
23:24 29.9 °F /  -1.2 °C 27.3 °F /  -2.6 °C 30.39in /  1029hPa North 5.0mph /  8km/h 5.0mph /  8km/h 90% 0.00in /  0mm 0.00 W/m2
23:26 29.9 °F /  -1.2 °C 27.3 °F /  -2.6 °C 30.39in /  1029hPa North 6.0mph /  9.7km/h 6.0mph /  9.7km/h 90% 0.00in /  0mm 0.00 W/m2
23:27 29.9 °F /  -1.2 °C 27.3 °F /  -2.6 °C 30.39in /  1029hPa North 3.0mph /  4.8km/h 6.0mph /  9.7km/h 90% 0.00in /  0mm 0.00 W/m2
23:28 29.9 °F /  -1.2 °C 27.3 °F /  -2.6 °C 30.39in /  1029hPa North 4.0mph /  6.4km/h 6.0mph /  9.7km/h 90% 0.00in /  0mm 0.00 W/m2
23:29 29.9 °F /  -1.2 °C 27.3 °F /  -2.6 °C 30.39in /  1029hPa NNW 5.0mph /  8km/h 10.0mph /  16.1km/h 90% 0.00in /  0mm 0.00 W/m2
23:31 29.9 °F /  -1.2 °C 27.3 °F /  -2.6 °C 30.39in /  1029hPa North 7.0mph /  11.3km/h 7.0mph /  11.3km/h 90% 0.00in /  0mm 0.00 W/m2
23:33 29.9 °F /  -1.2 °C 27.3 °F /  -2.6 °C 30.39in /  1029hPa North 7.0mph /  11.3km/h 7.0mph /  11.3km/h 90% 0.00in /  0mm 0.00 W/m2
23:34 29.9 °F /  -1.2 °C 27.3 °F /  -2.6 °C 30.39in /  1029hPa North 5.0mph /  8km/h 7.0mph /  11.3km/h 90% 0.00in /  0mm 0.00 W/m2
23:35 29.9 °F /  -1.2 °C 27.3 °F /  -2.6 °C 30.39in /  1029hPa North 2.0mph /  3.2km/h 7.0mph /  11.3km/h 90% 0.00in /  0mm 0.00 W/m2
23:36 29.8 °F /  -1.2 °C 27.2 °F /  -2.7 °C 30.39in /  1029hPa North 5.0mph /  8km/h 5.0mph /  8km/h 90% 0.00in /  0mm 0.00 W/m2
23:38 29.8 °F /  -1.2 °C 27.2 °F /  -2.7 °C 30.39in /  1029hPa North 4.0mph /  6.4km/h 6.0mph /  9.7km/h 90% 0.00in /  0mm 0.00 W/m2
23:40 29.8 °F /  -1.2 °C 27.2 °F /  -2.7 °C 30.39in /  1029hPa North 3.0mph /  4.8km/h 6.0mph /  9.7km/h 90% 0.00in /  0mm 0.00 W/m2
23:41 29.8 °F /  -1.2 °C 27.2 °F /  -2.7 °C 30.39in /  1029hPa North 1.0mph /  1.6km/h 4.0mph /  6.4km/h 90% 0.00in /  0mm 0.00 W/m2
23:43 29.8 °F /  -1.2 °C 27.2 °F /  -2.7 °C 30.39in /  1029hPa North 3.0mph /  4.8km/h 7.0mph /  11.3km/h 90% 0.00in /  0mm 0.00 W/m2
23:44 29.8 °F /  -1.2 °C 27.2 °F /  -2.7 °C 30.39in /  1029hPa North 5.0mph /  8km/h 5.0mph /  8km/h 90% 0.00in /  0mm 0.00 W/m2
23:45 29.8 °F /  -1.2 °C 27.2 °F /  -2.7 °C 30.39in /  1029hPa North 4.0mph /  6.4km/h 7.0mph /  11.3km/h 90% 0.00in /  0mm 0.00 W/m2
23:46 29.8 °F /  -1.2 °C 27.2 °F /  -2.7 °C 30.39in /  1029hPa North 4.0mph /  6.4km/h 7.0mph /  11.3km/h 90% 0.00in /  0mm 0.00 W/m2
23:47 29.8 °F /  -1.2 °C 27.2 °F /  -2.7 °C 30.39in /  1029hPa North 2.0mph /  3.2km/h 6.0mph /  9.7km/h 90% 0.00in /  0mm 0.00 W/m2
23:48 29.8 °F /  -1.2 °C 27.2 °F /  -2.7 °C 30.39in /  1029hPa North 6.0mph /  9.7km/h 7.0mph /  11.3km/h 90% 0.00in /  0mm 0.00 W/m2
23:49 29.8 °F /  -1.2 °C 27.2 °F /  -2.7 °C 30.39in /  1029hPa North 2.0mph /  3.2km/h 7.0mph /  11.3km/h 90% 0.00in /  0mm 0.00 W/m2
23:51 29.8 °F /  -1.2 °C 27.5 °F /  -2.5 °C 30.39in /  1029hPa North 6.0mph /  9.7km/h 6.0mph /  9.7km/h 91% 0.00in /  0mm 0.00 W/m2
23:52 29.8 °F /  -1.2 °C 27.5 °F /  -2.5 °C 30.39in /  1029hPa NNE 5.0mph /  8km/h 6.0mph /  9.7km/h 91% 0.00in /  0mm 0.00 W/m2
23:54 29.8 °F /  -1.2 °C 27.5 °F /  -2.5 °C 30.39in /  1029hPa North 4.0mph /  6.4km/h 8.0mph /  12.9km/h 91% 0.00in /  0mm 0.00 W/m2
23:56 29.8 °F /  -1.2 °C 27.5 °F /  -2.5 °C 30.39in /  1029hPa North 4.0mph /  6.4km/h 7.0mph /  11.3km/h 91% 0.00in /  0mm 0.00 W/m2
23:57 29.8 °F /  -1.2 °C 27.5 °F /  -2.5 °C 30.39in /  1029hPa North 2.0mph /  3.2km/h 9.0mph /  14.5km/h 91% 0.00in /  0mm 0.00 W/m2
23:58 29.7 °F /  -1.3 °C 27.4 °F /  -2.6 °C 30.39in /  1029hPa North 1.0mph /  1.6km/h 9.0mph /  14.5km/h 91% 0.00in /  0mm 0.00 W/m2
23:59 29.7 °F /  -1.3 °C 27.4 °F /  -2.6 °C 30.39in /  1029hPa NNW 2.0mph /  3.2km/h 7.0mph /  11.3km/h 91% 0.00in /  0mm 0.00 W/m2
Peotone Weather Data
Compliments of Weather Underground